ftp/pub/palmer/observations_modified/2019/April/original_files/AR190411_BASE.txt

Download

Sample DateTime	Unit Id	WS Avg 2min	WD Avg 2min	WGS 10min	WGD 10min	Air Temp	Rel Humidity	Dew Point	Pyranometer	Quantum	Air Pressure	Snow Level	Rainfall	PW Current	Visibility	CBase 1	CBase 2	CBase 3	Vert Vis
2019/04/11 00:00:00	BASE	31.14	36	40.33	28	3.7	100	3.7	0	0	982.3	NA	0.0000	BR	1700	330	0	0	0
2019/04/11 00:01:00	BASE	30.69	35	40.33	28	3.7	100	3.7	0	0	982.4	NA	0.2540	BR	2100	300	0	0	0
2019/04/11 00:02:00	BASE	30.73	39	40.33	28	3.7	100	3.7	0	0	982.3	NA	0.2540	BR	2200	0	0	0	3410
2019/04/11 00:03:00	BASE	32.80	45	40.54	44	3.7	100	3.7	0	0	982.1	NA	0.2540	BR	1200	260	0	0	0
2019/04/11 00:04:00	BASE	34.12	46	40.54	44	3.7	100	3.7	0	0	982.1	NA	0.2540	BR	1300	260	0	0	0
2019/04/11 00:05:00	BASE	34.71	46	40.54	44	3.7	100	3.7	0	0	982.1	NA	0.0000	-RA BR	1000	260	0	0	0
2019/04/11 00:06:00	BASE	34.74	45	40.54	44	3.7	100	3.7	0	0	982.0	NA	0.2540	UP BR	0900	260	0	0	0
2019/04/11 00:07:00	BASE	34.43	44	40.54	44	3.7	100	3.7	0	0	982.0	NA	0.2540	UP BR	1000	0	0	0	3350
2019/04/11 00:08:00	BASE	34.29	45	40.54	44	3.7	100	3.7	0	0	982.0	NA	0.2540	UP BR	1000	200	0	0	0
2019/04/11 00:09:00	BASE	32.86	44	40.54	44	3.7	100	3.7	0	0	982.1	NA	0.2540	UP BR	1100	260	0	0	0
2019/04/11 00:10:00	BASE	31.40	40	40.54	44	3.7	100	3.7	0	0	982.0	NA	0.0000	UP BR	1300	260	0	0	0
2019/04/11 00:11:00	BASE	32.26	41	40.54	44	3.7	100	3.7	0	0	981.9	NA	0.2540	UP BR	1400	300	0	0	0
2019/04/11 00:12:00	BASE	33.81	43	40.54	44	3.7	100	3.7	0	0	981.8	NA	0.2540	UP BR	1300	300	0	0	0
2019/04/11 00:13:00	BASE	34.25	47	40.33	48	3.7	100	3.7	0	0	981.7	NA	0.0000	UP BR	1200	300	0	0	0
2019/04/11 00:14:00	BASE	35.93	48	41.16	48	3.7	100	3.7	0	0	981.6	NA	0.2540	UP BR	1200	300	0	0	0
2019/04/11 00:15:00	BASE	36.71	46	41.16	48	3.8	100	3.8	0	0	981.7	NA	0.2540	UP BR	0900	230	0	0	0
2019/04/11 00:16:00	BASE	34.75	45	41.16	48	3.8	100	3.8	0	0	981.7	NA	0.2540	UP BR	0800	230	0	0	0
2019/04/11 00:17:00	BASE	32.89	43	41.16	48	3.8	100	3.8	0	0	981.8	NA	0.2540	UP BR	0750	260	0	0	0
2019/04/11 00:18:00	BASE	30.44	43	41.16	48	3.8	100	3.8	0	0	982.0	NA	0.2540	UP BR	1200	300	0	0	0
2019/04/11 00:19:00	BASE	28.69	43	41.16	48	3.8	100	3.8	0	0	982.0	NA	0.2540	UP BR	1600	330	0	0	0
2019/04/11 00:20:00	BASE	29.60	43	41.16	48	3.8	100	3.8	0	0	981.7	NA	0.0000	UP BR	1700	330	0	0	0
2019/04/11 00:21:00	BASE	33.27	42	41.16	48	3.8	100	3.8	0	0	981.5	NA	0.2540	UP BR	2300	260	0	0	0
2019/04/11 00:22:00	BASE	33.33	42	41.16	48	3.8	100	3.8	0	0	981.6	NA	0.2540	UP BR	1000	260	0	0	0
2019/04/11 00:23:00	BASE	31.79	41	41.16	48	3.8	100	3.8	0	0	981.5	NA	0.2540	UP BR	1300	330	0	0	0
2019/04/11 00:24:00	BASE	31.79	37	40.08	41	3.8	100	3.8	0	0	981.5	NA	0.2540	UP BR	2400	300	0	0	0
2019/04/11 00:25:00	BASE	30.87	35	40.08	41	3.8	100	3.8	0	0	981.6	NA	0.2540	UP BR	2300	260	0	0	0
2019/04/11 00:26:00	BASE	28.94	36	38.38	44	3.8	100	3.8	0	0	981.7	NA	0.0000	UP BR	2200	300	0	0	0
2019/04/11 00:27:00	BASE	30.39	38	40.90	32	3.8	100	3.8	0	0	981.4	NA	0.2540	UP BR	2300	300	0	0	0
2019/04/11 00:28:00	BASE	33.34	37	40.90	32	3.8	100	3.8	0	0	981.3	NA	0.2540	UP BR	2500	260	0	0	0
2019/04/11 00:29:00	BASE	33.17	36	40.90	32	3.8	100	3.8	0	0	981.3	NA	0.0000	UP BR	2400	260	0	0	0
2019/04/11 00:30:00	BASE	32.35	34	40.90	32	3.9	100	3.9	0	0	981.3	NA	0.2540	BR	2400	300	0	0	0
2019/04/11 00:31:00	BASE	30.93	35	40.90	32	3.9	100	3.9	0	0	981.4	NA	0.2540	BR	2000	300	0	0	0
2019/04/11 00:32:00	BASE	30.46	37	40.90	32	3.9	100	3.9	0	0	981.4	NA	0.2540	BR	2000	330	0	0	0
2019/04/11 00:33:00	BASE	30.84	37	40.90	32	3.9	100	3.9	0	0	981.3	NA	0.0000	BR	2500	300	0	0	0
2019/04/11 00:34:00	BASE	33.94	34	42.70	29	3.9	100	3.9	0	0	980.9	NA	0.2540	BR	2600	330	0	0	0
2019/04/11 00:35:00	BASE	35.40	33	42.70	29	3.9	100	3.9	0	0	981.0	NA	0.0000	BR	2300	330	0	0	0
2019/04/11 00:36:00	BASE	34.24	32	42.70	29	3.9	100	3.9	0	0	981.0	NA	0.2540	BR	2400	300	0	0	0
2019/04/11 00:37:00	BASE	33.19	32	42.70	29	3.9	100	3.9	0	0	981.1	NA	0.2540	BR	2300	330	0	0	0
2019/04/11 00:38:00	BASE	31.28	35	42.70	29	3.9	100	3.9	0	0	981.1	NA	0.2540	BR	2000	300	0	0	0
2019/04/11 00:39:00	BASE	32.90	39	42.70	29	3.9	100	3.9	0	0	981.0	NA	0.0000	BR	2200	300	0	0	0
2019/04/11 00:40:00	BASE	33.47	40	42.70	29	3.9	100	3.9	0	0	981.1	NA	0.2540	BR	1000	260	0	0	0
2019/04/11 00:41:00	BASE	32.07	38	42.70	29	3.9	100	3.9	0	0	981.0	NA	0.2540	BR	0800	300	0	0	0
2019/04/11 00:42:00	BASE	33.03	38	42.70	29	3.8	100	3.8	0	0	981.0	NA	0.2540	UP BR	1500	300	0	0	0
2019/04/11 00:43:00	BASE	33.80	35	42.70	29	3.8	100	3.8	0	0	981.0	NA	0.0000	UP BR	2500	260	0	0	0
2019/04/11 00:44:00	BASE	31.92	32	41.21	40	3.8	100	3.8	0	0	981.1	NA	0.2540	UP BR	2700	360	0	0	0
2019/04/11 00:45:00	BASE	32.58	31	41.21	40	3.8	100	3.8	0	0	980.8	NA	0.0000	UP BR	2700	300	0	0	0
2019/04/11 00:46:00	BASE	34.62	33	41.21	40	3.8	100	3.8	0	0	980.9	NA	0.2540	UP BR	2600	300	0	0	0
2019/04/11 00:47:00	BASE	32.63	35	41.21	40	3.8	100	3.8	0	0	981.0	NA	0.0000	UP BR	2700	330	0	0	0
2019/04/11 00:48:00	BASE	32.42	33	41.62	27	3.7	100	3.7	0	0	980.8	NA	0.2540	UP BR	2600	330	0	0	0
2019/04/11 00:49:00	BASE	32.33	31	41.62	27	3.7	100	3.7	0	0	980.9	NA	0.0000	UP BR	2600	300	0	0	0
2019/04/11 00:50:00	BASE	30.13	29	41.62	27	3.7	100	3.7	0	0	981.0	NA	0.2540	UP BR	2300	300	0	0	0
2019/04/11 00:51:00	BASE	29.80	29	41.62	27	3.7	100	3.7	0	0	980.9	NA	0.2540	BR	2300	330	0	0	0
2019/04/11 00:52:00	BASE	29.39	31	41.62	27	3.6	100	3.6	0	0	980.9	NA	0.0000	BR	2200	300	0	0	0
2019/04/11 00:53:00	BASE	30.64	31	41.62	27	3.6	100	3.6	0	0	980.8	NA	0.2540	BR	1700	260	0	0	0
2019/04/11 00:54:00	BASE	31.38	30	41.62	27	3.6	100	3.6	0	0	980.8	NA	0.2540	BR	1800	330	0	0	0
2019/04/11 00:55:00	BASE	31.63	30	41.62	27	3.6	100	3.6	0	0	980.6	NA	0.0000	BR	2100	300	2660	0	0
2019/04/11 00:56:00	BASE	34.03	31	41.62	27	3.6	100	3.6	0	0	980.5	NA	0.2540	BR	2100	300	0	0	0
2019/04/11 00:57:00	BASE	33.93	33	41.62	27	3.6	100	3.6	0	0	980.5	NA	0.2540	BR	2200	300	0	0	0
2019/04/11 00:58:00	BASE	32.90	33	41.26	20	3.6	100	3.6	0	0	980.5	NA	0.0000	BR	2300	330	1380	0	0
2019/04/11 00:59:00	BASE	33.33	32	41.26	20	3.6	100	3.6	0	0	980.4	NA	0.2540	BR	2400	300	0	0	0
2019/04/11 01:00:00	BASE	33.37	31	41.26	20	3.6	100	3.6	0	0	980.4	NA	0.0000	BR	2300	300	0	0	0
2019/04/11 01:01:00	BASE	32.89	31	41.26	20	3.6	100	3.6	0	0	980.5	NA	0.2540	BR	2200	330	0	0	0
2019/04/11 01:02:00	BASE	32.84	29	41.26	20	3.5	100	3.5	0	0	980.5	NA	0.0000	BR	2500	300	0	0	0
2019/04/11 01:03:00	BASE	32.45	28	41.26	20	3.5	100	3.5	0	0	980.5	NA	0.2540	BR	2400	300	0	0	0
2019/04/11 01:04:00	BASE	33.09	27	41.26	20	3.5	100	3.5	0	0	980.3	NA	0.2540	BR	2100	300	0	0	0
2019/04/11 01:05:00	BASE	33.00	30	41.26	20	3.5	100	3.5	0	0	980.3	NA	0.0000	BR	1900	260	0	0	0
2019/04/11 01:06:00	BASE	31.68	32	39.35	28	3.5	100	3.5	0	0	980.3	NA	0.2540	BR	1900	300	0	0	0
2019/04/11 01:07:00	BASE	31.09	29	39.35	28	3.5	100	3.5	0	0	980.3	NA	0.0000	BR	2500	360	0	0	0
2019/04/11 01:08:00	BASE	31.80	27	39.35	28	3.5	100	3.5	0	0	980.1	NA	0.2540	BR	2600	330	0	0	0
2019/04/11 01:09:00	BASE	31.76	25	39.35	28	3.5	100	3.5	0	0	980.2	NA	0.0000	BR	2700	360	0	0	0
2019/04/11 01:10:00	BASE	30.85	23	39.05	25	3.5	100	3.5	0	0	980.2	NA	0.0000	BR	2600	360	0	0	0
2019/04/11 01:11:00	BASE	31.20	22	39.05	25	3.5	100	3.5	0	0	980.2	NA	0.2540	BR	2600	300	0	0	0
2019/04/11 01:12:00	BASE	31.54	25	39.05	25	3.5	100	3.5	0	0	980.0	NA	0.0000	BR	2500	300	0	0	0
2019/04/11 01:13:00	BASE	33.20	25	39.05	25	3.5	100	3.5	0	0	979.9	NA	0.2540	BR	2400	330	0	0	0
2019/04/11 01:14:00	BASE	34.97	24	41.67	28	3.5	100	3.5	0	0	979.8	NA	0.0000	BR	2400	300	0	0	0
2019/04/11 01:15:00	BASE	34.31	26	41.67	28	3.5	100	3.5	0	0	979.9	NA	0.2540	BR	2400	300	0	0	0
2019/04/11 01:16:00	BASE	34.33	27	43.06	27	3.5	100	3.5	0	0	979.7	NA	0.0000	BR	2400	300	0	0	0
2019/04/11 01:17:00	BASE	34.32	24	43.52	11	3.5	100	3.5	0	0	979.6	NA	0.2540	BR	2600	330	0	0	0
2019/04/11 01:18:00	BASE	35.16	25	43.52	11	3.6	100	3.6	0	0	979.4	NA	0.0000	BR	2500	360	0	0	0
2019/04/11 01:19:00	BASE	34.46	30	43.52	11	3.6	100	3.6	0	0	979.6	NA	0.2540	BR	2300	330	0	0	0
2019/04/11 01:20:00	BASE	33.94	31	43.52	11	3.6	100	3.6	0	0	979.4	NA	0.2540	BR	2400	330	0	0	0
2019/04/11 01:21:00	BASE	36.27	30	43.52	11	3.6	100	3.6	0	0	979.4	NA	0.0000	BR	2600	330	0	0	0
2019/04/11 01:22:00	BASE	35.68	30	43.52	11	3.6	100	3.6	0	0	979.4	NA	0.0000	BR	2500	300	0	0	0
2019/04/11 01:23:00	BASE	35.07	34	43.52	11	3.6	100	3.6	0	0	979.3	NA	0.2540	BR	2400	300	0	0	0
2019/04/11 01:24:00	BASE	36.29	35	43.52	11	3.6	100	3.6	0	0	979.2	NA	0.2540	BR	2600	300	0	0	0
2019/04/11 01:25:00	BASE	36.95	33	43.52	11	3.6	100	3.6	0	0	979.2	NA	0.0000	BR	2300	300	0	0	0
2019/04/11 01:26:00	BASE	36.24	31	43.52	11	3.6	100	3.6	0	0	979.3	NA	0.2540	BR	2200	260	0	0	0
2019/04/11 01:27:00	BASE	35.48	31	43.47	29	3.6	100	3.6	0	0	979.3	NA	0.0000	BR	2100	300	0	0	0
2019/04/11 01:28:00	BASE	34.17	30	43.47	29	3.6	100	3.6	0	0	979.3	NA	0.2540	BR	2100	260	0	0	0
2019/04/11 01:29:00	BASE	33.72	27	43.47	29	3.6	100	3.6	0	0	979.2	NA	0.2540	BR	2100	260	0	0	0
2019/04/11 01:30:00	BASE	34.30	28	43.47	29	3.6	100	3.6	0	0	979.2	NA	0.0000	BR	2000	300	0	0	0
2019/04/11 01:31:00	BASE	34.19	28	43.47	29	3.6	100	3.6	0	0	979.1	NA	0.2540	BR	2100	260	0	0	0
2019/04/11 01:32:00	BASE	33.49	27	43.47	29	3.6	100	3.6	0	0	979.0	NA	0.2540	BR	2100	300	0	0	0
2019/04/11 01:33:00	BASE	34.95	28	43.47	29	3.6	100	3.6	0	0	978.7	NA	0.0000	BR	2200	300	0	0	0
2019/04/11 01:34:00	BASE	36.23	28	43.47	29	3.6	100	3.6	0	0	978.8	NA	0.2540	BR	2300	300	0	0	0
2019/04/11 01:35:00	BASE	36.61	27	41.93	23	3.6	100	3.6	0	0	978.7	NA	0.0000	BR	2300	300	0	0	0
2019/04/11 01:36:00	BASE	37.21	26	44.45	29	3.6	100	3.6	0	0	978.6	NA	0.2540	BR	1900	330	0	0	0
2019/04/11 01:37:00	BASE	36.93	29	44.45	29	3.6	100	3.6	0	0	978.6	NA	0.2540	BR	2100	300	0	0	0
2019/04/11 01:38:00	BASE	37.84	31	44.45	29	3.7	100	3.7	0	0	978.5	NA	0.0000	BR	2300	300	0	0	0
2019/04/11 01:39:00	BASE	37.36	31	44.45	29	3.7	100	3.7	0	0	978.4	NA	0.2540	BR	2000	300	0	0	0
2019/04/11 01:40:00	BASE	36.26	31	44.45	29	3.7	100	3.7	0	0	978.5	NA	0.2540	BR	2000	300	0	0	0
2019/04/11 01:41:00	BASE	35.61	30	44.45	29	3.7	100	3.7	0	0	978.5	NA	0.0000	BR	2300	300	0	0	0
2019/04/11 01:42:00	BASE	35.15	29	44.45	29	3.7	100	3.7	0	0	978.5	NA	0.2540	BR	2300	260	0	0	0
2019/04/11 01:43:00	BASE	34.60	26	44.45	29	3.6	100	3.6	0	0	978.6	NA	0.0000	BR	2000	260	0	0	0
2019/04/11 01:44:00	BASE	35.64	23	44.45	29	3.6	100	3.6	0	0	978.4	NA	0.2540	BR	2100	300	0	0	0
2019/04/11 01:45:00	BASE	36.55	25	44.45	29	3.6	100	3.6	0	0	978.5	NA	0.2540	BR	2100	300	0	0	0
2019/04/11 01:46:00	BASE	35.54	28	43.42	31	3.6	100	3.6	0	0	978.5	NA	0.0000	BR	2200	300	0	0	0
2019/04/11 01:47:00	BASE	36.40	27	43.42	31	3.5	100	3.5	0	0	978.3	NA	0.2540	BR	1900	260	0	0	0
2019/04/11 01:48:00	BASE	35.80	24	43.42	31	3.5	100	3.5	0	0	978.4	NA	0.2540	BR	1700	260	0	0	0
2019/04/11 01:49:00	BASE	34.52	24	42.03	35	3.5	100	3.5	0	0	978.2	NA	0.2540	BR	1700	260	0	0	0
2019/04/11 01:50:00	BASE	37.29	26	44.65	30	3.5	100	3.5	0	0	978.1	NA	0.2540	BR	1700	260	0	0	0
2019/04/11 01:51:00	BASE	38.54	27	44.65	30	3.5	100	3.5	0	0	978.0	NA	0.2540	BR	1800	260	0	0	0
2019/04/11 01:52:00	BASE	36.84	26	44.65	30	3.5	100	3.5	0	0	978.1	NA	0.0000	BR	2000	260	0	0	0
2019/04/11 01:53:00	BASE	36.00	27	44.65	30	3.5	100	3.5	0	0	978.1	NA	0.2540	BR	1800	260	0	0	0
2019/04/11 01:54:00	BASE	36.85	27	44.71	34	3.5	100	3.5	0	0	978.0	NA	0.2540	BR	1900	300	0	0	0
2019/04/11 01:55:00	BASE	37.18	28	44.71	34	3.5	100	3.5	0	0	978.0	NA	0.0000	BR	2300	300	0	0	0
2019/04/11 01:56:00	BASE	36.39	27	44.71	34	3.5	100	3.5	0	0	978.0	NA	0.2540	BR	2300	260	0	0	0
2019/04/11 01:57:00	BASE	36.15	27	44.71	34	3.5	100	3.5	0	0	977.9	NA	0.2540	BR	2400	330	0	0	0
2019/04/11 01:58:00	BASE	35.09	27	44.71	34	3.5	100	3.5	0	0	977.9	NA	0.0000	BR	2700	330	0	0	0
2019/04/11 01:59:00	BASE	36.13	27	44.71	34	3.5	100	3.5	0	0	977.7	NA	0.2540	BR	2600	330	0	0	0
2019/04/11 02:00:00	BASE	38.40	28	44.71	34	3.5	100	3.5	0	0	977.7	NA	0.0000	BR	2300	260	0	0	0
2019/04/11 02:01:00	BASE	37.95	28	44.71	34	3.5	100	3.5	0	0	977.7	NA	0.2540	BR	1900	300	0	0	0
2019/04/11 02:02:00	BASE	38.02	26	44.71	34	3.5	100	3.5	0	0	977.5	NA	0.2540	BR	1800	260	0	0	0
2019/04/11 02:03:00	BASE	36.82	26	44.71	34	3.5	100	3.5	0	0	977.7	NA	0.2540	BR	2200	0	0	0	4270
2019/04/11 02:04:00	BASE	36.65	27	44.50	28	3.5	100	3.5	0	0	977.5	NA	0.0000	BR	2600	0	0	0	4430
2019/04/11 02:05:00	BASE	38.38	25	44.50	28	3.5	100	3.5	0	0	977.4	NA	0.0000	BR	2600	0	0	0	4330
2019/04/11 02:06:00	BASE	38.03	27	44.35	25	3.5	100	3.5	0	0	977.4	NA	0.2540	BR	2700	0	0	0	4200
2019/04/11 02:07:00	BASE	38.74	28	45.73	24	3.5	100	3.5	0	0	977.2	NA	0.0000	BR	2700	0	0	0	4070
2019/04/11 02:08:00	BASE	38.85	27	45.73	24	3.5	100	3.5	0	0	977.3	NA	0.2540	BR	3000	0	0	0	4040
2019/04/11 02:09:00	BASE	38.12	27	45.73	24	3.5	100	3.5	0	0	977.2	NA	0.0000	BR	2100	0	0	0	4000
2019/04/11 02:10:00	BASE	37.67	26	45.73	24	3.5	100	3.5	0	0	977.3	NA	0.0000	BR	1500	0	0	0	3870
2019/04/11 02:11:00	BASE	35.73	26	45.73	24	3.5	100	3.5	0	0	977.3	NA	0.2540	UP BR	2100	0	0	0	3900
2019/04/11 02:12:00	BASE	36.87	25	45.73	24	3.5	100	3.5	0	0	977.1	NA	0.0000	UP BR	3200	0	0	0	3900
2019/04/11 02:13:00	BASE	37.65	25	45.73	24	3.5	100	3.5	0	0	977.3	NA	0.0000	UP BR	3300	0	0	0	3840
2019/04/11 02:14:00	BASE	36.55	27	45.73	24	3.5	100	3.5	0	0	977.3	NA	0.2540	UP BR	3600	0	0	0	3870
2019/04/11 02:15:00	BASE	36.94	29	45.73	24	3.5	100	3.5	0	0	977.2	NA	0.0000	UP BR	3500	0	0	0	3810
2019/04/11 02:16:00	BASE	38.78	30	47.02	35	3.6	100	3.6	0	0	976.9	NA	0.0000	UP BR	3400	360	0	0	0
2019/04/11 02:17:00	BASE	40.63	31	47.02	35	3.6	100	3.6	0	0	976.8	NA	0.2540	UP BR	1500	330	0	0	0
2019/04/11 02:18:00	BASE	40.82	32	47.02	35	3.6	100	3.6	0	0	976.8	NA	0.0000	UP BR	1000	0	0	0	3870
2019/04/11 02:19:00	BASE	39.48	31	47.02	35	3.7	100	3.7	0	0	977.0	NA	0.2540	UP BR	0800	330	0	0	0
2019/04/11 02:20:00	BASE	38.19	30	47.02	35	3.7	100	3.7	0	0	976.9	NA	0.2540	UP BR	1300	360	0	0	0
2019/04/11 02:21:00	BASE	38.39	29	47.02	35	3.7	100	3.7	0	0	976.9	NA	0.0000	UP BR	1100	300	0	0	0
2019/04/11 02:22:00	BASE	37.77	29	47.02	35	3.7	100	3.7	0	0	976.9	NA	0.2540	UP BR	1300	330	0	0	0
2019/04/11 02:23:00	BASE	38.04	31	47.02	35	3.7	100	3.7	0	0	976.8	NA	0.2540	UP BR	2400	300	0	0	0
2019/04/11 02:24:00	BASE	37.37	34	47.02	35	3.7	100	3.7	0	0	976.9	NA	0.0000	UP BR	2400	260	0	0	0
2019/04/11 02:25:00	BASE	36.00	33	47.02	35	3.7	100	3.7	0	0	976.8	NA	0.2540	UP BR	2400	300	0	0	0
2019/04/11 02:26:00	BASE	37.29	33	46.66	41	3.6	100	3.6	0	0	976.6	NA	0.0000	UP BR	2400	0	0	0	3970
2019/04/11 02:27:00	BASE	40.41	35	48.05	28	3.6	100	3.6	0	0	976.3	NA	0.2540	UP BR	1600	300	0	0	0
2019/04/11 02:28:00	BASE	43.26	35	48.36	33	3.6	100	3.6	0	0	976.1	NA	0.0000	UP BR	1900	300	0	0	0
2019/04/11 02:29:00	BASE	43.28	33	48.36	33	3.7	100	3.7	0	0	976.2	NA	0.2540	UP BR	3100	300	0	0	0
2019/04/11 02:30:00	BASE	42.22	33	49.90	40	3.7	100	3.7	0	0	976.3	NA	0.0000	UP BR	3200	230	0	0	0
2019/04/11 02:31:00	BASE	43.35	36	49.90	40	3.7	100	3.7	0	0	976.0	NA	0.0000	UP BR	1800	260	0	0	0
2019/04/11 02:32:01	BASE	44.41	36	50.36	31	3.8	100	3.8	0	0	976.0	NA	0.2540	UP BR	1300	230	0	0	0
2019/04/11 02:33:00	BASE	44.39	35	50.36	31	3.8	100	3.8	0	0	976.0	NA	0.0000	UP BR	1900	230	0	0	0
2019/04/11 02:34:00	BASE	44.05	36	50.36	31	3.8	100	3.8	0	0	976.0	NA	0.2540	UP BR	1800	230	0	0	0
2019/04/11 02:35:00	BASE	43.26	37	50.36	31	3.8	100	3.8	0	0	976.1	NA	0.0000	UP BR	1500	200	0	0	0
2019/04/11 02:36:00	BASE	43.03	37	50.36	31	3.8	100	3.8	0	0	976.1	NA	0.0000	UP BR	2300	230	0	0	0
2019/04/11 02:37:00	BASE	42.13	37	50.36	31	3.8	100	3.8	0	0	976.1	NA	0.2540	UP BR	3500	230	0	0	0
2019/04/11 02:38:00	BASE	41.04	37	50.36	31	3.8	100	3.8	0	0	976.2	NA	0.0000	UP BR	3500	230	0	0	0
2019/04/11 02:39:00	BASE	42.52	36	50.36	31	3.8	100	3.8	0	0	975.9	NA	0.0000	UP BR	3200	0	0	0	3900
2019/04/11 02:40:00	BASE	44.65	36	50.36	31	3.8	100	3.8	0	0	975.8	NA	0.2540	UP BR	3200	0	0	0	3810
2019/04/11 02:41:00	BASE	44.59	37	50.36	31	3.8	100	3.8	0	0	975.7	NA	0.0000	UP BR	3200	0	0	0	3670
2019/04/11 02:42:00	BASE	42.93	39	50.16	33	3.8	100	3.8	0	0	975.8	NA	0.2540	UP BR	2900	0	0	0	3710
2019/04/11 02:43:00	BASE	43.20	37	49.23	40	3.8	100	3.8	0	0	975.7	NA	0.0000	UP BR	3000	0	0	0	3770
2019/04/11 02:44:00	BASE	45.13	34	50.21	35	3.8	100	3.8	0	0	975.7	NA	0.2540	UP BR	3100	0	0	0	3840
2019/04/11 02:45:00	BASE	44.84	33	50.21	35	3.8	100	3.8	0	0	975.8	NA	0.0000	BR	3100	230	0	0	0
2019/04/11 02:46:00	BASE	42.86	35	50.57	28	3.8	100	3.8	0	0	975.8	NA	0.0000	BR	3200	230	0	0	0
2019/04/11 02:47:00	BASE	42.61	35	50.57	28	3.8	100	3.8	0	0	975.6	NA	0.2540	BR	3200	260	0	0	0
2019/04/11 02:48:00	BASE	43.65	34	50.57	28	3.8	100	3.8	0	0	975.6	NA	0.0000	BR	3500	260	0	0	0
2019/04/11 02:49:00	BASE	43.00	36	50.57	28	3.8	100	3.8	0	0	975.6	NA	0.0000	BR	3800	230	0	0	0
2019/04/11 02:50:00	BASE	42.91	37	50.57	28	3.8	100	3.8	0	0	975.6	NA	0.0000	BR	2200	260	0	0	0
2019/04/11 02:51:00	BASE	43.76	37	50.57	28	3.8	100	3.8	0	0	975.5	NA	0.2540	BR	2400	230	0	0	0
2019/04/11 02:52:00	BASE	43.70	39	50.57	28	3.8	100	3.8	0	0	975.6	NA	0.0000	BR	3500	260	0	0	0
2019/04/11 02:53:00	BASE	42.72	38	50.57	28	3.8	100	3.8	0	0	975.7	NA	0.0000	BR	2100	260	0	0	0
2019/04/11 02:54:00	BASE	42.35	36	50.57	28	3.8	100	3.8	0	0	975.7	NA	0.2540	UP BR	1800	260	0	0	0
2019/04/11 02:55:00	BASE	41.79	37	50.57	28	3.8	100	3.8	0	0	975.7	NA	0.0000	UP BR	1800	300	0	0	0
2019/04/11 02:56:00	BASE	40.23	33	49.08	35	3.8	100	3.8	0	0	975.9	NA	0.0000	UP BR	2500	300	0	0	0
2019/04/11 02:57:00	BASE	40.74	30	49.08	35	3.8	100	3.8	0	0	975.7	NA	0.2540	UP BR	3600	260	0	0	0
2019/04/11 02:58:00	BASE	40.40	30	49.08	35	3.8	100	3.8	0	0	975.7	NA	0.0000	UP BR	3800	300	0	0	0
2019/04/11 02:59:00	BASE	40.47	34	49.08	35	3.8	100	3.8	0	0	975.6	NA	0.0000	UP BR	3800	300	0	0	0
2019/04/11 03:00:00	BASE	41.22	36	48.46	31	3.8	100	3.8	0	0	975.4	NA	0.0000	UP BR	3500	300	0	0	0
2019/04/11 03:01:00	BASE	43.24	36	49.59	39	3.8	100	3.8	0	0	975.1	NA	0.2540	UP BR	3600	260	0	0	0
2019/04/11 03:02:00	BASE	45.41	36	49.59	39	3.8	100	3.8	0	0	975.2	NA	0.0000	UP BR	2200	260	0	0	0
2019/04/11 03:03:00	BASE	44.22	36	49.59	39	3.8	100	3.8	0	0	975.2	NA	0.0000	UP BR	1600	260	0	0	0
2019/04/11 03:04:00	BASE	42.90	36	49.59	39	3.8	100	3.8	0	0	975.2	NA	0.0000	UP BR	1600	300	0	0	0
2019/04/11 03:05:00	BASE	43.34	36	49.59	39	3.8	100	3.8	0	0	975.1	NA	0.2540	UP BR	1700	300	0	0	0
2019/04/11 03:06:00	BASE	43.10	36	49.70	38	3.8	100	3.8	0	0	975.3	NA	0.0000	UP BR	2600	300	0	0	0
2019/04/11 03:07:00	BASE	42.00	35	49.70	38	3.8	100	3.8	0	0	975.2	NA	0.0000	UP BR	3900	330	0	0	0
2019/04/11 03:08:00	BASE	41.46	33	49.70	38	3.8	100	3.8	0	0	975.3	NA	0.0000	UP BR	3900	330	0	0	0
2019/04/11 03:09:00	BASE	38.93	31	49.70	38	3.8	100	3.8	0	0	975.3	NA	0.0000	UP BR	3900	330	0	0	0
2019/04/11 03:10:00	BASE	38.72	28	49.70	38	3.8	100	3.8	0	0	975.2	NA	0.0000	UP BR	4300	330	0	0	0
2019/04/11 03:11:00	BASE	40.77	29	49.70	38	3.8	100	3.8	0	0	975.1	NA	0.2540	UP BR	3800	300	0	0	0
2019/04/11 03:12:00	BASE	39.73	30	49.70	38	3.8	100	3.8	0	0	975.3	NA	0.0000	UP BR	2300	300	0	0	0
2019/04/11 03:13:00	BASE	39.21	28	49.70	38	3.8	100	3.8	0	0	975.3	NA	0.0000	UP BR	2700	300	0	0	0
2019/04/11 03:14:00	BASE	40.24	27	49.70	38	3.8	100	3.8	0	0	975.4	NA	0.0000	UP BR	3500	300	0	0	0
2019/04/11 03:15:00	BASE	40.05	27	49.70	38	3.8	100	3.8	0	0	975.4	NA	0.2540	UP BR	2300	300	0	0	0
2019/04/11 03:16:00	BASE	40.66	27	48.31	20	3.8	100	3.8	0	0	975.2	NA	0.0000	UP BR	2700	260	0	0	0
2019/04/11 03:17:00	BASE	41.05	27	48.31	20	3.8	100	3.8	0	0	975.3	NA	0.0000	UP BR	3500	260	0	0	0
2019/04/11 03:18:00	BASE	40.78	27	48.31	20	3.8	100	3.8	0	0	975.2	NA	0.0000	UP BR	3400	260	0	0	0
2019/04/11 03:19:00	BASE	39.90	29	48.31	20	3.8	100	3.8	0	0	975.4	NA	0.0000	UP BR	3500	260	0	0	0
2019/04/11 03:20:00	BASE	38.95	28	48.31	20	3.7	100	3.7	0	0	975.3	NA	0.2540	UP BR	3600	260	0	0	0
2019/04/11 03:21:00	BASE	39.89	25	48.31	20	3.7	100	3.7	0	0	975.3	NA	0.0000	UP BR	3700	260	0	0	0
2019/04/11 03:22:00	BASE	41.21	27	48.31	20	3.7	100	3.7	0	0	975.2	NA	0.0000	UP BR	3500	300	0	0	0
2019/04/11 03:23:00	BASE	40.25	28	47.79	28	3.7	100	3.7	0	0	975.3	NA	0.2540	BR	3600	260	0	0	0
2019/04/11 03:24:00	BASE	40.35	29	47.79	28	3.7	100	3.7	0	0	975.1	NA	0.0000	BR	3400	260	0	0	0
2019/04/11 03:25:00	BASE	41.89	29	47.79	28	3.7	100	3.7	0	0	975.1	NA	0.0000	BR	3500	260	0	0	0
2019/04/11 03:26:00	BASE	42.28	29	49.08	33	3.8	100	3.8	0	0	974.9	NA	0.0000	BR	3100	260	0	0	0
2019/04/11 03:27:00	BASE	42.78	29	49.08	33	3.8	100	3.8	0	0	974.9	NA	0.2540	BR	3200	260	0	0	0
2019/04/11 03:28:00	BASE	43.00	29	49.08	33	3.8	100	3.8	0	0	974.9	NA	0.0000	BR	3300	260	0	0	0
2019/04/11 03:29:00	BASE	41.80	29	49.08	33	3.8	100	3.8	0	0	974.9	NA	0.0000	BR	3100	260	0	0	0
2019/04/11 03:30:00	BASE	41.81	31	50.06	30	3.8	100	3.8	0	0	974.5	NA	0.2540	BR	3200	260	0	0	0
2019/04/11 03:31:00	BASE	43.74	31	50.06	30	3.8	100	3.8	0	0	974.6	NA	0.0000	BR	3400	300	0	0	0
2019/04/11 03:32:00	BASE	44.17	28	50.06	30	3.8	100	3.8	0	0	974.8	NA	0.0000	BR	3400	260	0	0	0
2019/04/11 03:33:00	BASE	43.82	26	50.06	30	3.8	100	3.8	0	0	974.8	NA	0.2540	BR	3400	230	0	0	0
2019/04/11 03:34:00	BASE	43.53	24	50.06	30	3.8	100	3.8	0	0	974.9	NA	0.0000	BR	3300	230	0	0	0
2019/04/11 03:35:00	BASE	43.10	25	50.06	30	3.8	100	3.8	0	0	974.8	NA	0.0000	BR	3400	260	0	0	0
2019/04/11 03:36:00	BASE	42.04	28	50.06	30	3.8	100	3.8	0	0	974.7	NA	0.2540	BR	3600	260	0	0	0
2019/04/11 03:37:00	BASE	40.73	27	50.06	30	3.8	100	3.8	0	0	974.7	NA	0.0000	BR	3500	300	0	0	0
2019/04/11 03:38:00	BASE	41.90	30	50.06	30	3.8	100	3.8	0	0	974.6	NA	0.0000	BR	3600	260	0	0	0
2019/04/11 03:39:00	BASE	42.18	30	50.06	30	3.8	100	3.8	0	0	974.7	NA	0.0000	BR	3900	300	0	0	0
2019/04/11 03:40:00	BASE	41.97	28	49.59	27	3.8	100	3.8	0	0	974.5	NA	0.2540	BR	3700	300	0	0	0
2019/04/11 03:41:00	BASE	43.40	28	49.59	27	3.8	100	3.8	0	0	974.5	NA	0.0000	BR	2400	300	0	0	0
2019/04/11 03:42:00	BASE	44.90	27	48.41	35	3.8	100	3.8	0	0	974.2	NA	0.0000	BR	2600	300	0	0	0
2019/04/11 03:43:00	BASE	45.64	26	48.41	35	3.8	100	3.8	0	0	974.5	NA	0.0000	BR	3600	300	0	0	0
2019/04/11 03:44:00	BASE	44.58	26	48.41	35	3.8	100	3.8	0	0	974.6	NA	0.2540	BR	3400	300	0	0	0
2019/04/11 03:45:00	BASE	43.09	27	48.41	35	3.8	100	3.8	0	0	974.5	NA	0.0000	BR	3600	300	0	0	0
2019/04/11 03:46:00	BASE	41.18	28	48.41	35	3.8	100	3.8	0	0	974.6	NA	0.0000	BR	3700	300	0	0	0
2019/04/11 03:47:00	BASE	40.18	26	48.41	35	3.8	100	3.8	0	0	974.6	NA	0.0000	BR	3700	260	0	0	0
2019/04/11 03:48:00	BASE	41.35	24	48.10	25	3.7	100	3.7	0	0	974.3	NA	0.0000	BR	3800	260	0	0	0
2019/04/11 03:49:00	BASE	42.24	25	48.10	25	3.7	100	3.7	0	0	974.5	NA	0.2540	BR	3500	260	0	0	0
2019/04/11 03:50:00	BASE	41.23	25	48.10	25	3.7	100	3.7	0	0	974.3	NA	0.0000	BR	3300	300	0	0	0
2019/04/11 03:51:00	BASE	41.80	24	48.10	25	3.7	100	3.7	0	0	974.2	NA	0.0000	BR	3600	300	0	0	0
2019/04/11 03:52:00	BASE	43.08	23	48.10	25	3.7	100	3.7	0	0	974.3	NA	0.0000	BR	3700	300	0	0	0
2019/04/11 03:53:00	BASE	41.89	22	47.23	24	3.7	100	3.7	0	0	974.3	NA	0.2540	BR	3500	330	0	0	0
2019/04/11 03:54:00	BASE	38.39	20	47.23	24	3.7	100	3.7	0	0	974.6	NA	0.0000	BR	3400	0	0	0	4300
2019/04/11 03:55:00	BASE	36.04	17	46.56	22	3.7	100	3.7	0	0	974.6	NA	0.0000	BR	3500	0	0	0	4430
2019/04/11 03:56:00	BASE	37.66	19	46.56	22	3.6	100	3.6	0	0	974.3	NA	0.0000	BR	3500	300	0	0	0
2019/04/11 03:57:00	BASE	39.37	20	46.56	22	3.6	100	3.6	0	0	974.2	NA	0.0000	BR	3600	330	0	0	0
2019/04/11 03:58:00	BASE	38.69	18	46.40	16	3.6	100	3.6	0	0	974.3	NA	0.2540	BR	3500	0	0	0	4530
2019/04/11 03:59:00	BASE	38.20	19	46.40	16	3.6	100	3.6	0	0	974.2	NA	0.0000	BR	3600	300	0	0	0
2019/04/11 04:00:00	BASE	38.55	19	46.40	16	3.6	100	3.6	0	0	974.1	NA	0.0000	BR	3400	260	0	0	0
2019/04/11 04:01:00	BASE	37.65	18	46.40	16	3.6	100	3.6	0	0	974.2	NA	0.0000	BR	3400	230	0	0	0
2019/04/11 04:03:00	BASE	37.24	18	43.83	20	3.5	100	3.5	0	0	974.1	NA	0.2540	BR	3700	260	0	0	0
2019/04/11 04:04:00	BASE	38.36	18	44.24	19	3.5	100	3.5	0	0	973.9	NA	0.0000	BR	3500	260	0	0	0
2019/04/11 04:05:00	BASE	38.15	20	44.24	19	3.5	100	3.5	0	0	973.9	NA	0.0000	BR	3400	260	0	0	0
2019/04/11 04:06:00	BASE	37.30	23	44.24	19	3.5	100	3.5	0	0	973.9	NA	0.0000	BR	3200	300	0	0	0
2019/04/11 04:07:00	BASE	37.25	25	45.37	26	3.5	100	3.5	0	0	973.8	NA	0.2540	BR	3100	260	0	0	0
2019/04/11 04:08:00	BASE	36.61	24	45.37	26	3.5	100	3.5	0	0	974.0	NA	0.0000	BR	3200	260	0	0	0
2019/04/11 04:09:00	BASE	35.54	25	45.37	26	3.5	100	3.5	0	0	974.0	NA	0.2540	BR	3100	260	0	0	0
2019/04/11 04:10:00	BASE	35.52	27	45.37	26	3.5	100	3.5	0	0	974.0	NA	0.0000	BR	3100	260	0	0	0
2019/04/11 04:11:00	BASE	36.82	24	45.37	26	3.5	100	3.5	0	0	973.8	NA	0.0000	BR	3100	230	0	0	0
2019/04/11 04:12:00	BASE	37.88	23	45.37	26	3.5	100	3.5	0	0	973.8	NA	0.2540	BR	2900	260	0	0	0
2019/04/11 04:13:00	BASE	38.19	25	45.37	26	3.5	100	3.5	0	0	973.9	NA	0.0000	BR	2700	200	0	0	0
2019/04/11 04:14:00	BASE	37.03	24	45.37	26	3.5	100	3.5	0	0	973.9	NA	0.2540	BR	2600	260	0	0	0
2019/04/11 04:15:00	BASE	36.26	23	45.37	26	3.5	100	3.5	0	0	973.9	NA	0.0000	BR	2600	300	0	0	0
2019/04/11 04:16:00	BASE	37.76	24	45.37	26	3.5	100	3.5	0	0	973.8	NA	0.2540	BR	3000	300	0	0	0
2019/04/11 04:17:00	BASE	39.92	24	44.81	23	3.5	100	3.5	0	0	973.6	NA	0.0000	BR	3300	0	0	0	4330
2019/04/11 04:18:00	BASE	40.66	25	44.81	23	3.5	100	3.5	0	0	973.8	NA	0.0000	BR	3200	0	0	0	4130
2019/04/11 04:19:00	BASE	38.37	26	44.81	23	3.5	100	3.5	0	0	973.9	NA	0.2540	BR	2600	300	0	0	0
2019/04/11 04:20:00	BASE	37.65	25	44.81	23	3.5	100	3.5	0	0	973.9	NA	0.2540	BR	2700	300	0	0	0
2019/04/11 04:21:00	BASE	39.37	24	44.81	23	3.5	100	3.5	0	0	973.9	NA	0.0000	BR	3100	260	0	0	0
2019/04/11 04:22:00	BASE	38.26	24	44.81	23	3.5	100	3.5	0	0	973.9	NA	0.2540	BR	3000	260	0	0	0
2019/04/11 04:23:00	BASE	37.11	24	44.81	23	3.5	100	3.5	0	0	973.8	NA	0.0000	BR	2800	260	0	0	0
2019/04/11 04:24:00	BASE	37.62	24	44.81	23	3.4	100	3.4	0	0	973.9	NA	0.2540	BR	2900	0	0	0	4170
2019/04/11 04:25:00	BASE	37.03	26	44.81	23	3.5	100	3.5	0	0	973.8	NA	0.0000	BR	3300	0	0	0	4300
2019/04/11 04:26:00	BASE	38.52	33	44.81	23	3.5	100	3.5	0	0	973.6	NA	0.2540	BR	2600	330	0	0	0
2019/04/11 04:27:01	BASE	39.97	34	44.29	33	3.5	100	3.5	0	0	973.6	NA	0.0000	BR	1600	0	0	0	4040
2019/04/11 04:28:00	BASE	40.14	31	45.17	28	3.5	100	3.5	0	0	973.7	NA	0.0000	UP BR	1600	0	0	0	4070
2019/04/11 04:29:00	BASE	38.86	29	45.17	28	3.6	100	3.6	0	0	973.9	NA	0.0000	UP BR	1600	0	0	0	4100
2019/04/11 04:30:00	BASE	39.97	28	46.40	34	3.6	100	3.6	0	0	973.6	NA	0.2540	UP BR	1600	0	0	0	3970
2019/04/11 04:31:00	BASE	42.33	27	46.40	34	3.6	100	3.6	0	0	973.8	NA	0.0000	UP BR	1600	0	0	0	3710
2019/04/11 04:32:00	BASE	40.83	24	46.40	34	3.6	100	3.6	0	0	973.9	NA	0.2540	UP BR	2200	0	0	0	3710
2019/04/11 04:33:00	BASE	40.21	25	46.40	34	3.6	100	3.6	0	0	973.8	NA	0.0000	UP BR	3400	330	0	0	0
2019/04/11 04:34:00	BASE	39.11	29	46.40	34	3.6	100	3.6	0	0	973.7	NA	0.0000	UP BR	2400	300	0	0	0
2019/04/11 04:35:00	BASE	37.29	29	46.40	34	3.6	100	3.6	0	0	973.8	NA	0.2540	UP BR	1700	300	0	0	0
2019/04/11 04:36:00	BASE	36.38	26	46.40	34	3.6	100	3.6	0	0	973.8	NA	0.0000	UP BR	1700	0	0	0	3740
2019/04/11 04:37:00	BASE	36.96	25	46.40	34	3.6	100	3.6	0	0	973.8	NA	0.2540	UP BR	1600	330	0	0	0
2019/04/11 04:38:00	BASE	38.50	24	46.40	34	3.6	100	3.6	0	0	973.7	NA	0.0000	UP BR	1400	300	0	0	0
2019/04/11 04:39:00	BASE	37.39	25	46.40	34	3.6	100	3.6	0	0	973.8	NA	0.2540	UP BR	1900	260	0	0	0
2019/04/11 04:40:01	BASE	36.02	26	45.22	28	3.6	100	3.6	0	0	973.7	NA	0.0000	UP BR	2700	260	0	0	0
2019/04/11 04:41:00	BASE	36.10	25	44.81	32	3.5	100	3.5	0	0	973.8	NA	0.2540	UP BR	2700	260	0	0	0
2019/04/11 04:42:00	BASE	35.20	25	44.81	32	3.5	100	3.5	0	0	973.9	NA	0.0000	UP BR	1900	300	0	0	0
2019/04/11 04:43:00	BASE	35.92	26	44.81	32	3.5	100	3.5	0	0	973.7	NA	0.2540	UP BR	2200	300	0	0	0
2019/04/11 04:44:00	BASE	37.09	27	43.93	22	3.5	100	3.5	0	0	973.7	NA	0.0000	UP BR	2700	230	0	0	0
2019/04/11 04:45:00	BASE	37.46	25	43.93	22	3.5	100	3.5	0	0	973.6	NA	0.2540	UP BR	2900	260	0	0	0
2019/04/11 04:46:00	BASE	36.69	27	43.93	22	3.5	100	3.5	0	0	973.7	NA	0.0000	UP BR	3300	300	0	0	0
2019/04/11 04:47:01	BASE	36.74	28	45.99	31	3.5	100	3.5	0	0	973.6	NA	0.0000	UP BR	3600	300	0	0	0
2019/04/11 04:48:00	BASE	37.39	29	45.99	31	3.5	100	3.5	0	0	973.7	NA	0.2540	UP BR	3700	260	0	0	0
2019/04/11 04:49:00	BASE	36.95	31	45.99	31	3.5	100	3.5	0	0	973.6	NA	0.0000	BR	3400	260	0	0	0
2019/04/11 04:50:00	BASE	36.31	28	45.99	31	3.5	100	3.5	0	0	973.6	NA	0.2540	BR	3000	260	0	0	0
2019/04/11 04:51:00	BASE	36.45	28	45.99	31	3.5	100	3.5	0	0	973.6	NA	0.0000	BR	2700	260	0	0	0
2019/04/11 04:52:00	BASE	36.26	28	45.99	31	3.5	100	3.5	0	0	973.7	NA	0.2540	BR	2700	260	0	0	0
2019/04/11 04:53:00	BASE	33.50	29	45.99	31	3.5	100	3.5	0	0	973.7	NA	0.0000	BR	2700	260	0	0	0
2019/04/11 04:54:00	BASE	33.43	30	45.99	31	3.4	100	3.4	0	0	973.6	NA	0.2540	BR	2600	260	0	0	0
2019/04/11 04:55:00	BASE	36.42	31	45.99	31	3.4	100	3.4	0	0	973.3	NA	0.0000	BR	2800	300	0	0	0
2019/04/11 04:56:00	BASE	36.02	31	45.99	31	3.4	100	3.4	0	0	973.4	NA	0.2540	BR	2800	300	0	0	0
2019/04/11 04:57:00	BASE	36.88	30	44.45	35	3.5	100	3.5	0	0	973.2	NA	0.2540	BR	2800	300	0	0	0
2019/04/11 04:58:00	BASE	38.18	32	45.48	27	3.5	100	3.5	0	0	973.2	NA	0.0000	BR	2900	300	0	0	0
2019/04/11 04:59:00	BASE	37.07	33	45.48	27	3.5	100	3.5	0	0	973.2	NA	0.2540	BR	2900	330	0	0	0
2019/04/11 05:00:00	BASE	37.92	34	45.48	27	3.5	100	3.5	0	0	973.2	NA	0.0000	BR	1400	260	0	0	0
2019/04/11 05:01:00	BASE	36.38	33	45.48	27	3.5	100	3.5	0	0	973.2	NA	0.2540	BR	1500	0	0	0	3150
2019/04/11 05:02:00	BASE	37.82	32	48.31	24	3.5	100	3.5	0	0	972.9	NA	0.2540	BR	2400	260	0	0	0
2019/04/11 05:03:00	BASE	39.15	35	48.31	24	3.5	100	3.5	0	0	973.2	NA	0.0000	BR	2500	0	0	0	3050
2019/04/11 05:04:00	BASE	37.69	34	48.31	24	3.5	100	3.5	0	0	973.1	NA	0.2540	BR	2700	260	2920	0	0
2019/04/11 05:05:00	BASE	38.82	33	48.31	24	3.5	100	3.5	0	0	973.0	NA	0.0000	BR	2700	260	0	0	0
2019/04/11 05:06:00	BASE	39.87	33	48.31	24	3.5	100	3.5	0	0	973.0	NA	0.2540	BR	1200	0	0	0	3310
2019/04/11 05:07:00	BASE	38.60	33	48.31	24	3.5	100	3.5	0	0	973.1	NA	0.2540	UP BR	0800	260	0	0	0
2019/04/11 05:08:00	BASE	36.46	31	48.31	24	3.5	100	3.5	0	0	973.2	NA	0.2540	UP BR	0800	260	0	0	0
2019/04/11 05:09:00	BASE	35.67	28	48.31	24	3.5	100	3.5	0	0	973.3	NA	0.2540	UP BR	1300	230	0	0	0
2019/04/11 05:10:00	BASE	35.35	26	48.31	24	3.4	100	3.4	0	0	973.4	NA	0.0000	UP BR	2200	0	0	0	3120
2019/04/11 05:11:00	BASE	35.01	28	48.31	24	3.4	100	3.4	0	0	973.4	NA	0.2540	UP BR	2200	0	0	0	3150
2019/04/11 05:12:00	BASE	35.66	27	45.27	32	3.4	100	3.4	0	0	973.3	NA	0.2540	UP BR	1900	260	0	0	0
2019/04/11 05:13:00	BASE	35.07	24	45.12	39	3.4	100	3.4	0	0	973.5	NA	0.2540	UP BR	1900	260	0	0	0
2019/04/11 05:14:00	BASE	34.98	24	45.12	39	3.3	100	3.3	0	0	973.3	NA	0.0000	UP BR	2500	260	0	0	0
2019/04/11 05:15:00	BASE	33.81	26	45.12	39	3.3	100	3.3	0	0	973.5	NA	0.2540	UP BR	2400	260	0	0	0
2019/04/11 05:16:00	BASE	32.52	28	43.42	24	3.3	100	3.3	0	0	973.3	NA	0.2540	-SN BR	2400	230	0	0	0
2019/04/11 05:17:00	BASE	34.45	25	43.42	24	3.3	100	3.3	0	0	973.3	NA	0.2540	-SN BR	2500	0	0	0	3450
2019/04/11 05:18:00	BASE	34.35	23	43.42	24	3.2	100	3.2	0	0	973.4	NA	0.0000	-SN BR	2600	260	0	0	0
2019/04/11 05:19:00	BASE	34.10	25	43.42	24	3.2	100	3.2	0	0	973.3	NA	0.2540	-SN BR	2800	230	0	0	0
2019/04/11 05:20:00	BASE	33.60	25	41.41	22	3.2	100	3.2	0	0	973.4	NA	0.0000	-SN BR	2700	300	0	0	0
2019/04/11 05:21:00	BASE	32.76	28	41.41	22	3.2	100	3.2	0	0	973.4	NA	0.0000	-SN BR	3100	300	0	0	0
2019/04/11 05:22:00	BASE	33.62	27	41.41	22	3.2	100	3.2	0	0	973.2	NA	0.2540	-SN BR	3300	300	0	0	0
2019/04/11 05:23:00	BASE	35.10	25	41.41	22	3.2	100	3.2	0	0	973.2	NA	0.0000	-SN BR	3000	260	0	0	0
2019/04/11 05:24:00	BASE	36.19	25	41.10	29	3.2	100	3.2	0	0	973.1	NA	0.2540	-SN BR	2600	200	0	0	0
2019/04/11 05:25:00	BASE	35.52	25	41.10	29	3.2	100	3.2	0	0	973.3	NA	0.0000	-SN BR	2400	260	0	0	0
2019/04/11 05:26:00	BASE	35.56	25	40.90	31	3.3	100	3.3	0	0	973.1	NA	0.2540	-SN BR	2500	200	0	0	0
2019/04/11 05:27:00	BASE	36.74	26	40.90	31	3.3	100	3.3	0	0	973.1	NA	0.2540	-SN BR	2500	260	0	0	0
2019/04/11 05:28:00	BASE	36.24	26	41.57	25	3.3	100	3.3	0	0	973.1	NA	0.0000	-SN BR	2500	230	0	0	0
2019/04/11 05:29:00	BASE	36.52	27	41.67	26	3.3	100	3.3	0	0	973.1	NA	0.2540	-SN BR	2400	260	0	0	0
2019/04/11 05:30:00	BASE	35.49	26	41.67	26	3.3	100	3.3	0	0	973.3	NA	0.2540	-SN BR	2200	260	0	0	0
2019/04/11 05:31:00	BASE	32.92	25	41.67	26	3.2	100	3.2	0	0	973.4	NA	0.2540	-SN BR	2300	260	0	0	0
2019/04/11 05:32:00	BASE	34.09	27	41.67	26	3.2	100	3.2	0	0	973.2	NA	0.0000	-SN BR	2200	260	0	0	0
2019/04/11 05:33:00	BASE	35.73	27	41.67	26	3.2	100	3.2	0	0	973.2	NA	0.2540	-SN BR	2000	0	0	0	2490
2019/04/11 05:34:00	BASE	34.48	26	41.67	26	3.2	100	3.2	0	0	973.1	NA	0.2540	-SN BR	2100	260	0	0	0
2019/04/11 05:35:00	BASE	34.33	25	41.67	26	3.1	100	3.1	0	0	973.1	NA	0.2540	-SN BR	2100	300	0	0	0
2019/04/11 05:36:00	BASE	35.23	32	41.67	26	3.2	100	3.2	0	0	973.1	NA	0.2540	-SN BR	1200	260	0	0	0
2019/04/11 05:37:00	BASE	34.28	35	41.67	26	3.2	100	3.2	0	0	973.1	NA	0.0000	-SN BR	1400	260	0	0	0
2019/04/11 05:38:00	BASE	33.29	32	41.67	26	3.1	100	3.1	0	0	973.0	NA	0.2540	-SN BR	2700	260	0	0	0
2019/04/11 05:39:00	BASE	34.37	32	40.18	21	3.1	100	3.1	0	0	973.0	NA	0.0000	-SN BR	2700	300	0	0	0
2019/04/11 05:40:00	BASE	34.78	32	40.18	21	3.1	100	3.1	0	0	973.1	NA	0.2540	-SN BR	2700	260	0	0	0
2019/04/11 05:41:00	BASE	34.74	31	42.80	28	3.1	100	3.1	0	0	973.0	NA	0.0000	-SN BR	2800	330	0	0	0
2019/04/11 05:42:00	BASE	35.98	30	42.80	28	3.1	100	3.1	0	0	973.0	NA	0.2540	-SN BR	3000	260	0	0	0
2019/04/11 05:43:00	BASE	35.48	28	42.80	28	3.1	100	3.1	0	0	973.1	NA	0.2540	-SN BR	2600	260	0	0	0
2019/04/11 05:44:00	BASE	34.30	29	42.80	28	3.1	100	3.1	0	0	973.1	NA	0.0000	-SN BR	2700	300	0	0	0
2019/04/11 05:45:00	BASE	34.56	28	42.80	28	3.1	100	3.1	0	0	973.0	NA	0.2540	-SN BR	2600	300	0	0	0
2019/04/11 05:46:00	BASE	34.23	28	42.80	28	3.0	100	3.0	0	0	973.2	NA	0.2540	-SN BR	2500	300	0	0	0
2019/04/11 05:47:00	BASE	33.86	27	42.80	28	3.0	100	3.0	0	0	973.1	NA	0.0000	-SN BR	2300	300	0	0	0
2019/04/11 05:48:00	BASE	34.42	26	42.80	28	3.0	100	3.0	0	0	973.2	NA	0.2540	-SN BR	2100	260	0	0	0
2019/04/11 05:49:00	BASE	34.49	26	42.80	28	3.0	100	3.0	0	0	973.2	NA	0.2540	-SN BR	2200	260	0	0	0
2019/04/11 05:50:00	BASE	33.55	27	42.80	28	3.0	100	3.0	0	0	973.2	NA	0.2540	-SN BR	2200	300	0	0	0
2019/04/11 05:51:00	BASE	34.63	26	40.23	34	3.0	100	3.0	0	0	973.1	NA	0.0000	-SN BR	2300	330	0	0	0
2019/04/11 05:52:00	BASE	35.73	25	41.10	27	3.0	100	3.0	0	0	973.2	NA	0.2540	-SN BR	2200	300	0	0	0
2019/04/11 05:53:00	BASE	35.45	25	41.10	27	3.0	100	3.0	0	0	973.1	NA	0.0000	-SN BR	2600	300	0	0	0
2019/04/11 05:54:00	BASE	35.45	23	41.10	27	3.0	100	3.0	0	0	973.1	NA	0.2540	-SN BR	2500	300	0	0	0
2019/04/11 05:55:00	BASE	34.55	23	41.10	27	3.0	100	3.0	0	0	973.1	NA	0.2540	-SN BR	2700	300	0	0	0
2019/04/11 05:56:00	BASE	34.04	23	41.10	27	3.0	100	3.0	0	0	973.1	NA	0.0000	-SN BR	2700	300	0	0	0
2019/04/11 05:57:00	BASE	33.80	23	41.10	27	3.0	100	3.0	0	0	973.1	NA	0.2540	-SN BR	2700	300	1410	0	0
2019/04/11 05:58:00	BASE	33.72	25	41.10	27	3.0	100	3.0	0	0	973.1	NA	0.0000	-SN BR	2700	300	0	0	0
2019/04/11 05:59:00	BASE	34.65	25	41.10	27	3.0	100	3.0	0	0	973.1	NA	0.2540	-SN BR	2700	300	0	0	0
2019/04/11 06:00:00	BASE	34.15	23	41.10	27	3.0	100	3.0	0	0	973.3	NA	0.0000	-SN BR	2600	300	0	0	0
2019/04/11 06:01:00	BASE	33.28	22	41.10	27	3.0	100	3.0	0	0	973.3	NA	0.2540	-SN BR	2800	300	1380	0	0
2019/04/11 06:02:00	BASE	33.66	24	40.18	26	3.0	100	3.0	0	0	973.3	NA	0.0000	-SN BR	2600	330	0	0	0
2019/04/11 06:03:00	BASE	34.29	23	39.66	23	3.0	100	3.0	0	0	973.1	NA	0.2540	-SN BR	1800	260	0	0	0
2019/04/11 06:04:00	BASE	33.78	22	39.66	23	3.0	100	3.0	0	0	973.3	NA	0.0000	-SN BR	2100	260	0	0	0
2019/04/11 06:05:00	BASE	34.25	22	39.46	24	3.0	100	3.0	0	0	973.2	NA	0.2540	-SN BR	2800	300	0	0	0
2019/04/11 06:06:00	BASE	35.14	22	39.46	24	3.0	100	3.0	0	0	973.3	NA	0.0000	-SN BR	2800	300	0	0	0
2019/04/11 06:07:00	BASE	33.70	22	38.79	27	3.0	100	3.0	0	0	973.4	NA	0.2540	-SN BR	3400	330	0	0	0
2019/04/11 06:08:00	BASE	32.94	20	38.79	27	3.0	100	3.0	0	0	973.5	NA	0.0000	-SN BR	3600	300	0	0	0
2019/04/11 06:09:00	BASE	32.82	18	38.79	27	3.0	100	3.0	0	0	973.6	NA	0.0000	-SN BR	3400	300	1670	0	0
2019/04/11 06:10:00	BASE	31.73	15	38.79	27	3.0	100	3.0	0	0	973.7	NA	0.2540	-SN BR	3300	300	0	0	0
2019/04/11 06:11:00	BASE	30.81	14	38.17	20	2.9	100	2.9	0	0	973.7	NA	0.0000	-SN BR	3400	330	1640	0	0
2019/04/11 06:12:00	BASE	29.91	14	38.17	20	2.9	100	2.9	0	0	973.8	NA	0.0000	-SN BR	3500	330	0	0	0
2019/04/11 06:13:00	BASE	28.77	14	38.17	20	2.9	100	2.9	0	0	973.8	NA	0.2540	-SN BR	3600	330	0	0	0
2019/04/11 06:14:00	BASE	29.71	14	38.17	20	2.9	100	2.9	0	0	973.7	NA	0.0000	-SN BR	3600	330	0	0	0
2019/04/11 06:15:00	BASE	29.97	13	38.17	20	2.8	100	2.8	0	0	973.7	NA	0.0000	-SN BR	3300	330	0	0	0
2019/04/11 06:16:00	BASE	29.47	15	38.17	20	2.8	100	2.8	0	0	973.7	NA	0.0000	-SN BR	3400	360	1610	0	0
2019/04/11 06:17:00	BASE	30.76	18	37.45	22	2.8	100	2.8	0	0	973.6	NA	0.2540	-SN BR	2300	390	0	0	0
2019/04/11 06:18:00	BASE	30.70	18	34.36	18	2.8	100	2.8	0	0	973.7	NA	0.0000	-SN BR	2700	390	0	0	0
2019/04/11 06:19:00	BASE	29.71	18	34.36	18	2.8	100	2.8	0	0	973.7	NA	0.0000	-SN BR	4400	360	1570	0	0
2019/04/11 06:20:00	BASE	29.11	17	34.36	18	2.8	100	2.8	0	0	973.8	NA	0.2540	-SN BR	4300	390	0	0	0
2019/04/11 06:21:00	BASE	28.89	15	34.36	18	2.8	100	2.8	0	0	973.8	NA	0.0000	-SN BR	4000	390	1610	0	0
2019/04/11 06:22:00	BASE	29.97	15	34.36	18	2.8	100	2.8	0	0	973.7	NA	0.0000	-SN BR	3800	360	0	0	0
2019/04/11 06:23:00	BASE	31.45	15	34.36	18	2.8	100	2.8	0	0	973.6	NA	0.0000	-SN BR	3600	360	1610	0	0
2019/04/11 06:24:00	BASE	30.92	15	34.36	18	2.8	100	2.8	0	0	973.7	NA	0.2540	-SN BR	3600	330	1480	0	0
2019/04/11 06:25:00	BASE	28.63	16	34.36	18	2.8	100	2.8	0	0	973.8	NA	0.0000	-SN BR	3800	360	0	0	0
2019/04/11 06:26:00	BASE	27.19	15	34.36	18	2.8	100	2.8	0	0	973.8	NA	0.0000	-SN BR	3800	360	0	0	0
2019/04/11 06:27:00	BASE	27.81	15	33.70	16	2.8	100	2.8	0	0	973.7	NA	0.0000	-SN BR	4700	360	0	0	0
2019/04/11 06:28:00	BASE	28.13	15	33.70	16	2.8	100	2.8	0	0	973.8	NA	0.0000	-SN BR	5000	360	0	0	0
2019/04/11 06:29:00	BASE	27.52	15	33.70	16	2.8	100	2.8	0	0	973.9	NA	0.2540	-SN BR	5000	330	0	0	0
2019/04/11 06:30:00	BASE	26.94	14	33.70	16	2.8	100	2.8	0	0	973.9	NA	0.0000	-SN BR	8000	390	0	0	0
2019/04/11 06:31:00	BASE	26.94	13	33.70	16	2.8	100	2.8	0	0	973.8	NA	0.0000	-SN BR	9999	390	0	0	0
2019/04/11 06:32:00	BASE	28.60	13	33.70	16	2.8	100	2.8	0	0	973.8	NA	0.0000	-SN BR	9000	390	0	0	0
2019/04/11 06:33:00	BASE	29.00	12	32.31	13	2.8	100	2.8	0	0	973.9	NA	0.0000	-SN BR	8000	330	0	0	0
2019/04/11 06:34:00	BASE	28.21	11	32.31	13	2.8	100	2.8	0	0	973.9	NA	0.0000	-SN BR	7000	360	1740	0	0
2019/04/11 06:35:00	BASE	27.56	10	32.31	13	2.8	100	2.8	0	0	973.9	NA	0.0000	-SN BR	7000	360	0	0	0
2019/04/11 06:36:00	BASE	27.62	11	32.31	13	2.8	100	2.8	0	0	974.0	NA	0.0000	-SN BR	6000	390	0	0	0
2019/04/11 06:37:00	BASE	27.69	12	32.46	15	2.8	100	2.8	0	0	974.1	NA	0.0000	-SN BR	4500	360	0	0	0
2019/04/11 06:38:00	BASE	26.91	10	32.46	15	2.8	100	2.8	0	0	974.1	NA	0.0000	-SN BR	4900	390	0	0	0
2019/04/11 06:39:00	BASE	26.14	8	32.46	15	2.8	100	2.8	0	0	974.1	NA	0.2540	-SN BR	8000	430	0	0	0
2019/04/11 06:40:00	BASE	26.39	8	32.46	15	2.8	100	2.8	0	0	974.1	NA	0.0000	-SN BR	6000	390	0	0	0
2019/04/11 06:41:00	BASE	26.16	8	32.46	15	2.8	100	2.8	0	0	974.1	NA	0.0000	-SN BR	5000	390	0	0	0
2019/04/11 06:42:00	BASE	26.46	9	32.46	15	2.8	100	2.8	0	0	974.1	NA	0.0000	-SN BR	6000	360	0	0	0
2019/04/11 06:43:00	BASE	28.21	12	32.46	15	2.8	100	2.8	0	0	974.0	NA	0.0000	-SN BR	4400	360	0	0	0
2019/04/11 06:44:00	BASE	27.40	13	32.46	15	2.8	100	2.8	0	0	974.0	NA	0.2540	-SN BR	4000	360	0	0	0
2019/04/11 06:45:00	BASE	26.44	14	32.46	15	2.8	100	2.8	0	0	974.0	NA	0.0000	-SN BR	5000	390	0	0	0
2019/04/11 06:46:00	BASE	27.33	16	32.46	15	2.8	100	2.8	0	0	974.0	NA	0.0000	-SN BR	6000	390	0	0	0
2019/04/11 06:47:00	BASE	27.74	15	31.54	15	2.8	100	2.8	0	0	974.0	NA	0.0000	-SN BR	5000	430	0	0	0
2019/04/11 06:48:00	BASE	28.54	14	31.54	15	2.8	100	2.8	0	0	973.9	NA	0.0000	-SN BR	4200	430	0	0	0
2019/04/11 06:49:00	BASE	28.28	14	31.54	15	2.8	100	2.8	0	0	974.1	NA	0.0000	-SN BR	4300	390	0	0	0
2019/04/11 06:50:00	BASE	27.01	14	31.54	15	2.8	100	2.8	0	0	974.1	NA	0.2540	-SN BR	4400	390	0	0	0
2019/04/11 06:51:00	BASE	27.11	14	31.54	15	2.8	100	2.8	0	0	974.1	NA	0.0000	-SN BR	4700	390	0	0	0
2019/04/11 06:52:00	BASE	27.83	12	31.54	15	2.9	100	2.9	0	0	974.1	NA	0.0000	-SN BR	4000	430	0	0	0
2019/04/11 06:53:00	BASE	28.23	15	30.82	18	2.9	100	2.9	0	0	974.1	NA	0.0000	-SN BR	4400	390	0	0	0
2019/04/11 06:54:00	BASE	27.32	14	30.82	18	2.9	100	2.9	0	0	974.2	NA	0.0000	-SN BR	6000	360	0	0	0
2019/04/11 06:55:00	BASE	26.17	11	30.82	18	3.0	100	3.0	0	0	974.2	NA	0.0000	-SN BR	6000	360	0	0	0
2019/04/11 06:56:00	BASE	26.39	12	30.82	18	3.0	100	3.0	0	0	974.2	NA	0.0000	-SN BR	6000	360	0	0	0
2019/04/11 06:57:00	BASE	26.29	9	30.82	18	3.0	100	3.0	0	0	974.2	NA	0.2540	-SN BR	4500	360	0	0	0
2019/04/11 06:58:00	BASE	26.09	9	30.46	9	3.0	100	3.0	0	0	974.3	NA	0.0000	-SN BR	5000	360	0	0	0
2019/04/11 06:59:00	BASE	25.62	5	30.46	9	3.1	100	3.1	0	0	974.3	NA	0.0000	-SN BR	4800	360	0	0	0
2019/04/11 07:00:00	BASE	24.92	360	30.46	9	3.1	100	3.1	0	0	974.3	NA	0.0000	-SN BR	5000	330	1740	0	0
2019/04/11 07:01:00	BASE	24.21	2	30.46	9	3.1	100	3.1	0	0	974.4	NA	0.0000	-SN BR	6000	360	0	0	0
2019/04/11 07:02:00	BASE	24.05	4	29.94	17	3.1	100	3.1	0	0	974.4	NA	0.0000	-SN BR	7000	360	0	0	0
2019/04/11 07:03:00	BASE	25.94	1	30.82	10	3.1	100	3.1	0	0	974.3	NA	0.0000	-SN BR	7000	360	0	0	0
2019/04/11 07:04:00	BASE	27.57	1	30.97	5	3.1	100	3.1	0	0	974.4	NA	0.2540	-SN BR	9999	360	1510	0	0
2019/04/11 07:05:00	BASE	26.09	1	30.97	5	3.1	100	3.1	0	0	974.5	NA	0.0000	-SN BR	6000	330	0	0	0
2019/04/11 07:06:00	BASE	23.08	356	30.97	5	3.1	100	3.1	0	0	974.6	NA	0.0000	-SN BR	4400	360	0	0	0
2019/04/11 07:07:00	BASE	21.49	347	30.97	5	3.1	100	3.1	0	0	974.7	NA	0.0000	-SN BR	5000	360	0	0	0
2019/04/11 07:08:00	BASE	20.69	347	30.97	5	3.1	100	3.1	0	0	974.7	NA	0.0000	-SN BR	9000	360	0	0	0
2019/04/11 07:09:00	BASE	22.53	355	30.97	5	3.1	100	3.1	0	0	974.6	NA	0.0000	-SN BR	9999	360	0	0	0
2019/04/11 07:10:00	BASE	24.78	356	30.97	5	3.1	100	3.1	0	0	974.6	NA	0.0000	-SN BR	9999	330	1840	0	0
2019/04/11 07:11:00	BASE	24.62	359	30.97	5	3.0	100	3.0	0	0	974.6	NA	0.0000	-SN BR	9999	330	1710	0	0
2019/04/11 07:12:00	BASE	24.24	1	30.97	5	3.0	100	3.0	0	0	974.6	NA	0.2540	-SN BR	9999	330	1640	0	0
2019/04/11 07:13:00	BASE	25.38	2	30.97	5	3.0	100	3.0	0	0	974.5	NA	0.0000	-SN BR	9999	300	0	0	0
2019/04/11 07:14:00	BASE	24.46	1	30.30	3	3.0	100	3.0	0	0	974.7	NA	0.0000	-SN BR	9999	300	1800	0	0
2019/04/11 07:15:00	BASE	22.66	2	30.30	3	3.0	100	3.0	0	0	974.7	NA	0.0000	-SN BR	9000	330	1540	0	0
2019/04/11 07:16:00	BASE	23.18	2	30.30	3	3.0	100	3.0	0	0	974.7	NA	0.0000	-SN BR	8000	330	1480	0	0
2019/04/11 07:17:00	BASE	23.28	6	30.30	3	3.0	100	3.0	0	0	974.7	NA	0.0000	-SN	9000	300	0	0	0
2019/04/11 07:18:00	BASE	24.49	6	30.76	1	3.0	100	3.0	0	0	974.6	NA	0.0000	-SN	9999	330	0	0	0
2019/04/11 07:19:00	BASE	26.00	356	32.77	2	3.0	100	3.0	0	0	974.6	NA	0.2540	-SN BR	6000	300	0	0	0
2019/04/11 07:20:00	BASE	24.98	349	32.77	2	3.0	100	3.0	0	0	974.6	NA	0.0000	-SN BR	7000	360	0	0	0
2019/04/11 07:21:00	BASE	23.69	354	32.77	2	3.0	100	3.0	0	0	974.6	NA	0.0000	-SN BR	9999	360	0	0	0
2019/04/11 07:22:00	BASE	24.77	357	32.77	2	3.1	100	3.1	0	0	974.6	NA	0.0000	-SN BR	7000	300	1050	0	0
2019/04/11 07:23:00	BASE	22.99	2	32.77	2	3.1	100	3.1	0	0	974.8	NA	0.0000	-SN BR	7000	360	0	0	0
2019/04/11 07:24:00	BASE	20.09	359	32.77	2	3.1	100	3.1	0	0	974.8	NA	0.0000	-SN BR	9999	330	0	0	0
2019/04/11 07:25:00	BASE	19.80	353	32.77	2	3.1	100	3.1	0	0	974.9	NA	0.0000	-SN BR	9999	300	0	0	0
2019/04/11 07:26:00	BASE	19.84	352	32.77	2	3.1	100	3.1	0	0	974.9	NA	0.0000	-SN BR	9999	230	0	0	0
2019/04/11 07:27:00	BASE	20.07	349	32.77	2	3.0	100	3.0	0	0	974.9	NA	0.0000	-SN BR	9999	260	0	0	0
2019/04/11 07:28:00	BASE	21.50	351	32.77	2	3.0	100	3.0	0	0	974.8	NA	0.2540	-SN BR	9999	360	0	0	0
2019/04/11 07:29:00	BASE	22.43	351	29.53	6	3.0	100	3.0	0	0	974.9	NA	0.0000	-SN	9999	330	0	0	0
2019/04/11 07:30:00	BASE	21.97	351	29.53	6	3.0	100	3.0	0	0	974.9	NA	0.0000	-SN	9999	360	0	0	0
2019/04/11 07:31:00	BASE	21.54	352	29.53	6	3.0	100	3.0	0	0	974.9	NA	0.0000	-SN	9999	390	0	0	0
2019/04/11 07:32:00	BASE	20.83	352	26.75	344	3.0	100	3.0	0	0	975.0	NA	0.0000	-SN	9999	430	0	0	0
2019/04/11 07:33:00	BASE	21.37	350	26.75	344	3.0	100	3.0	0	0	975.0	NA	0.0000	-SN	9999	390	0	0	0
2019/04/11 07:34:00	BASE	22.53	350	26.75	344	3.0	100	3.0	0	0	974.9	NA	0.0000	-SN	9999	390	0	0	0
2019/04/11 07:35:00	BASE	22.13	354	26.75	344	3.0	100	3.0	0	0	975.0	NA	0.0000	-SN	9999	520	0	0	0
2019/04/11 07:36:00	BASE	21.66	351	26.75	344	2.9	100	2.9	0	0	975.0	NA	0.0000	-SN	9999	460	0	0	0
2019/04/11 07:37:00	BASE	21.31	349	26.75	344	2.9	100	2.9	0	0	975.1	NA	0.0000		9999	460	0	0	0
2019/04/11 07:38:00	BASE	21.24	350	26.13	360	2.9	100	2.9	0	0	975.1	NA	0.0000		9999	490	0	0	0
2019/04/11 07:39:00	BASE	22.17	350	26.13	360	2.9	100	2.9	0	0	975.1	NA	0.0000		9999	460	0	0	0
2019/04/11 07:40:00	BASE	21.46	351	26.13	360	2.9	100	2.9	0	0	975.2	NA	0.0000		9999	390	0	0	0
2019/04/11 07:41:00	BASE	20.24	350	26.13	360	2.9	100	2.9	0	0	975.2	NA	0.0000		9999	330	0	0	0
2019/04/11 07:42:00	BASE	20.12	350	26.13	360	2.8	100	2.8	0	0	975.3	NA	0.0000		9999	230	0	0	0
2019/04/11 07:43:00	BASE	20.87	348	26.13	360	2.8	100	2.8	0	0	975.2	NA	0.0000		9999	0	0	0	1120
2019/04/11 07:44:00	BASE	20.76	350	25.93	340	2.8	100	2.8	0	0	975.3	NA	0.0000		9999	260	0	0	0
2019/04/11 07:45:00	BASE	19.41	355	25.93	340	2.8	100	2.8	0	0	975.3	NA	0.0000		9999	520	0	0	0
2019/04/11 07:46:00	BASE	20.01	353	24.74	354	2.7	100	2.7	0	0	975.3	NA	0.0000		9999	490	0	0	0
2019/04/11 07:47:00	BASE	22.18	351	25.16	346	2.7	100	2.7	0	0	975.2	NA	0.0000		9999	490	0	0	0
2019/04/11 07:48:00	BASE	22.06	349	25.16	346	2.7	100	2.7	0	0	975.2	NA	0.0000		9999	520	0	0	0
2019/04/11 07:49:00	BASE	20.62	349	25.16	346	2.7	100	2.7	0	0	975.3	NA	0.0000		9999	490	0	0	0
2019/04/11 07:50:00	BASE	22.28	349	28.71	347	2.7	100	2.7	0	0	975.1	NA	0.0000		9999	520	0	0	0
2019/04/11 07:51:00	BASE	23.38	350	28.71	347	2.7	100	2.7	0	0	975.1	NA	0.0000		9999	520	0	0	0
2019/04/11 07:52:00	BASE	22.48	351	28.71	347	2.7	100	2.7	0	0	975.1	NA	0.0000		9999	490	0	0	0
2019/04/11 07:53:00	BASE	22.33	350	28.71	347	2.7	100	2.7	0	0	975.2	NA	0.0000		9999	520	2430	0	0
2019/04/11 07:54:00	BASE	21.15	346	28.71	347	2.7	100	2.7	0	0	975.2	NA	0.0000		9999	590	0	0	0
2019/04/11 07:55:00	BASE	20.52	347	28.71	347	2.7	100	2.7	0	0	975.2	NA	0.0000		9999	520	0	0	0
2019/04/11 07:56:00	BASE	22.22	352	28.71	347	2.7	100	2.7	0	0	975.1	NA	0.0000		9999	560	0	0	0
2019/04/11 07:57:00	BASE	23.16	352	28.71	347	2.7	100	2.7	0	0	975.1	NA	0.0000		9999	620	0	0	0
2019/04/11 07:58:00	BASE	22.65	348	28.71	347	2.7	100	2.7	0	0	975.2	NA	0.0000		9999	560	1210	0	0
2019/04/11 07:59:00	BASE	23.05	345	28.71	347	2.7	100	2.7	0	0	975.2	NA	0.0000		9999	520	0	0	0
2019/04/11 08:00:00	BASE	23.23	347	26.24	342	2.7	100	2.7	0	0	975.2	NA	0.0000		9999	660	0	0	0
2019/04/11 08:01:00	BASE	24.47	348	27.57	349	2.7	100	2.7	0	0	975.1	NA	0.0000		9999	560	1080	0	0
2019/04/11 08:02:00	BASE	25.51	346	27.57	349	2.6	100	2.6	0	0	975.2	NA	0.0000		9999	1020	0	0	0
2019/04/11 08:03:00	BASE	25.04	346	28.65	343	2.6	100	2.6	0	0	975.2	NA	0.0000		9999	720	2590	0	0
2019/04/11 08:04:00	BASE	24.29	346	28.65	343	2.6	100	2.6	0	0	975.3	NA	0.0000		9999	660	0	0	0
2019/04/11 08:05:00	BASE	23.32	341	28.65	343	2.6	100	2.6	0	0	975.2	NA	0.0000		9999	750	0	0	0
2019/04/11 08:06:00	BASE	23.26	342	28.65	343	2.6	100	2.6	0	0	975.3	NA	0.0000		9999	660	1380	0	0
2019/04/11 08:07:00	BASE	23.02	348	28.65	343	2.5	100	2.5	0	0	975.3	NA	0.0000		9999	1020	2260	0	0
2019/04/11 08:08:00	BASE	22.47	349	28.65	343	2.5	100	2.5	0	0	975.3	NA	0.0000		9999	820	2230	0	0
2019/04/11 08:09:00	BASE	22.85	349	28.65	343	2.5	100	2.5	0	0	975.3	NA	0.0000		9999	820	0	0	0
2019/04/11 08:10:00	BASE	24.05	346	28.65	343	2.5	100	2.5	0	0	975.2	NA	0.0000		9999	920	0	0	0
2019/04/11 08:11:00	BASE	24.13	345	28.65	343	2.5	100	2.5	0	0	975.3	NA	0.0000		9999	720	1310	0	0
2019/04/11 08:12:00	BASE	23.88	346	28.65	343	2.5	100	2.5	0	0	975.3	NA	0.0000		9999	1080	2200	0	0
2019/04/11 08:13:00	BASE	22.95	349	27.32	341	2.5	100	2.5	0	0	975.4	NA	0.0000		9999	1250	2230	0	0
2019/04/11 08:14:00	BASE	21.38	351	27.32	341	2.5	100	2.5	0	0	975.4	NA	0.0000		9999	2230	0	0	0
2019/04/11 08:15:00	BASE	21.79	349	27.32	341	2.5	100	2.5	0	0	975.4	NA	0.0000		9999	1250	2200	0	0
2019/04/11 08:16:00	BASE	23.37	344	28.14	341	2.5	100	2.5	0	0	975.3	NA	0.0000		9999	1180	2230	0	0
2019/04/11 08:17:00	BASE	24.65	344	28.14	341	2.5	100	2.5	0	0	975.3	NA	0.0000		9999	1440	0	0	0
2019/04/11 08:18:00	BASE	24.16	344	28.14	341	2.5	100	2.5	0	0	975.4	NA	0.0000		9999	1150	2330	0	0
2019/04/11 08:19:00	BASE	22.76	346	28.14	341	2.5	100	2.5	0	0	975.4	NA	0.0000		9999	1080	0	0	0
2019/04/11 08:20:00	BASE	22.14	346	28.14	341	2.5	100	2.5	0	0	975.5	NA	0.0000		9999	1250	0	0	0
2019/04/11 08:21:00	BASE	22.58	346	28.14	341	2.5	100	2.5	0	0	975.5	NA	0.0000		9999	820	2130	0	0
2019/04/11 08:22:00	BASE	23.50	347	28.14	341	2.5	100	2.5	0	0	975.4	NA	0.0000		9999	720	0	0	0
2019/04/11 08:23:00	BASE	24.61	346	29.37	341	2.5	100	2.5	0	0	975.4	NA	0.0000		9999	690	0	0	0
2019/04/11 08:24:00	BASE	25.21	344	29.37	341	2.5	100	2.5	0	0	975.4	NA	0.0000		9999	690	0	0	0
2019/04/11 08:25:00	BASE	24.24	343	29.37	341	2.5	100	2.5	0	0	975.5	NA	0.0000		9999	790	0	0	0
2019/04/11 08:26:00	BASE	24.67	343	29.37	341	2.5	100	2.5	0	0	975.4	NA	0.0000		9999	790	0	0	0
2019/04/11 08:27:00	BASE	25.45	350	29.37	341	2.5	100	2.5	0	0	975.4	NA	0.0000		9999	890	2760	0	0
2019/04/11 08:28:00	BASE	23.52	350	29.37	341	2.5	100	2.5	0	0	975.5	NA	0.0000		9999	820	0	0	0
2019/04/11 08:29:00	BASE	23.11	345	29.37	341	2.5	100	2.5	0	0	975.5	NA	0.0000		9999	850	2590	0	0
2019/04/11 08:30:00	BASE	24.15	345	29.37	341	2.5	100	2.5	0	0	975.5	NA	0.0000		9999	750	2360	0	0
2019/04/11 08:31:00	BASE	24.14	345	29.37	341	2.5	100	2.5	0	0	975.5	NA	0.0000		9999	820	2530	0	0
2019/04/11 08:32:00	BASE	22.67	345	29.37	341	2.5	100	2.5	0	0	975.5	NA	0.0000		9999	820	2660	0	0
2019/04/11 08:33:00	BASE	22.13	348	27.78	346	2.4	100	2.4	0	0	975.4	NA	0.0000		9999	820	2820	0	0
2019/04/11 08:34:00	BASE	22.38	350	27.78	346	2.4	100	2.4	0	0	975.5	NA	0.0000		9999	720	0	0	0
2019/04/11 08:35:00	BASE	21.82	348	27.78	346	2.4	100	2.4	0	0	975.5	NA	0.0000		9999	1350	2920	0	0
2019/04/11 08:36:00	BASE	23.16	346	27.78	346	2.5	100	2.5	0	0	975.4	NA	0.0000		9999	1350	3080	0	0
2019/04/11 08:37:00	BASE	24.41	344	27.78	346	2.5	100	2.5	0	0	975.4	NA	0.0000		9999	1310	0	0	0
2019/04/11 08:38:00	BASE	24.39	345	27.78	346	2.5	100	2.5	0	0	975.4	NA	0.0000		9999	920	1510	0	0
2019/04/11 08:39:00	BASE	22.70	348	27.78	346	2.5	100	2.5	0	0	975.5	NA	0.0000		9999	1350	2850	0	0
2019/04/11 08:40:00	BASE	21.35	346	27.78	346	2.4	100	2.4	0	0	975.5	NA	0.0000		9999	1120	2920	0	0
2019/04/11 08:41:00	BASE	21.67	344	26.49	344	2.4	100	2.4	0	0	975.5	NA	0.0000		9999	1250	0	0	0
2019/04/11 08:42:00	BASE	22.00	345	26.49	344	2.4	100	2.4	0	0	975.5	NA	0.0000		9999	1280	3020	0	0
2019/04/11 08:43:00	BASE	22.75	346	26.49	344	2.4	100	2.4	0	0	975.4	NA	0.0000		9999	980	3380	0	0
2019/04/11 08:44:00	BASE	23.04	347	26.49	344	2.4	100	2.4	0	0	975.4	NA	0.0000		9999	1380	2100	0	0
2019/04/11 08:45:00	BASE	22.88	347	26.49	344	2.4	100	2.4	0	0	975.4	NA	0.0000		9999	1020	0	0	0
2019/04/11 08:46:00	BASE	22.29	345	26.49	344	2.4	100	2.4	0	0	975.4	NA	0.0000		9999	2130	0	0	0
2019/04/11 08:47:00	BASE	21.38	347	26.49	344	2.4	100	2.4	0	0	975.5	NA	0.0000		9999	2330	0	0	0
2019/04/11 08:48:00	BASE	23.03	348	26.91	342	2.4	100	2.4	0	0	975.4	NA	0.0000		9999	2260	2890	0	0
2019/04/11 08:49:00	BASE	24.05	345	26.91	342	2.4	100	2.4	0	0	975.4	NA	0.0000		9999	2330	0	0	0
2019/04/11 08:50:00	BASE	23.49	344	26.91	342	2.4	100	2.4	0	0	975.4	NA	0.0000		9999	2330	0	0	0
2019/04/11 08:51:00	BASE	23.12	348	26.91	342	2.4	100	2.4	0	0	975.4	NA	0.0000		9999	2460	3740	0	0
2019/04/11 08:52:00	BASE	22.21	349	26.91	342	2.4	100	2.4	0	0	975.5	NA	0.0000		9999	2490	0	0	0
2019/04/11 08:53:00	BASE	22.64	349	26.91	342	2.4	100	2.4	0	0	975.4	NA	0.0000		9999	1540	2530	0	0
2019/04/11 08:54:00	BASE	23.39	347	26.91	342	2.4	100	2.4	0	0	975.5	NA	0.0000		9999	1380	2460	0	0
2019/04/11 08:55:00	BASE	22.92	347	26.91	342	2.4	100	2.4	0	0	975.5	NA	0.0000		9999	1310	2560	0	0
2019/04/11 08:56:00	BASE	22.17	349	26.91	342	2.4	100	2.4	0	0	975.5	NA	0.0000		9999	1080	2560	0	0
2019/04/11 08:57:00	BASE	21.03	347	26.91	342	2.4	100	2.4	0	0	975.5	NA	0.0000		9999	950	0	0	0
2019/04/11 08:58:00	BASE	20.76	347	26.03	337	2.4	100	2.4	0	0	975.5	NA	0.0000		9999	950	0	0	0
2019/04/11 08:59:00	BASE	20.89	348	26.03	337	2.4	100	2.4	0	0	975.5	NA	0.0000		9999	1350	2530	0	0
2019/04/11 09:00:00	BASE	21.60	346	27.16	343	2.4	100	2.4	0	0	975.5	NA	0.0000		9999	1280	0	0	0
2019/04/11 09:01:00	BASE	23.40	345	27.16	343	2.4	100	2.4	0	0	975.4	NA	0.0000		9999	2260	0	0	0
2019/04/11 09:02:00	BASE	23.23	346	27.16	343	2.4	100	2.4	0	0	975.4	NA	0.0000		9999	1120	2460	0	0
2019/04/11 09:03:00	BASE	22.10	351	27.16	343	2.3	100	2.3	0	0	975.5	NA	0.0000		9999	980	2490	0	0
2019/04/11 09:04:00	BASE	21.64	349	27.16	343	2.3	100	2.3	0	0	975.5	NA	0.0000		9999	2490	0	0	0
2019/04/11 09:05:00	BASE	21.75	347	27.16	343	2.3	100	2.3	0	0	975.5	NA	0.0000		9999	1210	2590	0	0
2019/04/11 09:06:00	BASE	23.69	346	27.16	343	2.3	100	2.3	0	0	975.3	NA	0.0000		9999	2460	0	0	0
2019/04/11 09:07:00	BASE	24.32	343	27.16	343	2.3	100	2.3	0	0	975.3	NA	0.0000		9999	0	0	0	1310
2019/04/11 09:08:00	BASE	22.17	344	27.16	343	2.3	100	2.3	0	0	975.5	NA	0.0000		9999	2460	0	0	0
2019/04/11 09:09:00	BASE	21.57	345	27.16	343	2.3	100	2.3	0	0	975.4	NA	0.0000		9999	1020	2460	0	0
2019/04/11 09:10:00	BASE	22.58	347	27.37	339	2.3	100	2.3	0	0	975.4	NA	0.0000		9999	2460	5150	0	0
2019/04/11 09:11:00	BASE	23.74	346	27.37	339	2.3	100	2.3	0	0	975.3	NA	0.0000		9999	1120	4360	0	0
2019/04/11 09:12:00	BASE	22.80	346	27.37	339	2.3	100	2.3	0	0	975.4	NA	0.0000		9999	4270	0	0	0
2019/04/11 09:13:00	BASE	21.90	347	27.37	339	2.3	100	2.3	0	0	975.4	NA	0.0000		9999	4490	0	0	0
2019/04/11 09:14:00	BASE	22.70	347	27.37	339	2.3	100	2.3	0	0	975.4	NA	0.0000		9999	4560	0	0	0
2019/04/11 09:15:00	BASE	23.52	347	27.37	339	2.3	100	2.3	0	0	975.3	NA	0.0000		9999	1250	4490	0	0
2019/04/11 09:16:00	BASE	23.61	346	27.37	339	2.3	100	2.3	0	0	975.4	NA	0.0000		9999	4560	0	0	0
2019/04/11 09:17:00	BASE	23.22	345	27.37	339	2.3	100	2.3	0	0	975.4	NA	0.0000		9999	1410	4560	0	0
2019/04/11 09:18:00	BASE	23.31	344	27.37	339	2.3	100	2.3	0	0	975.4	NA	0.0000		9999	1210	0	0	0
2019/04/11 09:19:00	BASE	23.04	346	27.37	339	2.3	100	2.3	0	0	975.4	NA	0.0000		9999	1250	1940	0	0
2019/04/11 09:20:00	BASE	22.69	347	26.39	347	2.2	100	2.2	0	0	975.4	NA	0.0000		9999	1310	0	0	0
2019/04/11 09:21:00	BASE	22.80	346	26.39	347	2.2	100	2.2	0	0	975.3	NA	0.0000		9999	1670	4720	0	0
2019/04/11 09:22:00	BASE	23.13	348	26.39	347	2.2	100	2.2	0	0	975.3	NA	0.0000		9999	1150	0	0	0
2019/04/11 09:23:00	BASE	23.75	348	26.39	347	2.2	100	2.2	0	0	975.3	NA	0.0000		9999	1380	0	0	0
2019/04/11 09:24:00	BASE	24.77	344	26.75	343	2.3	100	2.3	0	0	975.4	NA	0.0000		9999	1120	0	0	0
2019/04/11 09:25:00	BASE	23.61	345	26.75	343	2.3	100	2.3	0	0	975.4	NA	0.0000		9999	6690	0	0	0
2019/04/11 09:26:00	BASE	22.18	346	26.75	343	2.3	100	2.3	0	0	975.5	NA	0.0000		9999	1250	1970	0	0
2019/04/11 09:27:00	BASE	20.76	347	26.75	343	2.3	100	2.3	0	0	975.5	NA	0.0000		9999	1770	6430	0	0
2019/04/11 09:28:00	BASE	20.90	349	26.75	343	2.2	100	2.2	0	0	975.4	NA	0.0000		9999	1940	6300	0	0
2019/04/11 09:29:00	BASE	22.40	350	26.75	343	2.2	100	2.2	0	0	975.4	NA	0.0000		9999	1150	1710	0	0
2019/04/11 09:30:00	BASE	24.04	349	29.37	345	2.2	100	2.2	0	0	975.3	NA	0.0000		9999	1410	0	0	0
2019/04/11 09:31:00	BASE	25.78	345	29.37	345	2.2	100	2.2	0	0	975.3	NA	0.0000		9999	1350	0	0	0
2019/04/11 09:32:00	BASE	24.91	343	29.37	345	2.2	100	2.2	0	0	975.4	NA	0.0000		9999	1480	0	0	0
2019/04/11 09:33:00	BASE	24.52	345	29.37	345	2.2	100	2.2	0	0	975.4	NA	0.0000		9999	1640	4920	0	0
2019/04/11 09:34:00	BASE	24.30	347	29.37	345	2.2	100	2.2	0	0	975.4	NA	0.0000		9999	1440	0	0	0
2019/04/11 09:35:00	BASE	23.53	346	29.37	345	2.2	100	2.2	0	0	975.4	NA	0.0000		9999	1410	0	0	0
2019/04/11 09:36:00	BASE	23.01	346	29.37	345	2.2	100	2.2	0	0	975.4	NA	0.0000		9999	1180	1970	0	0
2019/04/11 09:37:00	BASE	21.30	345	29.37	345	2.2	100	2.2	0	0	975.6	NA	0.0000		9999	1640	2130	0	0
2019/04/11 09:38:00	BASE	20.92	345	29.37	345	2.2	100	2.2	0	0	975.5	NA	0.0000		9999	1540	0	0	0
2019/04/11 09:39:00	BASE	23.00	348	29.37	345	2.1	100	2.1	0	0	975.4	NA	0.0000		9999	1480	0	0	0
2019/04/11 09:40:00	BASE	24.61	348	28.19	345	2.1	100	2.1	0	0	975.4	NA	0.0000		9999	1480	2030	0	0
2019/04/11 09:41:00	BASE	24.22	345	28.19	345	2.1	100	2.1	0	0	975.5	NA	0.0000		9999	1610	0	0	0
2019/04/11 09:42:00	BASE	24.96	346	31.33	346	2.1	100	2.1	0	0	975.4	NA	0.0000		9999	1510	0	0	0
2019/04/11 09:43:00	BASE	25.56	347	31.33	346	2.1	100	2.1	0	0	975.4	NA	0.0000		9999	1350	0	0	0
2019/04/11 09:44:00	BASE	24.14	348	31.33	346	2.1	100	2.1	0	0	975.4	NA	0.0000		9999	1280	0	0	0
2019/04/11 09:45:00	BASE	24.30	347	31.33	346	2.1	100	2.1	0	0	975.4	NA	0.0000		9999	1210	0	0	0
2019/04/11 09:46:00	BASE	24.06	349	31.33	346	2.1	100	2.1	0	0	975.5	NA	0.0000		9999	0	0	0	1510
2019/04/11 09:47:00	BASE	24.00	347	31.33	346	2.1	100	2.1	0	0	975.4	NA	0.0000		9999	0	0	0	1410
2019/04/11 09:48:00	BASE	23.44	346	31.33	346	2.1	100	2.1	0	0	975.5	NA	0.0000		9999	0	0	0	2070
2019/04/11 09:49:00	BASE	22.07	351	31.33	346	2.1	100	2.1	0	0	975.5	NA	0.0000		9999	0	0	0	1440
2019/04/11 09:50:00	BASE	23.18	350	31.33	346	2.1	100	2.1	0	0	975.4	NA	0.0000		9999	2620	0	0	0
2019/04/11 09:51:00	BASE	23.13	349	31.33	346	2.1	100	2.1	0	0	975.5	NA	0.0000		9999	2430	0	0	0
2019/04/11 09:52:00	BASE	22.71	350	28.91	352	2.1	100	2.1	0	0	975.4	NA	0.0000		9999	2130	0	0	0
2019/04/11 09:53:01	BASE	22.18	351	28.91	352	2.1	100	2.1	0	0	975.5	NA	0.0000		9999	2430	0	0	0
2019/04/11 09:54:00	BASE	21.10	353	28.91	352	2.1	100	2.1	0	0	975.5	NA	0.0000		9999	0	0	0	2200
2019/04/11 09:55:00	BASE	21.56	352	28.91	352	2.2	100	2.2	0	0	975.4	NA	0.0000		9999	2430	0	0	0
2019/04/11 09:56:00	BASE	21.46	353	27.47	343	2.2	100	2.2	0	0	975.5	NA	0.0000		9999	0	0	0	1180
2019/04/11 09:57:00	BASE	20.65	355	26.70	353	2.2	100	2.2	0	0	975.4	NA	0.0000		9999	0	0	0	1120
2019/04/11 09:58:00	BASE	20.55	350	26.70	353	2.2	100	2.2	0	0	975.5	NA	0.0000		9999	0	0	0	850
2019/04/11 09:59:00	BASE	21.00	349	26.70	353	2.3	100	2.2	0	0	975.4	NA	0.0000		9999	0	0	0	1150
2019/04/11 10:00:00	BASE	20.18	353	26.13	7	2.3	100	2.3	0	0	975.5	NA	0.0000		9999	0	0	0	950
2019/04/11 10:01:00	BASE	20.11	349	26.13	7	2.3	100	2.3	0	0	975.4	NA	0.0000		9999	3970	0	0	0
2019/04/11 10:02:00	BASE	19.86	354	26.13	7	2.3	100	2.3	0	0	975.5	NA	0.0000		9999	4040	0	0	0
2019/04/11 10:03:00	BASE	18.36	355	26.13	7	2.3	100	2.3	0	0	975.5	NA	0.0000		9999	4100	0	0	0
2019/04/11 10:04:00	BASE	19.82	349	26.13	7	2.3	100	2.3	0	0	975.4	NA	0.0000		9999	0	0	0	1020
2019/04/11 10:05:00	BASE	20.55	345	23.72	354	2.3	100	2.3	0	0	975.4	NA	0.0000		9999	0	0	0	1150
2019/04/11 10:06:00	BASE	21.71	344	27.83	347	2.3	100	2.3	0	0	975.2	NA	0.0000		9999	3810	0	0	0
2019/04/11 10:07:00	BASE	22.33	352	27.83	347	2.3	100	2.3	0	0	975.3	NA	0.0000		9999	3310	0	0	0
2019/04/11 10:08:00	BASE	20.82	354	27.83	347	2.3	100	2.3	0	0	975.3	NA	0.0000		9999	3900	0	0	0
2019/04/11 10:09:00	BASE	20.36	351	27.83	347	2.3	100	2.3	0	0	975.4	NA	0.0000		9999	3180	4130	0	0
2019/04/11 10:10:00	BASE	20.65	352	27.83	347	2.3	100	2.3	0	0	975.2	NA	0.0000		9999	4040	0	0	0
2019/04/11 10:11:00	BASE	21.60	358	27.83	347	2.3	100	2.3	0	0	975.3	NA	0.0000		9999	3450	4040	0	0
2019/04/11 10:12:00	BASE	20.62	357	27.83	347	2.4	100	2.4	0	0	975.3	NA	0.0000		9999	3480	4070	0	0
2019/04/11 10:13:00	BASE	20.67	354	27.83	347	2.4	100	2.4	0	0	975.3	NA	0.0000		9999	3150	0	0	0
2019/04/11 10:14:00	BASE	21.52	351	27.83	347	2.4	100	2.4	0	0	975.3	NA	0.0000		9999	3220	0	0	0
2019/04/11 10:15:00	BASE	21.47	353	27.83	347	2.4	100	2.4	0	0	975.3	NA	0.0000		9999	2790	4170	0	0
2019/04/11 10:16:00	BASE	20.30	353	26.34	360	2.5	100	2.5	0	0	975.4	NA	0.0000		9999	1740	3380	0	0
2019/04/11 10:17:00	BASE	19.75	351	26.34	360	2.5	100	2.5	0	0	975.4	NA	0.0000		9999	1870	3870	0	0
2019/04/11 10:18:00	BASE	21.02	352	26.34	360	2.5	100	2.5	0	0	975.4	NA	0.0000		9999	1480	0	0	0
2019/04/11 10:19:00	BASE	22.10	349	26.34	360	2.5	100	2.5	0	0	975.3	NA	0.0000		9999	1640	0	0	0
2019/04/11 10:20:00	BASE	22.43	351	25.00	346	2.5	100	2.5	0	0	975.3	NA	0.0000		9999	1480	0	0	0
2019/04/11 10:21:00	BASE	22.15	350	25.62	355	2.5	100	2.5	0	0	975.3	NA	0.0000		9999	1540	0	0	0
2019/04/11 10:22:00	BASE	22.15	347	25.62	355	2.5	100	2.5	0	0	975.3	NA	0.0000		9999	1350	0	0	0
2019/04/11 10:23:00	BASE	21.03	349	25.62	355	2.5	100	2.5	0	0	975.4	NA	0.0000		9999	1350	0	0	0
2019/04/11 10:24:00	BASE	19.73	352	25.62	355	2.5	100	2.5	0	0	975.4	NA	0.0000		9999	1310	0	0	0
2019/04/11 10:25:00	BASE	22.37	350	27.68	348	2.5	100	2.5	0	0	975.1	NA	0.0000		9999	1280	0	0	0
2019/04/11 10:26:00	BASE	23.98	350	27.68	348	2.5	100	2.5	0	0	975.2	NA	0.0000		9999	1280	0	0	0
2019/04/11 10:27:00	BASE	22.73	351	27.68	348	2.5	100	2.5	0	0	975.2	NA	0.0000		9999	1280	0	0	0
2019/04/11 10:28:00	BASE	22.12	348	27.68	348	2.5	100	2.5	0	0	975.3	NA	0.0000		9999	1770	3350	0	0
2019/04/11 10:29:00	BASE	22.97	342	27.68	349	2.5	100	2.5	0	0	975.2	NA	0.0000		9999	1250	0	0	0
2019/04/11 10:30:00	BASE	24.43	340	27.68	349	2.5	100	2.5	0	0	975.2	NA	0.0000		9999	1350	2170	0	0
2019/04/11 10:31:00	BASE	23.68	348	27.68	349	2.5	100	2.5	0	0	975.2	NA	0.0000		9999	1480	1970	0	0
2019/04/11 10:32:00	BASE	21.65	348	27.68	349	2.5	100	2.5	0	0	975.3	NA	0.0000		9999	1380	0	0	0
2019/04/11 10:33:00	BASE	21.96	346	27.68	349	2.4	100	2.4	0	0	975.2	NA	0.0000		9999	1540	2100	0	0
2019/04/11 10:34:00	BASE	22.25	351	27.68	349	2.4	100	2.4	0	0	975.3	NA	0.0000		9999	1440	3710	0	0
2019/04/11 10:35:00	BASE	23.47	350	27.99	349	2.4	100	2.4	0	0	975.1	NA	0.0000		9999	1640	3450	0	0
2019/04/11 10:36:00	BASE	25.47	348	27.99	349	2.4	100	2.4	0	0	975.1	NA	0.0000		9999	1310	2720	0	0
2019/04/11 10:37:00	BASE	24.20	349	27.99	349	2.4	100	2.4	0	0	975.2	NA	0.0000		9999	1310	0	0	0
2019/04/11 10:38:00	BASE	22.93	349	27.99	349	2.4	100	2.4	0	0	975.2	NA	0.0000		9999	1570	0	0	0
2019/04/11 10:39:00	BASE	23.24	349	27.99	349	2.4	100	2.4	0	0	975.1	NA	0.0000		9999	1480	0	0	0
2019/04/11 10:40:00	BASE	23.53	351	27.99	349	2.4	100	2.4	0	0	975.2	NA	0.0000		9999	1380	0	0	0
2019/04/11 10:41:00	BASE	24.21	351	28.71	345	2.3	100	2.3	0	0	975.1	NA	0.0000		9999	2720	0	0	0
2019/04/11 10:42:00	BASE	25.42	349	29.53	346	2.3	100	2.3	0	0	975.1	NA	0.0000		9999	1900	2620	0	0
2019/04/11 10:43:00	BASE	24.32	348	29.53	346	2.3	100	2.3	0	0	975.1	NA	0.0000		9999	2850	0	0	0
2019/04/11 10:44:00	BASE	24.00	348	29.53	346	2.3	100	2.3	0	0	975.1	NA	0.0000		9999	11580	0	0	0
2019/04/11 10:45:00	BASE	24.31	349	29.53	346	2.3	100	2.3	0	0	975.1	NA	0.0000		9999	1350	0	0	0
2019/04/11 10:46:00	BASE	23.06	347	29.53	346	2.3	100	2.3	0	0	975.1	NA	0.0000		9999	1410	3080	0	0
2019/04/11 10:47:00	BASE	24.58	353	31.23	352	2.3	100	2.3	0	0	974.9	NA	0.0000		9999	1410	3120	0	0
2019/04/11 10:48:00	BASE	25.91	354	31.23	352	2.3	100	2.3	0	0	975.0	NA	0.0000		9999	1380	0	0	0
2019/04/11 10:49:00	BASE	25.06	350	31.23	352	2.3	100	2.3	0	0	975.0	NA	0.0000		9999	1280	3710	0	0
2019/04/11 10:50:00	BASE	25.77	349	31.23	352	2.3	100	2.3	0	0	974.9	NA	0.0000		9999	1350	0	0	0
2019/04/11 10:51:00	BASE	25.89	349	31.23	352	2.3	100	2.3	0	0	974.9	NA	0.0000		9999	1350	0	0	0
2019/04/11 10:52:00	BASE	24.29	353	31.28	343	2.3	100	2.3	0	0	975.0	NA	0.0000		9999	1380	0	0	0
2019/04/11 10:53:00	BASE	22.96	352	31.28	343	2.3	100	2.3	0	0	975.0	NA	0.0000		9999	1410	3310	0	0
2019/04/11 10:54:00	BASE	22.54	348	31.28	343	2.3	100	2.3	0	0	975.1	NA	0.0000		9999	1380	0	0	0
2019/04/11 10:55:00	BASE	23.27	350	31.28	343	2.3	100	2.3	0	0	974.9	NA	0.0000		9999	0	0	0	1510
2019/04/11 10:56:00	BASE	23.90	349	31.28	343	2.3	100	2.3	0	0	975.0	NA	0.0000		9999	0	0	0	1210
2019/04/11 10:57:00	BASE	25.20	348	31.28	343	2.3	100	2.3	0	0	974.8	NA	0.0000		9999	0	0	0	1180
2019/04/11 10:58:00	BASE	25.43	347	31.28	343	2.3	100	2.3	0	0	974.9	NA	0.0000		9999	11750	0	0	0
2019/04/11 10:59:00	BASE	26.68	341	31.43	347	2.3	100	2.3	0	0	974.7	NA	0.0000		9999	3770	0	0	0
2019/04/11 11:00:00	BASE	27.44	342	31.43	347	2.3	100	2.3	0	0	974.9	NA	0.0000		9999	3840	0	0	0
2019/04/11 11:01:00	BASE	24.64	350	31.43	347	2.3	100	2.3	1	0	975.0	NA	0.0000		9999	4330	10930	0	0
2019/04/11 11:02:00	BASE	25.36	351	31.43	347	2.3	100	2.3	1	0	974.9	NA	0.0000		9999	3810	11350	0	0
2019/04/11 11:03:00	BASE	26.07	349	31.43	347	2.3	100	2.3	1	0	975.0	NA	0.0000		9999	3770	0	0	0
2019/04/11 11:04:00	BASE	24.99	349	31.43	347	2.3	100	2.3	1	0	974.9	NA	0.0000		9999	6730	7150	0	0
2019/04/11 11:05:00	BASE	24.79	352	31.43	347	2.3	100	2.3	1	0	975.0	NA	0.0000		9999	4360	4820	0	0
2019/04/11 11:06:00	BASE	23.37	354	31.43	347	2.4	100	2.4	1	0	975.1	NA	0.0000		9999	4270	6890	0	0
2019/04/11 11:07:00	BASE	23.05	353	31.43	347	2.4	100	2.4	1	0	975.0	NA	0.0000		9999	4300	0	0	0
2019/04/11 11:08:00	BASE	23.89	354	31.43	347	2.4	100	2.4	1	0	975.1	NA	0.0000		9999	4490	0	0	0
2019/04/11 11:09:00	BASE	24.05	358	30.87	343	2.4	100	2.4	1	0	975.1	NA	0.0000		9999	4760	6760	0	0
2019/04/11 11:10:00	BASE	23.88	2	30.87	343	2.4	100	2.4	1	0	975.1	NA	0.0000		9999	6760	0	0	0
2019/04/11 11:11:00	BASE	23.58	3	30.87	343	2.4	100	2.4	1	0	975.1	NA	0.0000		9999	4270	5150	0	0
2019/04/11 11:12:00	BASE	23.19	4	30.51	360	2.4	100	2.4	1	0	975.2	NA	0.0000		9999	2620	3770	0	0
2019/04/11 11:13:00	BASE	22.07	360	30.51	360	2.3	100	2.3	1	0	975.1	NA	0.0000		9999	2990	3970	0	0
2019/04/11 11:14:00	BASE	21.56	357	29.53	354	2.3	100	2.3	1	0	975.1	NA	0.0000		9999	3610	0	0	0
2019/04/11 11:15:00	BASE	22.20	1	29.53	354	2.3	100	2.3	1	0	975.1	NA	0.0000		9999	2720	0	0	0
2019/04/11 11:16:00	BASE	22.56	9	29.53	354	2.2	100	2.2	1	0	975.1	NA	0.0000		9999	2660	3450	0	0
2019/04/11 11:17:00	BASE	22.19	4	27.21	360	2.2	100	2.2	1	0	975.1	NA	0.0000		9999	2950	0	0	0
2019/04/11 11:18:00	BASE	21.24	354	27.21	360	2.2	100	2.2	2	0	975.1	NA	0.0000		9999	3080	6370	0	0
2019/04/11 11:19:00	BASE	21.84	2	27.21	360	2.2	100	2.2	2	0	975.0	NA	0.0000		9999	3080	0	0	0
2019/04/11 11:20:00	BASE	24.21	4	29.53	4	2.2	100	2.2	2	0	974.9	NA	0.0000		9999	1740	3280	0	0
2019/04/11 11:21:00	BASE	25.48	359	29.53	4	2.2	100	2.2	2	0	974.9	NA	0.0000		9999	3450	6270	0	0
2019/04/11 11:22:00	BASE	26.26	359	29.53	4	2.2	100	2.2	2	0	974.8	NA	0.0000		9999	3350	4000	0	0
2019/04/11 11:23:00	BASE	25.43	360	29.53	4	2.2	100	2.2	3	0	974.9	NA	0.0000		9999	0	0	0	1250
2019/04/11 11:24:00	BASE	24.90	2	29.53	4	2.3	100	2.3	3	0	974.8	NA	0.0000		9999	4000	7450	0	0
2019/04/11 11:25:00	BASE	23.94	0	29.53	4	2.3	100	2.3	3	0	975.0	NA	0.0000		9999	3870	0	0	0
2019/04/11 11:26:00	BASE	23.22	359	29.53	4	2.3	100	2.3	3	0	974.9	NA	0.0000		9999	4300	6070	0	0
2019/04/11 11:27:00	BASE	23.50	4	29.53	4	2.3	100	2.3	3	0	974.9	NA	0.0000		9999	4070	0	0	0
2019/04/11 11:28:00	BASE	22.87	3	29.53	4	2.3	100	2.3	3	0	974.8	NA	0.0000		9999	5540	0	0	0
2019/04/11 11:29:00	BASE	23.56	359	29.53	4	2.3	100	2.3	2	0	974.8	NA	0.0000		9999	1800	5840	0	0
2019/04/11 11:30:00	BASE	23.77	360	28.60	2	2.3	100	2.3	2	0	974.8	NA	0.0000		9999	4920	0	0	0
2019/04/11 11:31:00	BASE	24.39	5	31.07	15	2.3	100	2.3	1	0	974.7	NA	0.0000		9999	2230	3970	0	0
2019/04/11 11:32:00	BASE	25.56	6	31.07	15	2.3	100	2.3	1	0	974.6	NA	0.0000		9999	2990	0	0	0
2019/04/11 11:33:00	BASE	24.95	4	31.07	15	2.3	100	2.3	2	0	974.7	NA	0.0000		9999	3120	3740	0	0
2019/04/11 11:34:00	BASE	24.14	0	31.07	15	2.3	100	2.3	2	0	974.7	NA	0.0000		9999	3410	0	0	0
2019/04/11 11:35:00	BASE	24.35	1	31.07	15	2.3	100	2.3	2	0	974.7	NA	0.0000		9999	3050	0	0	0
2019/04/11 11:36:00	BASE	25.53	6	31.07	15	2.3	100	2.3	2	0	974.6	NA	0.0000		9999	3120	0	0	0
2019/04/11 11:37:00	BASE	25.90	7	31.07	15	2.3	100	2.3	2	0	974.6	NA	0.0000		9999	3940	0	0	0
2019/04/11 11:38:00	BASE	25.63	7	31.07	15	2.3	100	2.3	2	0	974.6	NA	0.0000		9999	3870	0	0	0
2019/04/11 11:39:00	BASE	24.96	6	31.07	15	2.3	100	2.3	2	0	974.6	NA	0.0000		9999	3310	0	0	0
2019/04/11 11:40:00	BASE	25.20	6	31.07	15	2.3	100	2.3	2	0	974.5	NA	0.0000		9999	3350	0	0	0
2019/04/11 11:41:00	BASE	26.49	5	29.48	360	2.3	100	2.3	2	0	974.4	NA	0.0000		9999	3180	0	0	0
2019/04/11 11:42:00	BASE	25.57	5	29.48	360	2.3	100	2.3	2	0	974.5	NA	0.0000		9999	3280	0	0	0
2019/04/11 11:43:00	BASE	24.44	5	29.48	360	2.3	100	2.3	2	0	974.5	NA	0.0000		9999	3480	0	0	0
2019/04/11 11:44:00	BASE	25.21	6	29.48	360	2.3	100	2.3	2	0	974.4	NA	0.0000		9999	2300	3640	0	0
2019/04/11 11:45:00	BASE	24.90	6	29.48	360	2.3	100	2.3	2	0	974.6	NA	0.0000		9999	2760	3220	0	0
2019/04/11 11:46:00	BASE	23.49	3	29.48	360	2.3	100	2.3	3	0	974.5	NA	0.0000		9999	3280	0	0	0
2019/04/11 11:47:00	BASE	23.41	358	29.48	360	2.3	100	2.3	3	0	974.5	NA	0.0000		9999	2030	3740	0	0
2019/04/11 11:48:00	BASE	24.34	1	29.48	360	2.3	100	2.3	3	0	974.4	NA	0.0000		9999	1870	0	0	0
2019/04/11 11:49:00	BASE	27.17	5	34.67	5	2.3	100	2.3	3	0	974.2	NA	0.0000		9999	1900	3770	0	0
2019/04/11 11:50:00	BASE	27.68	4	34.67	5	2.3	100	2.3	3	0	974.3	NA	0.0000		9999	3610	0	0	0
2019/04/11 11:51:00	BASE	24.95	360	34.67	5	2.4	100	2.4	4	0	974.4	NA	0.0000		9999	3900	0	0	0
2019/04/11 11:52:00	BASE	27.39	357	34.67	5	2.4	100	2.4	5	0	974.1	NA	0.0000		9999	1840	0	0	0
2019/04/11 11:53:00	BASE	29.02	359	34.67	5	2.4	100	2.4	6	0	974.3	NA	0.0000		9999	3900	0	0	0
2019/04/11 11:54:00	BASE	26.10	1	34.67	5	2.5	100	2.5	7	0	974.4	NA	0.0000		9999	3900	0	0	0
2019/04/11 11:55:00	BASE	26.68	360	34.67	5	2.5	100	2.5	9	0	974.2	NA	0.0000		9999	4170	0	0	0
2019/04/11 11:56:00	BASE	29.35	359	35.70	6	2.5	100	2.5	9	0	974.1	NA	0.0000		9999	3450	4070	0	0
2019/04/11 11:57:00	BASE	28.71	357	35.70	6	2.5	100	2.5	7	0	974.2	NA	0.0000		9999	3870	0	0	0
2019/04/11 11:58:00	BASE	26.04	0	35.70	6	2.5	100	2.5	7	0	974.3	NA	0.0000		9999	1940	3870	0	0
2019/04/11 11:59:00	BASE	27.03	3	35.70	6	2.5	100	2.5	6	0	974.2	NA	0.0000		9999	3870	0	0	0
2019/04/11 12:00:00	BASE	27.38	359	35.70	6	2.5	100	2.5	6	0	974.3	NA	0.0000		9999	3870	0	0	0
2019/04/11 12:01:00	BASE	25.87	359	35.70	6	2.5	100	2.5	5	0	974.3	NA	0.0000		9999	4170	0	0	0
2019/04/11 12:02:00	BASE	25.56	354	35.70	6	2.5	100	2.5	5	0	974.3	NA	0.0000		9999	3900	0	0	0
2019/04/11 12:03:00	BASE	27.22	356	35.70	6	2.5	100	2.5	5	0	974.2	NA	0.0000		9999	1970	2620	0	0
2019/04/11 12:04:00	BASE	28.76	1	35.70	6	2.5	100	2.5	5	0	974.1	NA	0.0000		9999	3870	0	0	0
2019/04/11 12:05:00	BASE	27.63	1	35.70	6	2.5	100	2.5	4	0	974.2	NA	0.0000		9999	3970	0	0	0
2019/04/11 12:06:00	BASE	27.78	2	34.83	1	2.5	100	2.5	4	0	974.1	NA	0.0000		9999	4000	0	0	0
2019/04/11 12:07:00	BASE	26.72	2	34.83	1	2.5	100	2.5	5	0	974.3	NA	0.0000		9999	1970	3770	0	0
2019/04/11 12:08:00	BASE	24.64	3	34.83	1	2.5	100	2.5	5	0	974.3	NA	0.0000		9999	2100	3810	0	0
2019/04/11 12:09:00	BASE	25.45	2	34.83	1	2.5	100	2.5	5	0	974.3	NA	0.0000		9999	3870	0	0	0
2019/04/11 12:10:00	BASE	25.19	3	34.83	1	2.4	100	2.4	5	0	974.3	NA	0.0000		9999	3900	0	0	0
2019/04/11 12:11:00	BASE	23.96	5	34.83	1	2.4	100	2.4	5	0	974.4	NA	0.0000		9999	3870	0	0	0
2019/04/11 12:12:00	BASE	24.16	6	34.83	1	2.3	100	2.3	5	0	974.3	NA	0.0000		9999	2200	3970	0	0
2019/04/11 12:13:00	BASE	24.56	1	34.83	1	2.3	100	2.3	6	0	974.3	NA	0.0000		9999	2460	3510	0	0
2019/04/11 12:14:00	BASE	24.58	351	34.83	1	2.2	100	2.2	7	0	974.2	NA	0.0000		9999	3410	0	0	0
2019/04/11 12:15:00	BASE	24.78	357	34.83	1	2.2	100	2.2	8	0	974.2	NA	0.0000		9999	4040	0	0	0
2019/04/11 12:16:00	BASE	25.88	6	30.04	6	2.2	100	2.2	9	0	974.1	NA	0.0000		9999	4270	0	0	0
2019/04/11 12:17:00	BASE	27.73	4	31.48	360	2.2	100	2.2	9	0	974.0	NA	0.0000		9999	4330	0	0	0
2019/04/11 12:18:00	BASE	27.14	2	31.48	360	2.2	100	2.2	9	0	974.1	NA	0.0000		9999	4200	0	0	0
2019/04/11 12:19:00	BASE	26.13	3	31.54	9	2.2	100	2.2	9	0	974.1	NA	0.0000		9999	4430	0	0	0
2019/04/11 12:20:00	BASE	26.16	4	31.54	9	2.2	100	2.2	9	0	974.2	NA	0.0000		9999	3510	4100	0	0
2019/04/11 12:21:00	BASE	25.13	358	31.54	9	2.2	100	2.2	8	0	974.1	NA	0.0000		9999	3610	4460	0	0
2019/04/11 12:22:00	BASE	25.72	357	31.54	9	2.2	100	2.2	8	0	974.1	NA	0.0000		9999	3580	0	0	0
2019/04/11 12:23:00	BASE	26.61	2	31.54	9	2.2	100	2.2	9	0	974.0	NA	0.0000		9999	3770	0	0	0
2019/04/11 12:24:00	BASE	27.78	3	31.64	10	2.2	100	2.2	11	0	973.9	NA	0.0000		9999	4300	0	0	0
2019/04/11 12:25:00	BASE	27.86	4	31.64	10	2.2	100	2.2	13	0	974.0	NA	0.0000		9999	4270	4920	0	0
2019/04/11 12:26:00	BASE	26.09	6	31.64	10	2.2	100	2.2	14	0	974.0	NA	0.0000		9999	4690	0	0	0
2019/04/11 12:27:00	BASE	26.72	8	31.64	10	2.2	100	2.2	12	0	973.9	NA	0.0000		9999	4270	5220	0	0
2019/04/11 12:28:00	BASE	27.76	5	31.64	10	2.2	100	2.2	12	0	974.0	NA	0.0000		9999	5050	0	0	0
2019/04/11 12:29:00	BASE	26.72	1	31.64	10	2.2	100	2.2	14	0	974.0	NA	0.0000		9999	5970	0	0	0
2019/04/11 12:30:00	BASE	25.54	2	31.64	10	2.2	100	2.2	15	0	974.0	NA	0.0000		9999	3810	0	0	0
2019/04/11 12:31:00	BASE	27.87	3	39.66	5	2.2	100	2.2	18	0	973.7	NA	0.0000		9999	1740	0	0	0
2019/04/11 12:32:00	BASE	30.03	2	39.66	5	2.2	100	2.2	18	0	973.7	NA	0.0000		9999	2030	0	0	0
2019/04/11 12:33:00	BASE	29.42	5	39.66	5	2.2	100	2.2	19	0	973.7	NA	0.0000		9999	0	0	0	790
2019/04/11 12:34:00	BASE	28.92	6	39.66	5	2.2	100	2.2	19	0	973.7	NA	0.0000		9999	1900	0	0	0
2019/04/11 12:35:00	BASE	29.11	6	39.66	5	2.2	100	2.2	20	0	973.7	NA	0.0000		9999	1870	0	0	0
2019/04/11 12:36:00	BASE	28.58	7	39.66	5	2.2	100	2.2	22	0	973.7	NA	0.0000		9999	1740	0	0	0
2019/04/11 12:37:00	BASE	28.94	3	39.66	5	2.2	100	2.2	23	0	973.6	NA	0.0000		9999	1940	0	0	0
2019/04/11 12:38:00	BASE	28.50	1	39.66	5	2.2	100	2.2	25	0	973.8	NA	0.0000		9999	0	0	0	1210
2019/04/11 12:39:00	BASE	28.60	2	39.66	5	2.2	100	2.2	25	0	973.6	NA	0.0000		9999	2070	0	0	0
2019/04/11 12:40:00	BASE	29.19	0	39.66	5	2.2	100	2.2	23	0	973.7	NA	0.0000		9999	6330	0	0	0
2019/04/11 12:41:00	BASE	28.31	1	36.42	1	2.2	100	2.2	18	0	973.7	NA	0.0000		9999	3640	6330	0	0
2019/04/11 12:42:00	BASE	28.26	3	36.42	1	2.3	100	2.3	13	0	973.8	NA	0.0000		9999	2760	0	0	0
2019/04/11 12:43:00	BASE	27.31	1	36.42	1	2.3	100	2.3	11	0	973.9	NA	0.0000		9999	3640	4070	0	0
2019/04/11 12:44:00	BASE	26.12	5	36.42	1	2.3	100	2.3	11	0	974.0	NA	0.0000		9999	2890	4360	0	0
2019/04/11 12:45:00	BASE	24.74	5	36.42	1	2.3	100	2.3	11	0	973.9	NA	0.0000		9999	3220	0	0	0
2019/04/11 12:46:00	BASE	23.92	3	36.42	1	2.3	100	2.3	11	0	973.9	NA	0.0000		9999	4630	0	0	0
2019/04/11 12:47:00	BASE	24.36	6	36.42	1	2.2	100	2.2	10	0	973.9	NA	0.0000		9999	6560	0	0	0
2019/04/11 12:48:00	BASE	25.75	7	36.42	1	2.2	100	2.2	10	0	973.8	NA	0.0000		9999	6500	0	0	0
2019/04/11 12:49:00	BASE	26.66	6	31.74	360	2.2	100	2.2	11	0	973.8	NA	0.0000		9999	2920	6430	0	0
2019/04/11 12:50:00	BASE	26.89	4	31.18	3	2.2	100	2.2	14	0	973.8	NA	0.0000		9999	2590	4950	0	0
2019/04/11 12:51:00	BASE	26.91	4	31.18	3	2.2	100	2.2	19	0	973.9	NA	0.0000		9999	2130	3120	0	0
2019/04/11 12:52:00	BASE	27.49	5	32.41	9	2.2	100	2.2	21	0	973.8	NA	0.0000		9999	2030	4360	0	0
2019/04/11 12:53:00	BASE	26.66	6	32.41	9	2.2	100	2.2	22	0	973.9	NA	0.0000		9999	4400	0	0	0
2019/04/11 12:54:00	BASE	26.23	4	32.41	9	2.2	100	2.2	26	0	973.9	NA	0.0000		9999	4690	5250	0	0
2019/04/11 12:55:00	BASE	25.30	359	32.41	9	2.2	100	2.2	28	0	974.0	NA	0.0000		9999	5480	0	0	0
2019/04/11 12:56:00	BASE	24.76	359	35.03	8	2.2	100	2.2	31	0	973.9	NA	0.0000		9999	2000	5710	0	0
2019/04/11 12:57:00	BASE	25.74	5	35.03	8	2.2	100	2.2	29	0	973.8	NA	0.0000		9999	3900	0	0	0
2019/04/11 12:58:00	BASE	25.80	5	35.03	8	2.2	100	2.2	21	0	973.7	NA	0.0000		9999	2030	4170	0	0
2019/04/11 12:59:00	BASE	25.93	3	35.03	8	2.2	100	2.2	15	0	973.8	NA	0.0000		9999	1940	2790	0	0
2019/04/11 13:00:00	BASE	27.26	7	35.03	8	2.2	100	2.2	12	0	973.7	NA	0.0000		9999	2530	0	0	0
2019/04/11 13:01:00	BASE	30.55	5	37.14	4	2.2	100	2.2	11	0	973.6	NA	0.0000		9999	1770	0	0	0
2019/04/11 13:02:00	BASE	30.27	358	37.14	4	2.2	100	2.2	9	0	973.7	NA	0.0000		9999	1870	0	0	0
2019/04/11 13:03:00	BASE	27.36	354	37.14	4	2.3	100	2.2	10	0	973.8	NA	0.0000		9999	1670	0	0	0
2019/04/11 13:04:00	BASE	27.77	357	37.14	4	2.3	100	2.3	12	0	973.6	NA	0.0000		9999	1080	1870	0	0
2019/04/11 13:05:00	BASE	29.15	359	37.14	4	2.3	100	2.3	16	1	973.6	NA	0.0000		9999	490	0	0	0
2019/04/11 13:06:00	BASE	29.39	357	37.14	4	2.3	100	2.3	19	0	973.6	NA	0.0000		9999	2330	0	0	0
2019/04/11 13:07:00	BASE	28.43	357	37.14	4	2.3	100	2.3	18	0	973.7	NA	0.0000		9999	0	0	0	2820
2019/04/11 13:08:00	BASE	28.43	358	37.14	4	2.3	100	2.3	17	0	973.6	NA	0.0000		9999	1870	0	0	0
2019/04/11 13:09:00	BASE	29.30	359	37.14	4	2.3	100	2.3	14	0	973.7	NA	0.0000		9999	620	0	0	0
2019/04/11 13:10:00	BASE	26.45	357	37.14	4	2.3	100	2.3	12	0	973.9	NA	0.0000		9999	1800	0	0	0
2019/04/11 13:11:00	BASE	24.82	350	34.72	1	2.3	100	2.3	12	0	973.8	NA	0.0000		9999	1770	0	0	0
2019/04/11 13:12:00	BASE	26.41	352	34.72	1	2.3	100	2.3	13	0	973.8	NA	0.0000		9999	1840	0	0	0
2019/04/11 13:13:00	BASE	27.13	355	34.72	1	2.3	100	2.3	13	0	973.7	NA	0.0000		9999	1840	0	0	0
2019/04/11 13:14:00	BASE	29.07	353	34.72	1	2.2	100	2.2	13	0	973.7	NA	0.0000		9999	6590	0	0	0
2019/04/11 13:15:00	BASE	29.25	355	34.16	2	2.2	100	2.2	13	0	973.7	NA	0.0000		9999	1740	0	0	0
2019/04/11 13:16:00	BASE	27.71	353	34.16	2	2.2	100	2.2	18	0	973.8	NA	0.0000		9999	0	0	0	1640
2019/04/11 13:17:00	BASE	28.01	350	34.16	2	2.2	100	2.2	22	0	973.8	NA	0.0000		9999	2230	3080	0	0
2019/04/11 13:18:00	BASE	28.69	354	34.16	2	2.3	100	2.3	23	0	973.7	NA	0.0000		9999	0	0	0	2660
2019/04/11 13:19:00	BASE	28.38	353	34.16	2	2.3	100	2.3	22	0	973.7	NA	0.0000		9999	1970	0	0	0
2019/04/11 13:20:00	BASE	27.80	353	34.16	2	2.3	100	2.3	34	0	973.7	NA	0.0000		9999	0	0	0	1770
2019/04/11 13:21:00	BASE	27.38	352	34.16	2	2.3	100	2.3	31	0	973.8	NA	0.0000		9999	2360	0	0	0
2019/04/11 13:22:00	BASE	26.51	351	34.16	2	2.3	100	2.3	28	0	973.7	NA	0.0000		9999	2070	0	0	0
2019/04/11 13:23:00	BASE	26.46	353	34.16	2	2.3	100	2.3	26	0	973.7	NA	0.0000		9999	1710	0	0	0
2019/04/11 13:24:00	BASE	25.30	356	31.54	346	2.3	100	2.3	41	0	973.9	NA	0.0000		9999	1640	0	0	0
2019/04/11 13:25:00	BASE	24.75	359	31.54	346	2.3	100	2.3	46	0	973.8	NA	0.0000		9999	1770	0	0	0
2019/04/11 13:26:00	BASE	25.12	357	31.54	346	2.3	100	2.3	48	0	973.7	NA	0.0000		9999	1670	0	0	0
2019/04/11 13:27:00	BASE	26.48	357	31.54	346	2.3	100	2.3	47	1	973.5	NA	0.0000		9999	1900	0	0	0
2019/04/11 13:28:00	BASE	27.39	354	31.54	350	2.3	100	2.3	57	0	973.6	NA	0.0000		9999	0	0	0	1800
2019/04/11 13:29:00	BASE	27.19	355	32.10	354	2.2	100	2.2	55	0	973.6	NA	0.0000		9999	1770	0	0	0
2019/04/11 13:30:00	BASE	27.58	4	32.10	354	2.2	100	2.2	53	0	973.6	NA	0.0000		9999	0	0	0	2070
2019/04/11 13:31:00	BASE	27.81	1	33.64	2	2.2	100	2.2	52	0	973.5	NA	0.0000		9999	0	0	0	2000
2019/04/11 13:32:00	BASE	28.32	356	33.64	2	2.3	100	2.3	53	0	973.5	NA	0.0000		9999	1870	0	0	0
2019/04/11 13:33:00	BASE	27.61	358	33.64	2	2.3	100	2.2	56	0	973.5	NA	0.0000		9999	1770	0	0	0
2019/04/11 13:34:00	BASE	25.47	359	33.64	2	2.3	100	2.2	58	0	973.7	NA	0.0000		9999	1840	2530	0	0
2019/04/11 13:35:00	BASE	26.69	3	33.64	2	2.3	99	2.2	64	0	973.4	NA	0.0000		9999	2330	0	0	0
2019/04/11 13:36:00	BASE	27.51	5	33.64	2	2.3	99	2.1	63	0	973.6	NA	0.0000		9999	2000	0	0	0
2019/04/11 13:37:00	BASE	26.17	3	33.64	2	2.3	99	2.1	67	0	973.5	NA	0.0000		9999	2100	0	0	0
2019/04/11 13:38:00	BASE	27.61	4	33.64	2	2.3	99	2.1	63	0	973.4	NA	0.0000		9999	2070	0	0	0
2019/04/11 13:39:00	BASE	27.97	4	33.64	2	2.3	99	2.2	60	0	973.5	NA	0.0000		9999	16040	0	0	0
2019/04/11 13:40:00	BASE	26.58	4	33.64	2	2.3	99	2.2	55	0	973.5	NA	0.0000		9999	0	0	0	1310
2019/04/11 13:41:00	BASE	27.02	4	32.41	136	2.2	100	2.2	51	0	973.4	NA	0.0000		9999	0	0	0	1280
2019/04/11 13:42:00	BASE	27.89	3	32.41	136	2.2	100	2.2	46	0	973.5	NA	0.0000		9999	0	0	0	950
2019/04/11 13:43:00	BASE	27.38	0	32.41	136	2.2	100	2.2	42	0	973.5	NA	0.0000		9999	0	0	0	1410
2019/04/11 13:44:00	BASE	26.30	2	32.41	136	2.2	100	2.2	39	0	973.5	NA	0.0000		9999	0	0	0	1380
2019/04/11 13:45:00	BASE	26.40	3	32.00	1	2.2	100	2.2	36	0	973.4	NA	0.0000		9999	0	0	0	1250
2019/04/11 13:46:00	BASE	27.15	1	32.00	1	2.1	100	2.1	33	0	973.4	NA	0.0000		9999	0	0	0	1310
2019/04/11 13:47:00	BASE	26.87	1	32.00	1	2.1	100	2.1	29	0	973.4	NA	0.0000		9999	0	0	0	1610
2019/04/11 13:48:00	BASE	26.31	3	32.00	1	2.1	100	2.1	27	0	973.4	NA	0.0000		9999	0	0	0	1900
2019/04/11 13:49:00	BASE	26.40	5	30.97	3	2.1	100	2.1	24	0	973.4	NA	0.0000		9999	0	0	0	1610
2019/04/11 13:50:00	BASE	27.01	2	30.97	3	2.1	100	2.1	22	0	973.3	NA	0.0000		9999	2430	0	0	0
2019/04/11 13:51:00	BASE	26.79	357	30.66	6	2.1	100	2.1	17	0	973.4	NA	0.0000		9999	2300	0	0	0
2019/04/11 13:52:00	BASE	26.13	358	30.66	6	2.1	100	2.1	18	0	973.4	NA	0.0000		9999	3050	0	0	0
2019/04/11 13:53:00	BASE	25.65	4	30.66	6	2.1	100	2.1	18	0	973.5	NA	0.0000		9999	2430	0	0	0
2019/04/11 13:54:00	BASE	26.65	8	31.07	7	2.1	100	2.1	18	0	973.3	NA	0.0000		9999	3250	0	0	0
2019/04/11 13:55:00	BASE	27.94	8	31.07	7	2.1	100	2.1	19	0	973.3	NA	0.0000		9999	0	0	0	1310
2019/04/11 13:56:00	BASE	28.87	9	32.77	12	2.1	100	2.1	21	1	973.2	NA	0.0000		9999	0	0	0	1670
2019/04/11 13:57:00	BASE	28.43	8	32.77	12	2.1	100	2.1	23	1	973.2	NA	0.0000		9999	2890	0	0	0
2019/04/11 13:58:00	BASE	25.60	6	32.77	12	2.1	100	2.1	26	0	973.3	NA	0.0000		9999	3250	0	0	0
2019/04/11 13:59:00	BASE	25.86	5	32.77	12	2.1	100	2.1	26	0	973.1	NA	0.0000		9999	3150	0	0	0
2019/04/11 14:00:00	BASE	26.71	5	32.77	12	2.1	100	2.1	25	0	973.1	NA	0.0000		9999	0	0	0	1640
2019/04/11 14:01:00	BASE	27.38	6	32.77	12	2.0	100	2.0	25	0	973.0	NA	0.0000		9999	0	0	0	2070
2019/04/11 14:02:00	BASE	28.98	7	32.77	12	2.0	100	2.0	24	0	973.0	NA	0.0000		9999	2530	0	0	0
2019/04/11 14:03:00	BASE	27.62	6	32.77	12	2.0	100	2.0	23	0	973.0	NA	0.0000		9999	2230	2920	0	0
2019/04/11 14:04:00	BASE	27.38	4	32.77	12	2.0	100	2.0	21	0	972.9	NA	0.0000		9999	2170	0	0	0
2019/04/11 14:05:00	BASE	28.97	3	32.77	12	2.1	100	2.1	21	0	972.8	NA	0.0000		9999	0	0	0	1510
2019/04/11 14:06:00	BASE	28.05	4	31.84	2	2.1	100	2.1	20	0	972.9	NA	0.0000		9999	2820	0	0	0
2019/04/11 14:07:00	BASE	27.94	5	31.84	2	2.1	100	2.1	20	0	972.7	NA	0.0000		9999	0	0	0	1640
2019/04/11 14:08:00	BASE	28.52	5	31.84	2	2.1	100	2.1	21	0	972.8	NA	0.0000		9999	0	0	0	1770
2019/04/11 14:09:00	BASE	26.21	1	31.84	2	2.2	100	2.2	23	0	972.9	NA	0.0000		9999	0	0	0	1510
2019/04/11 14:10:00	BASE	25.42	359	31.84	2	2.2	100	2.2	22	0	972.8	NA	0.0000		9999	0	0	0	1350
2019/04/11 14:11:00	BASE	25.76	2	31.84	2	2.2	100	2.2	22	0	972.8	NA	0.0000		9999	0	0	0	2070
2019/04/11 14:12:00	BASE	26.49	4	31.84	2	2.2	100	2.2	23	0	972.7	NA	0.0000		9999	0	0	0	1350
2019/04/11 14:13:00	BASE	28.38	3	31.84	2	2.1	100	2.1	23	0	972.6	NA	0.0000		9999	0	0	0	1870
2019/04/11 14:14:00	BASE	29.52	4	32.77	7	2.1	100	2.1	24	0	972.5	NA	0.0000		9999	0	0	0	1610
2019/04/11 14:15:00	BASE	28.27	8	32.77	7	2.1	100	2.1	26	0	972.6	NA	0.0000		9999	1970	0	0	0
2019/04/11 14:16:00	BASE	27.26	8	32.77	7	2.1	100	2.1	32	0	972.5	NA	0.0000		9999	0	0	0	1440
2019/04/11 14:17:00	BASE	28.35	6	32.77	7	2.1	100	2.1	39	0	972.5	NA	0.0000		9999	0	0	0	2200
2019/04/11 14:18:00	BASE	29.53	5	32.77	7	2.1	100	2.1	43	0	972.4	NA	0.0000		9999	1870	0	0	0
2019/04/11 14:19:00	BASE	29.53	3	32.77	7	2.1	100	2.1	60	1	972.4	NA	0.0000		9999	2200	5840	0	0
2019/04/11 14:20:00	BASE	29.15	6	32.77	7	2.1	100	2.1	74	0	972.3	NA	0.0000		9999	2200	5680	0	0
2019/04/11 14:21:00	BASE	29.30	6	32.77	7	2.2	100	2.2	87	0	972.2	NA	0.0000		9999	2260	5510	0	0
2019/04/11 14:22:00	BASE	30.07	4	32.77	7	2.2	100	2.2	96	1	972.1	NA	0.0000		9999	5120	0	0	0
2019/04/11 14:23:00	BASE	29.39	4	32.77	7	2.2	100	2.2	99	0	972.2	NA	0.0000		9999	5180	0	0	0
2019/04/11 14:24:00	BASE	28.62	4	32.56	7	2.2	100	2.2	93	1	972.1	NA	0.0000		9999	2100	5180	0	0
2019/04/11 14:25:00	BASE	29.38	6	32.56	7	2.2	100	2.2	83	0	972.1	NA	0.0000		9999	5180	0	0	0
2019/04/11 14:26:00	BASE	29.19	2	32.56	7	2.2	100	2.2	84	0	972.1	NA	0.0000		9999	1710	2560	0	0
2019/04/11 14:27:00	BASE	26.89	1	32.56	7	2.2	100	2.2	78	0	972.2	NA	0.0000		9999	4990	0	0	0
2019/04/11 14:28:00	BASE	27.21	359	33.34	352	2.2	100	2.2	83	0	972.0	NA	0.0000		9999	4690	0	0	0
2019/04/11 14:29:00	BASE	28.36	357	33.34	352	2.2	100	2.2	74	0	972.1	NA	0.0000		9999	1770	23920	0	0
2019/04/11 14:30:00	BASE	26.61	2	33.34	352	2.2	100	2.2	68	0	972.1	NA	0.0000		9999	1800	4820	0	0
2019/04/11 14:31:00	BASE	26.85	3	33.34	352	2.2	100	2.2	68	0	972.0	NA	0.0000		9999	2200	0	0	0
2019/04/11 14:32:00	BASE	26.90	358	35.03	3	2.2	100	2.2	84	0	972.1	NA	0.0000		9999	2230	4490	0	0
2019/04/11 14:33:00	BASE	27.13	356	36.11	360	2.2	100	2.2	88	2	972.0	NA	0.0000		9999	4360	0	0	0
2019/04/11 14:34:00	BASE	27.87	351	36.11	360	2.2	100	2.2	80	0	971.9	NA	0.0000		9999	2660	0	0	0
2019/04/11 14:35:00	BASE	29.51	347	36.11	360	2.2	100	2.2	72	0	971.7	NA	0.0000		9999	4400	0	0	0
2019/04/11 14:36:00	BASE	30.20	351	36.11	360	2.2	100	2.2	58	0	971.7	NA	0.0000		9999	2070	4100	0	0
2019/04/11 14:37:00	BASE	29.62	353	36.37	354	2.2	100	2.2	68	1	971.6	NA	0.0000		9999	1970	0	0	0
2019/04/11 14:38:00	BASE	29.31	357	36.37	354	2.2	100	2.2	78	0	971.7	NA	0.0000		9999	2130	0	0	0
2019/04/11 14:39:00	BASE	27.27	356	36.37	354	2.2	100	2.2	78	0	971.8	NA	0.0000		9999	2030	0	0	0
2019/04/11 14:40:00	BASE	26.84	357	36.37	354	2.2	100	2.2	84	0	971.7	NA	0.0000		9999	2070	0	0	0
2019/04/11 14:41:00	BASE	28.76	359	36.37	354	2.2	99	2.1	79	0	971.6	NA	0.0000		9999	0	0	0	620
2019/04/11 14:42:00	BASE	29.25	355	36.37	354	2.3	99	2.1	80	0	971.7	NA	0.0000		9999	2200	0	0	0
2019/04/11 14:43:00	BASE	27.39	355	36.37	354	2.3	98	2.0	89	0	971.7	NA	0.0000		9999	0	0	0	0
2019/04/11 14:44:00	BASE	26.67	352	36.37	354	2.3	98	2.0	103	0	971.6	NA	0.0000		9999	0	0	0	0
2019/04/11 14:45:00	BASE	27.51	346	36.37	354	2.3	97	1.9	119	0	971.6	NA	0.0000		9999	0	0	0	0
2019/04/11 14:46:00	BASE	28.01	343	36.37	354	2.3	97	1.9	136	0	971.6	NA	0.0000		9999	0	0	0	0
2019/04/11 14:47:00	BASE	28.46	353	33.03	354	2.3	97	1.8	146	0	971.5	NA	0.0000		9999	0	0	0	0
2019/04/11 14:48:00	BASE	28.11	357	33.03	354	2.3	97	1.8	145	0	971.5	NA	0.0000		9999	16730	0	0	0
2019/04/11 14:49:00	BASE	28.89	360	33.13	3	2.3	97	1.8	157	0	971.3	NA	0.0000		9999	0	0	0	0
2019/04/11 14:50:00	BASE	29.04	1	33.13	3	2.3	97	1.8	151	0	971.4	NA	0.0000		9999	0	0	0	0
2019/04/11 14:51:00	BASE	27.97	359	34.47	2	2.3	96	1.8	152	0	971.3	NA	0.0000		9999	16110	0	0	0
2019/04/11 14:52:00	BASE	26.91	354	34.47	2	2.3	96	1.7	154	0	971.5	NA	0.0000		9999	16080	0	0	0
2019/04/11 14:53:00	BASE	28.30	353	35.09	19	2.3	96	1.7	154	0	971.3	NA	0.0000		9999	15880	0	0	0
2019/04/11 14:54:00	BASE	29.32	357	35.09	19	2.3	96	1.7	152	0	971.5	NA	0.0000		9999	16140	0	0	0
2019/04/11 14:55:00	BASE	26.12	359	35.09	19	2.4	95	1.7	149	0	971.7	NA	0.0000		9999	20240	0	0	0
2019/04/11 14:56:00	BASE	26.88	1	35.09	19	2.4	95	1.7	146	0	971.4	NA	0.0000		9999	17720	0	0	0
2019/04/11 14:57:00	BASE	31.11	2	35.65	360	2.4	95	1.7	143	0	971.2	NA	0.0000		9999	16010	0	0	0
2019/04/11 14:58:00	BASE	30.98	2	35.65	360	2.4	95	1.7	138	0	971.4	NA	0.0000		9999	16110	0	0	0
2019/04/11 14:59:00	BASE	28.77	1	35.65	360	2.4	95	1.7	133	0	971.4	NA	0.0000		9999	16180	0	0	0
2019/04/11 15:00:00	BASE	28.69	1	35.65	360	2.4	95	1.7	128	0	971.4	NA	0.0000		9999	16110	0	0	0
2019/04/11 15:01:00	BASE	29.30	359	35.65	360	2.4	95	1.7	124	0	971.3	NA	0.0000		9999	0	0	0	1150
2019/04/11 15:02:00	BASE	29.12	360	35.65	360	2.4	95	1.7	121	0	971.4	NA	0.0000		9999	15650	0	0	0
2019/04/11 15:03:00	BASE	28.42	3	35.65	360	2.4	96	1.8	119	4	971.4	NA	0.0000		9999	0	0	0	1310
2019/04/11 15:04:00	BASE	27.82	360	35.65	360	2.3	96	1.8	117	0	971.4	NA	0.0000		9999	15720	0	0	0
2019/04/11 15:05:00	BASE	26.22	355	35.65	360	2.3	97	1.8	118	0	971.5	NA	0.0000		9999	15880	0	0	0
2019/04/11 15:06:00	BASE	26.21	356	35.65	360	2.3	97	1.9	118	1	971.3	NA	0.0000		9999	15680	0	0	0
2019/04/11 15:07:00	BASE	27.79	1	33.44	360	2.2	98	1.9	116	4	971.2	NA	0.0000		9999	0	0	0	1280
2019/04/11 15:08:00	BASE	30.11	358	36.06	14	2.2	98	1.9	113	0	971.1	NA	0.0000		9999	0	0	0	1180
2019/04/11 15:09:00	BASE	30.53	353	36.06	14	2.2	98	1.9	117	0	971.2	NA	0.0000		9999	1710	15290	0	0
2019/04/11 15:10:00	BASE	28.84	358	36.06	14	2.3	98	2.0	117	0	971.2	NA	0.0000		9999	1940	0	0	0
2019/04/11 15:11:01	BASE	29.60	4	36.06	14	2.3	98	2.0	115	0	971.0	NA	0.0000		9999	2400	0	0	0
2019/04/11 15:12:01	BASE	31.63	5	36.06	14	2.3	98	2.0	112	0	970.9	NA	0.0000		9999	1900	0	0	0
2019/04/11 15:13:01	BASE	31.62	6	36.63	7	2.3	98	2.0	107	0	971.0	NA	0.0000		9999	15420	0	0	0
2019/04/11 15:14:01	BASE	31.68	6	37.86	12	2.3	98	2.0	105	0	970.8	NA	0.0000		9999	1740	0	0	0
2019/04/11 15:15:01	BASE	33.69	9	40.02	18	2.3	98	2.0	99	0	970.7	NA	0.0000		9999	0	0	0	1740
2019/04/11 15:16:01	BASE	34.03	1	40.02	18	2.3	98	2.0	90	0	970.7	NA	0.0000		9999	15290	0	0	0
2019/04/11 15:17:01	BASE	32.23	353	40.02	18	2.3	98	2.0	81	0	970.8	NA	0.0000		9999	3940	0	0	0
2019/04/11 15:18:01	BASE	30.95	359	40.02	18	2.3	98	2.0	80	0	970.8	NA	0.0000		9999	2660	0	0	0
2019/04/11 15:19:01	BASE	30.43	4	40.02	18	2.3	98	2.0	81	0	970.8	NA	0.0000		9999	3610	0	0	0
2019/04/11 15:20:01	BASE	31.58	3	40.02	18	2.3	98	2.0	79	0	970.7	NA	0.0000		9999	1740	4430	0	0
2019/04/11 15:21:01	BASE	30.31	3	40.02	18	2.3	98	2.0	81	0	971.0	NA	0.0000		9999	1610	0	0	0
2019/04/11 15:22:01	BASE	30.07	2	40.02	18	2.3	98	1.9	81	0	970.6	NA	0.0000		9999	14930	0	0	0
2019/04/11 15:23:01	BASE	31.71	2	40.02	18	2.2	98	2.0	83	0	970.7	NA	0.0000		9999	2430	14900	0	0
2019/04/11 15:24:01	BASE	31.18	5	40.02	18	2.2	98	2.0	84	0	970.7	NA	0.0000		9999	14900	0	0	0
2019/04/11 15:25:01	BASE	30.92	5	38.99	360	2.2	99	2.0	79	0	970.7	NA	0.0000		9999	14730	0	0	0
2019/04/11 15:26:01	BASE	29.53	1	38.79	9	2.2	99	2.0	72	0	970.8	NA	0.0000		9999	2400	0	0	0
2019/04/11 15:27:01	BASE	29.77	0	38.79	9	2.2	99	2.1	61	0	970.6	NA	0.0000		9999	2720	3450	0	0
2019/04/11 15:28:01	BASE	29.77	2	38.79	9	2.2	100	2.1	51	0	970.7	NA	0.0000		9999	2300	0	0	0
2019/04/11 15:29:01	BASE	29.08	2	38.79	9	2.1	100	2.1	46	0	970.7	NA	0.0000		9999	2030	0	0	0
2019/04/11 15:30:01	BASE	28.80	6	38.79	9	2.1	100	2.1	51	0	970.6	NA	0.0000		9999	2030	0	0	0
2019/04/11 15:31:01	BASE	28.67	5	38.79	9	2.1	100	2.1	45	0	970.5	NA	0.0000		9999	2000	0	0	0
2019/04/11 15:32:01	BASE	29.24	3	36.53	16	2.1	100	2.1	46	0	970.5	NA	0.0000		9999	1710	0	0	0
2019/04/11 15:33:01	BASE	31.03	4	36.53	16	2.1	100	2.1	54	0	970.3	NA	0.0000		9999	2070	0	0	0
2019/04/11 15:34:01	BASE	32.79	1	37.71	5	2.1	100	2.1	50	0	970.3	NA	0.0000		9999	1710	2590	0	0
2019/04/11 15:35:01	BASE	29.72	358	37.71	5	2.1	100	2.1	42	0	970.6	NA	0.0000		9999	1770	3540	0	0
2019/04/11 15:36:01	BASE	26.39	355	37.71	5	2.1	100	2.1	41	0	970.5	NA	0.0000		9999	1740	0	0	0
2019/04/11 15:37:01	BASE	27.09	358	37.71	5	2.1	100	2.1	47	0	970.4	NA	0.0000		9999	1740	2490	0	0
2019/04/11 15:38:01	BASE	28.92	3	37.71	5	2.1	100	2.1	43	0	970.3	NA	0.0000		9999	2100	0	0	0
2019/04/11 15:39:01	BASE	30.70	4	37.71	5	2.1	100	2.1	43	0	970.2	NA	0.0000		9999	2330	0	0	0
2019/04/11 15:40:01	BASE	30.47	1	37.71	5	2.1	100	2.1	40	0	970.2	NA	0.0000		9999	1770	2560	0	0
2019/04/11 15:41:01	BASE	29.40	3	37.71	5	2.1	100	2.1	30	0	970.2	NA	0.0000		9999	1900	0	0	0
2019/04/11 15:42:01	BASE	29.42	6	37.71	5	2.1	100	2.1	34	0	970.2	NA	0.0000		9999	1480	0	0	0
2019/04/11 15:43:01	BASE	31.09	5	37.71	5	2.1	100	2.1	32	0	969.9	NA	0.0000		9999	1710	0	0	0
2019/04/11 15:44:01	BASE	31.90	5	36.68	353	2.1	100	2.1	42	0	970.1	NA	0.0000		9999	1540	2430	0	0
2019/04/11 15:45:01	BASE	31.58	2	39.56	7	2.1	100	2.1	45	0	969.9	NA	0.0000		9999	1710	2720	0	0
2019/04/11 15:46:01	BASE	31.08	356	39.56	7	2.1	100	2.1	55	0	969.9	NA	0.0000		9999	1510	2300	0	0
2019/04/11 15:47:01	BASE	29.34	354	39.56	7	2.1	100	2.1	53	0	970.0	NA	0.0000		9999	2200	20670	0	0
2019/04/11 15:48:01	BASE	29.05	359	39.56	7	2.1	100	2.1	49	0	969.9	NA	0.0000		9999	2100	0	0	0
2019/04/11 15:49:01	BASE	28.38	1	39.56	7	2.1	100	2.1	45	0	969.9	NA	0.0000		9999	1940	0	0	0
2019/04/11 15:50:01	BASE	28.37	3	39.56	7	2.1	100	2.1	49	0	969.8	NA	0.0000		9999	2000	0	0	0
2019/04/11 15:51:01	BASE	29.26	4	39.56	7	2.1	100	2.1	44	0	969.8	NA	0.0000		9999	1940	0	0	0
2019/04/11 15:52:01	BASE	29.73	5	39.56	7	2.1	100	2.1	40	0	969.7	NA	0.0000		9999	1940	0	0	0
2019/04/11 15:53:00	BASE	32.11	1	39.56	7	2.1	100	2.1	40	0	969.5	NA	0.0000		9999	1540	2200	0	0
2019/04/11 15:54:00	BASE	34.74	359	39.56	7	2.1	100	2.1	37	0	969.3	NA	0.0000		9999	2100	0	0	0
2019/04/11 15:55:01	BASE	34.69	2	38.43	10	2.1	100	2.1	37	0	969.3	NA	0.0000		9999	2030	0	0	0
2019/04/11 15:56:01	BASE	32.52	359	38.43	10	2.1	100	2.1	35	0	969.4	NA	0.0000		9999	0	0	0	2720
2019/04/11 15:57:01	BASE	34.11	4	41.41	8	2.1	100	2.1	35	0	969.1	NA	0.0000		9999	0	0	0	2490
2019/04/11 15:58:00	BASE	37.38	7	42.44	3	2.1	100	2.1	37	0	968.9	NA	0.0000		9999	0	0	0	2790
2019/04/11 15:59:00	BASE	35.34	6	42.44	3	2.1	100	2.1	39	0	969.1	NA	0.0000		9999	1870	0	0	0
2019/04/11 16:00:01	BASE	35.61	7	42.44	3	2.1	100	2.1	41	0	968.9	NA	0.0000	UP	9000	0	0	0	2590
2019/04/11 16:01:01	BASE	36.46	6	42.44	3	2.1	100	2.1	39	0	968.9	NA	0.0000	UP	9000	1800	0	0	0
2019/04/11 16:02:01	BASE	34.73	2	42.44	3	2.1	100	2.1	37	0	968.9	NA	0.0000	UP	9000	0	0	0	2890
2019/04/11 16:03:01	BASE	35.25	4	42.44	3	2.0	100	2.0	35	0	968.8	NA	0.0000	UP	9000	2130	0	0	0
2019/04/11 16:04:01	BASE	35.76	8	42.44	3	2.0	100	2.0	34	0	968.7	NA	0.0000	UP	9000	0	0	0	2590
2019/04/11 16:05:01	BASE	34.91	5	42.44	3	2.0	100	2.0	23	0	968.8	NA	0.0000	UP	7000	0	0	0	3580
2019/04/11 16:06:01	BASE	33.62	5	42.44	3	2.0	100	2.0	22	0	968.9	NA	0.0000	UP BR	5000	300	0	0	0
2019/04/11 16:07:01	BASE	33.98	7	42.44	3	1.9	100	1.9	22	0	968.7	NA	0.0000	UP BR	4400	0	0	0	2300
2019/04/11 16:08:01	BASE	34.04	6	42.13	13	1.9	100	1.9	23	0	968.7	NA	0.0000	-SN BR	3800	0	0	0	1970
2019/04/11 16:09:01	BASE	33.93	6	42.13	13	1.8	100	1.8	25	0	968.6	NA	0.0000	-SN BR	3100	0	0	0	1970
2019/04/11 16:10:01	BASE	34.75	5	40.13	11	1.8	100	1.8	25	0	968.5	NA	0.0000	-SN BR	2500	0	0	0	2130
2019/04/11 16:11:01	BASE	34.30	6	40.13	11	1.7	100	1.7	23	0	968.6	NA	0.0000	-SN BR	2400	260	0	0	0
2019/04/11 16:12:01	BASE	33.67	6	40.13	11	1.7	100	1.7	22	0	968.5	NA	0.0000	-SN BR	3300	330	0	0	0
2019/04/11 16:13:01	BASE	34.60	5	38.94	7	1.6	100	1.6	23	0	968.4	NA	0.0000	-SN BR	4700	300	0	0	0
2019/04/11 16:14:01	BASE	34.18	5	38.94	7	1.6	100	1.6	22	0	968.5	NA	0.0000	-SN BR	4100	260	0	0	0
2019/04/11 16:15:01	BASE	34.36	5	40.33	1	1.6	100	1.6	20	0	968.3	NA	0.0000	-SN BR	2800	300	0	0	0
2019/04/11 16:16:01	BASE	37.26	7	42.24	4	1.5	100	1.5	19	0	968.0	NA	0.0000	-SN BR	2000	330	0	0	0
2019/04/11 16:17:01	BASE	38.09	8	42.24	4	1.5	100	1.5	21	0	968.1	NA	0.2540	-SN BR	1900	300	0	0	0
2019/04/11 16:18:01	BASE	37.49	8	42.54	8	1.5	100	1.5	21	0	967.9	NA	0.0000	-SN BR	2100	300	0	0	0
2019/04/11 16:19:01	BASE	37.69	6	42.54	8	1.5	100	1.5	19	0	967.9	NA	0.0000	-SN BR	2300	300	0	0	0
2019/04/11 16:20:01	BASE	38.09	6	42.54	8	1.5	100	1.5	18	0	967.8	NA	0.0000	-SN BR	2300	230	0	0	0
2019/04/11 16:21:01	BASE	36.56	6	42.54	8	1.5	100	1.5	20	0	968.0	NA	0.0000	-SN BR	2000	300	0	0	0
2019/04/11 16:22:01	BASE	34.61	3	42.54	8	1.5	100	1.5	22	0	968.0	NA	0.0000	-SN BR	2000	260	0	0	0
2019/04/11 16:23:01	BASE	34.50	2	42.54	8	1.5	100	1.5	24	0	968.0	NA	0.0000	-SN BR	2000	0	0	0	1050
2019/04/11 16:24:01	BASE	34.65	4	42.54	8	1.4	100	1.4	24	0	968.0	NA	0.0000	-SN BR	1300	0	0	0	1310
2019/04/11 16:25:01	BASE	35.49	4	42.54	8	1.4	100	1.4	26	0	967.7	NA	0.0000	-SN BR	1400	0	0	0	1710
2019/04/11 16:26:01	BASE	35.76	3	42.54	8	1.4	100	1.4	27	0	967.7	NA	0.0000	-SN BR	2100	0	0	0	1770
2019/04/11 16:27:01	BASE	35.34	3	42.54	8	1.3	100	1.3	29	0	967.7	NA	0.0000	-SN BR	2000	230	0	0	0
2019/04/11 16:28:01	BASE	36.23	2	42.39	1	1.3	100	1.3	27	0	967.5	NA	0.2540	-SN BR	2000	300	0	0	0
2019/04/11 16:29:01	BASE	35.71	2	41.93	6	1.3	100	1.3	29	0	967.6	NA	0.0000	-SN BR	3400	300	0	0	0
2019/04/11 16:30:01	BASE	33.99	2	41.93	6	1.3	100	1.3	35	0	967.6	NA	0.0000	-SN BR	5000	260	0	0	0
2019/04/11 16:31:01	BASE	33.92	2	41.93	6	1.3	100	1.3	41	0	967.5	NA	0.0000	-SN BR	3300	230	0	0	0
2019/04/11 16:32:01	BASE	36.20	2	42.29	2	1.3	100	1.3	36	0	967.2	NA	0.0000	-SN BR	3100	0	0	0	1800
2019/04/11 16:33:01	BASE	36.36	2	42.29	2	1.3	100	1.3	32	0	967.4	NA	0.0000	-SN BR	2600	0	0	0	1610
2019/04/11 16:34:01	BASE	34.97	359	42.29	2	1.3	100	1.3	36	0	967.4	NA	0.0000	-SN BR	2100	0	0	0	1250
2019/04/11 16:35:01	BASE	36.36	1	42.29	2	1.3	100	1.3	42	0	967.3	NA	0.0000	-SN BR	2200	0	0	0	1410
2019/04/11 16:36:01	BASE	36.37	358	42.29	2	1.3	100	1.3	56	0	967.4	NA	0.0000	-SN BR	2300	0	0	0	1870
2019/04/11 16:37:01	BASE	37.12	353	42.49	348	1.3	100	1.3	64	0	967.1	NA	0.0000	-SN BR	2300	330	0	0	0
2019/04/11 16:38:01	BASE	36.92	353	42.49	348	1.3	100	1.3	62	0	967.3	NA	0.0000	-SN BR	3200	390	0	0	0
2019/04/11 16:39:01	BASE	35.93	356	42.49	348	1.3	100	1.3	76	0	967.3	NA	0.0000	-SN BR	5000	330	0	0	0
2019/04/11 16:40:01	BASE	36.65	356	42.49	348	1.3	100	1.3	84	0	967.3	NA	0.0000	-SN BR	5000	360	0	0	0
2019/04/11 16:41:01	BASE	39.37	355	48.82	345	1.3	100	1.3	78	0	966.8	NA	0.2540	-SN BR	5000	0	0	0	1970
2019/04/11 16:42:01	BASE	39.68	1	48.82	345	1.3	100	1.3	75	0	967.2	NA	0.0000	-SN BR	5000	0	0	0	2000
2019/04/11 16:43:01	BASE	38.93	359	48.82	345	1.3	100	1.3	90	0	966.9	NA	0.0000	-SN BR	5000	330	0	0	0
2019/04/11 16:44:01	BASE	39.82	358	48.82	345	1.3	100	1.3	67	0	967.1	NA	0.0000	-SN BR	6000	360	0	0	0
2019/04/11 16:45:01	BASE	40.03	356	48.82	345	1.3	100	1.3	65	0	966.9	NA	0.0000	-SN BR	6000	360	0	0	0
2019/04/11 16:46:01	BASE	41.27	352	48.82	345	1.3	100	1.3	66	0	966.9	NA	0.0000	-SN BR	6000	390	0	0	0
2019/04/11 16:47:01	BASE	41.06	352	48.82	345	1.3	100	1.3	55	0	967.0	NA	0.0000	-SN BR	9000	390	0	0	0
2019/04/11 16:48:01	BASE	43.25	349	53.30	344	1.3	100	1.3	39	0	966.6	NA	0.0000	-SN BR	9000	330	0	0	0
2019/04/11 16:49:01	BASE	42.68	350	53.30	344	1.3	100	1.3	33	0	967.2	NA	0.0000	-SN BR	8000	330	0	0	0
2019/04/11 16:50:01	BASE	37.86	354	53.30	344	1.3	100	1.3	38	0	967.3	NA	0.0000	-SN BR	9999	300	0	0	0
2019/04/11 16:51:01	BASE	36.81	354	53.30	344	1.3	100	1.3	44	0	967.3	NA	0.0000	-SN BR	9999	360	0	0	0
2019/04/11 16:52:01	BASE	37.10	355	53.30	344	1.2	100	1.2	43	0	967.4	NA	0.0000	-SN BR	9999	330	1440	0	0
2019/04/11 16:53:01	BASE	36.26	355	53.30	344	1.2	100	1.2	46	0	967.4	NA	0.0000	-SN BR	9999	330	0	0	0
2019/04/11 16:54:01	BASE	35.70	353	53.30	344	1.2	100	1.2	40	0	967.4	NA	0.0000	-SN BR	9999	330	0	0	0
2019/04/11 16:55:01	BASE	37.90	351	53.30	344	1.2	100	1.2	31	0	967.3	NA	0.0000	-SN	9999	230	0	0	0
2019/04/11 16:56:01	BASE	38.13	354	53.30	344	1.2	100	1.2	30	0	967.3	NA	0.0000	-SN	7000	0	0	0	1080
2019/04/11 16:57:01	BASE	37.07	358	53.30	344	1.1	100	1.1	38	0	967.2	NA	0.0000	-SN BR	4300	0	0	0	1840
2019/04/11 16:58:01	BASE	39.03	352	45.73	352	1.1	100	1.1	52	0	967.1	NA	0.0000	-SN BR	5000	0	0	0	1940
2019/04/11 16:59:01	BASE	40.02	351	45.73	352	1.1	100	1.1	54	0	967.1	NA	0.0000	-SN BR	8000	300	0	0	0
2019/04/11 17:00:01	BASE	38.40	351	45.73	352	1.0	100	1.0	57	0	967.2	NA	0.0000	-SN BR	8000	300	23070	0	0
2019/04/11 17:01:01	BASE	38.64	351	45.58	1	1.0	100	1.0	66	0	966.9	NA	0.0000	-SN BR	5000	330	0	0	0
2019/04/11 17:02:01	BASE	39.44	349	45.58	1	1.0	100	1.0	70	0	967.1	NA	0.0000	-SN BR	5000	360	0	0	0
2019/04/11 17:03:01	BASE	38.78	348	45.58	1	1.0	100	1.0	60	0	967.1	NA	0.0000	-SN BR	6000	0	0	0	2820
2019/04/11 17:04:01	BASE	38.59	350	45.58	1	1.0	100	1.0	68	0	967.1	NA	0.0000	-SN BR	7000	390	0	0	0
2019/04/11 17:05:01	BASE	37.30	354	45.58	1	1.0	100	1.0	60	0	967.3	NA	0.0000	-SN BR	9999	360	0	0	0
2019/04/11 17:06:01	BASE	38.19	352	45.58	1	1.0	100	1.0	43	0	967.2	NA	0.0000	-SN BR	9999	390	0	0	0
2019/04/11 17:07:01	BASE	37.53	348	46.09	354	1.0	100	1.0	33	0	967.4	NA	0.0000	-SN BR	9999	360	0	0	0
2019/04/11 17:08:01	BASE	36.88	350	46.09	354	1.0	100	1.0	36	0	967.2	NA	0.0000	-SN BR	9999	230	0	0	0
2019/04/11 17:09:01	BASE	39.92	350	46.09	354	1.0	100	1.0	54	0	967.0	NA	0.0000	-SN BR	9999	0	0	0	1440
2019/04/11 17:10:01	BASE	41.12	349	46.09	354	1.0	100	1.0	61	0	967.0	NA	0.0000	-SN BR	9999	0	0	0	2430
2019/04/11 17:11:01	BASE	39.43	350	46.09	354	1.0	100	1.0	53	0	967.1	NA	0.0000	-SN BR	9999	360	0	0	0
2019/04/11 17:12:01	BASE	38.70	350	46.09	354	1.0	100	1.0	43	0	967.2	NA	0.0000	-SN BR	9999	300	0	0	0
2019/04/11 17:13:01	BASE	37.19	349	46.09	354	1.0	100	1.0	26	0	967.6	NA	0.0000	-SN	9999	0	0	0	1380
2019/04/11 17:14:01	BASE	34.93	349	46.09	354	1.0	100	1.0	21	0	967.5	NA	0.0000	-SN	9999	0	0	0	1080
2019/04/11 17:15:01	BASE	37.18	346	46.09	354	1.0	100	1.0	27	0	967.2	NA	0.2540	-SN BR	5000	0	0	0	1120
2019/04/11 17:16:01	BASE	38.63	346	46.09	354	0.9	100	0.9	41	0	967.2	NA	0.0000	-SN BR	5000	0	0	0	1050
2019/04/11 17:17:01	BASE	36.93	349	44.60	344	0.9	100	0.9	41	0	967.3	NA	0.0000	-SN BR	7000	0	0	0	1210
2019/04/11 17:18:01	BASE	34.16	351	44.60	344	0.9	100	0.9	42	0	967.4	NA	0.0000	-SN BR	8000	0	0	0	1410
2019/04/11 17:19:01	BASE	33.86	350	44.60	344	0.9	100	0.9	38	0	967.3	NA	0.0000	-SN BR	8000	0	0	0	2430
2019/04/11 17:20:01	BASE	35.45	348	44.60	344	0.8	100	0.8	42	0	967.3	NA	0.0000	-SN BR	9999	0	0	0	1870
2019/04/11 17:21:01	BASE	34.55	347	44.60	344	0.8	100	0.8	36	0	967.4	NA	0.0000	-SN BR	9000	260	0	0	0
2019/04/11 17:22:01	BASE	35.67	349	44.60	344	0.8	100	0.8	22	0	967.1	NA	0.0000	-SN BR	8000	0	0	0	2100
2019/04/11 17:23:01	BASE	37.56	349	44.60	344	0.8	100	0.8	19	0	967.2	NA	0.0000	-SN BR	9000	0	0	0	1800
2019/04/11 17:24:01	BASE	36.78	346	44.60	344	0.8	100	0.8	20	0	967.3	NA	0.0000	-SN BR	9999	0	0	0	1250
2019/04/11 17:25:01	BASE	35.51	345	44.60	344	0.8	100	0.8	19	0	967.3	NA	0.0000	-SN BR	9999	0	0	0	1310
2019/04/11 17:26:01	BASE	34.83	344	41.77	349	0.8	100	0.8	25	0	967.2	NA	0.0000	-SN BR	9999	0	0	0	1380
2019/04/11 17:27:01	BASE	34.62	343	41.77	349	0.7	100	0.7	32	0	967.1	NA	0.0000	-SN BR	9999	0	0	0	1800
2019/04/11 17:28:01	BASE	34.85	345	41.77	349	0.7	100	0.7	37	0	967.0	NA	0.0000	-SN BR	9000	260	0	0	0
2019/04/11 17:29:01	BASE	34.49	346	41.77	349	0.7	100	0.7	34	0	967.2	NA	0.0000	-SN BR	9999	330	0	0	0
2019/04/11 17:30:01	BASE	35.03	345	41.77	349	0.7	100	0.7	35	0	966.9	NA	0.0000	-SN BR	9999	360	0	0	0
2019/04/11 17:31:01	BASE	34.53	345	41.77	349	0.8	100	0.8	34	0	967.2	NA	0.0000	-SN	9999	360	0	0	0
2019/04/11 17:32:01	BASE	32.17	343	41.67	348	0.8	100	0.8	40	0	967.4	NA	0.0000	-SN	9999	300	0	0	0
2019/04/11 17:33:01	BASE	33.78	336	41.00	336	0.8	100	0.8	40	0	967.1	NA	0.0000	-SN	9999	330	0	0	0
2019/04/11 17:34:01	BASE	34.31	338	41.00	336	0.8	100	0.8	39	0	967.3	NA	0.0000	-SN	9999	330	0	0	0
2019/04/11 17:35:01	BASE	32.53	343	41.00	336	0.8	100	0.8	33	0	967.3	NA	0.0000	-SN	9999	300	0	0	0
2019/04/11 17:36:01	BASE	33.44	344	39.10	344	0.8	100	0.8	29	0	967.1	NA	0.0000	-SN	9999	330	0	0	0
2019/04/11 17:37:00	BASE	33.84	344	39.10	344	0.8	100	0.8	26	0	967.4	NA	0.0000	-SN	9999	360	0	0	0
2019/04/11 17:38:00	BASE	34.48	342	39.35	335	0.8	100	0.8	26	0	967.2	NA	0.0000	-SN	9999	260	0	0	0
2019/04/11 17:39:00	BASE	35.52	339	39.35	335	0.8	100	0.8	29	0	967.2	NA	0.0000	-SN	9999	360	0	0	0
2019/04/11 17:40:00	BASE	35.35	337	39.35	335	0.8	100	0.8	37	0	967.2	NA	0.0000	-SN	9999	360	0	0	0
2019/04/11 17:41:00	BASE	36.53	337	41.46	341	0.8	100	0.8	44	0	967.1	NA	0.0000	-SN	9999	1350	0	0	0
2019/04/11 17:42:00	BASE	36.83	337	41.52	336	0.8	100	0.8	44	0	967.2	NA	0.0000	-SN	9999	1050	0	0	0
2019/04/11 17:43:00	BASE	37.49	337	44.91	343	0.9	100	0.9	50	0	967.1	NA	0.0000	-SN	9999	980	0	0	0
2019/04/11 17:44:01	BASE	38.08	338	44.91	343	0.9	100	0.9	50	0	967.2	NA	0.0000	-SN	9999	1020	0	0	0
2019/04/11 17:45:01	BASE	36.64	339	44.91	343	0.9	100	0.9	44	0	967.4	NA	0.0000	-SN	9999	1120	0	0	0
2019/04/11 17:46:01	BASE	36.56	339	44.91	343	0.9	100	0.9	48	0	967.1	NA	0.0000		9999	520	0	0	0
2019/04/11 17:47:00	BASE	37.60	339	44.91	343	0.9	100	0.9	56	0	967.1	NA	0.0000		9999	1180	0	0	0
2019/04/11 17:48:00	BASE	37.40	338	44.91	343	0.9	100	0.9	57	0	967.3	NA	0.0000		9999	920	0	0	0
2019/04/11 17:49:00	BASE	34.46	339	44.91	343	0.9	100	0.9	74	0	967.6	NA	0.0000		9999	460	0	0	0
2019/04/11 17:50:00	BASE	34.66	340	44.91	343	0.9	100	0.9	71	0	967.4	NA	0.0000		9999	660	0	0	0
2019/04/11 17:51:00	BASE	37.69	339	44.91	343	0.9	100	0.9	60	0	967.2	NA	0.0000		7000	430	0	0	0
2019/04/11 17:52:00	BASE	35.60	338	44.91	343	0.9	100	0.9	65	0	967.8	NA	0.0000		8000	360	1640	0	0
2019/04/11 17:53:00	BASE	35.02	338	43.47	338	0.9	100	0.9	70	0	967.5	NA	0.0000		9999	1410	0	0	0
2019/04/11 17:54:01	BASE	35.17	339	43.26	343	0.9	100	0.9	71	0	967.9	NA	0.0000		9999	980	0	0	0
2019/04/11 17:55:00	BASE	33.50	338	43.26	343	0.9	100	0.9	55	0	967.9	NA	0.0000		9999	980	0	0	0
2019/04/11 17:56:01	BASE	33.38	334	43.26	343	0.9	100	0.9	51	0	968.1	NA	0.0000		9999	460	0	0	0
2019/04/11 17:57:00	BASE	33.54	331	41.00	329	0.9	100	0.9	56	0	968.0	NA	0.0000		9999	0	0	0	1350
2019/04/11 17:58:00	BASE	34.14	331	41.00	329	0.9	100	0.9	48	0	968.0	NA	0.0000		9999	330	0	0	0
2019/04/11 17:59:00	BASE	33.23	331	41.00	329	0.9	100	0.9	46	0	968.2	NA	0.0000		9999	390	0	0	0
2019/04/11 18:00:00	BASE	31.30	336	41.00	329	0.9	100	0.9	51	0	968.2	NA	0.0000		9999	430	0	0	0
2019/04/11 18:01:01	BASE	30.79	339	40.85	340	0.9	100	0.9	56	0	968.1	NA	0.0000		9999	360	0	0	0
2019/04/11 18:02:00	BASE	31.99	339	40.85	340	0.9	100	0.9	55	0	968.0	NA	0.0000		9999	360	0	0	0
2019/04/11 18:03:00	BASE	33.14	338	38.79	340	0.9	100	0.9	37	0	968.1	NA	0.0000		9999	750	0	0	0
2019/04/11 18:04:00	BASE	32.43	336	38.79	340	0.9	100	0.9	33	0	968.2	NA	0.0000		9999	390	0	0	0
2019/04/11 18:05:01	BASE	30.73	336	37.71	337	0.9	100	0.9	30	0	968.4	NA	0.0000		9999	430	0	0	0
2019/04/11 18:06:01	BASE	31.79	335	37.71	337	0.9	100	0.9	29	0	968.2	NA	0.0000		9999	620	0	0	0
2019/04/11 18:07:01	BASE	33.80	336	37.71	337	0.9	100	0.9	38	0	968.2	NA	0.0000		9999	620	0	0	0
2019/04/11 18:08:01	BASE	34.19	339	37.71	337	0.9	100	0.9	48	0	968.3	NA	0.0000		9999	660	0	0	0
2019/04/11 18:09:01	BASE	33.36	338	37.71	337	0.9	100	0.9	44	0	968.4	NA	0.0000		9999	790	0	0	0
2019/04/11 18:10:01	BASE	33.24	334	37.71	337	0.9	100	0.9	44	0	968.5	NA	0.0000		9999	750	0	0	0
2019/04/11 18:11:01	BASE	34.30	331	37.97	327	0.9	100	0.9	45	0	968.4	NA	0.0000		9999	750	0	0	0
2019/04/11 18:12:01	BASE	34.03	332	37.97	327	0.9	100	0.9	42	0	968.6	NA	0.0000		9999	720	0	0	0
2019/04/11 18:13:01	BASE	33.42	333	37.97	327	0.9	100	0.9	43	0	968.7	NA	0.0000		9999	690	0	0	0
2019/04/11 18:14:01	BASE	33.49	332	37.97	327	0.9	100	0.9	47	0	968.7	NA	0.0000		9999	690	0	0	0
2019/04/11 18:15:01	BASE	33.16	332	37.97	327	0.9	100	0.9	44	0	968.8	NA	0.0000		9999	660	0	0	0
2019/04/11 18:16:01	BASE	32.99	332	37.97	327	0.9	100	0.9	43	0	969.0	NA	0.0000		9999	520	0	0	0
2019/04/11 18:17:01	BASE	33.57	331	37.97	327	0.9	100	0.9	39	0	969.0	NA	0.0000		9999	430	0	0	0
2019/04/11 18:18:01	BASE	31.82	332	37.97	327	0.9	100	0.9	42	0	969.2	NA	0.0000		9999	390	0	0	0
2019/04/11 18:19:01	BASE	30.38	333	37.97	327	0.9	100	0.9	41	0	969.2	NA	0.0000		9999	330	0	0	0
2019/04/11 18:20:01	BASE	31.49	331	37.97	327	0.9	100	0.9	51	0	969.3	NA	0.0000		9999	690	1210	0	0
2019/04/11 18:21:00	BASE	31.44	330	37.71	330	0.9	100	0.9	39	0	969.4	NA	0.0000		9999	1050	0	0	0
2019/04/11 18:22:01	BASE	31.50	330	37.71	330	0.9	100	0.9	37	0	969.4	NA	0.0000		9999	850	0	0	0
2019/04/11 18:23:01	BASE	30.38	329	37.71	330	0.9	100	0.9	40	0	969.6	NA	0.0000		9999	690	0	0	0
2019/04/11 18:24:00	BASE	29.70	326	37.71	330	0.9	100	0.9	42	0	969.6	NA	0.0000		9999	430	0	0	0
2019/04/11 18:25:01	BASE	28.46	323	37.71	330	0.9	100	0.9	50	0	969.8	NA	0.0000		7000	790	0	0	0
2019/04/11 18:26:01	BASE	26.14	322	37.45	330	0.9	100	0.9	42	0	969.8	NA	0.0000		9000	690	0	0	0
2019/04/11 18:27:01	BASE	25.76	325	37.40	328	0.9	100	0.9	29	0	969.8	NA	0.0000		9999	390	0	0	0
2019/04/11 18:28:01	BASE	25.48	325	37.40	328	0.9	100	0.9	27	0	969.9	NA	0.0000		9999	390	0	0	0
2019/04/11 18:29:01	BASE	25.33	325	37.40	328	0.9	100	0.9	28	0	969.9	NA	0.0000	-SN	9999	390	0	0	0
2019/04/11 18:30:01	BASE	25.16	327	35.03	326	0.9	100	0.9	24	0	969.9	NA	0.0000	-SN	9999	720	0	0	0
2019/04/11 18:31:01	BASE	23.73	326	35.03	326	0.9	100	0.9	23	0	970.1	NA	0.0000	-SN	9999	620	0	0	0
2019/04/11 18:32:01	BASE	23.66	324	34.57	318	0.9	100	0.9	30	0	970.0	NA	0.0000	-SN	9999	430	0	0	0
2019/04/11 18:33:01	BASE	25.50	324	34.57	318	0.9	100	0.9	35	0	970.0	NA	0.0000	-SN	9999	720	0	0	0
2019/04/11 18:34:01	BASE	28.45	325	33.44	320	0.9	100	0.9	44	0	969.9	NA	0.0000	-SN	9999	820	0	0	0
2019/04/11 18:35:01	BASE	29.87	323	33.44	320	0.9	100	0.9	41	0	969.9	NA	0.0000	-SN	9999	890	0	0	0
2019/04/11 18:36:01	BASE	29.77	323	33.44	320	0.9	100	0.9	29	0	969.9	NA	0.0000	-SN	9999	920	0	0	0
2019/04/11 18:37:00	BASE	30.08	324	33.90	317	0.9	100	0.9	29	0	970.0	NA	0.0000	-SN	9999	980	0	0	0
2019/04/11 18:38:00	BASE	29.29	323	33.90	317	0.9	100	0.9	31	0	970.0	NA	0.0000	-SN	9999	690	0	0	0
2019/04/11 18:39:00	BASE	28.48	322	33.90	317	0.9	100	0.9	24	0	970.1	NA	0.0000	-SN	9999	430	0	0	0
2019/04/11 18:40:00	BASE	28.44	320	33.90	317	0.9	100	0.9	23	0	970.1	NA	0.0000	-SN	9999	950	0	0	0
2019/04/11 18:41:00	BASE	28.54	318	33.90	317	0.9	100	0.9	21	0	970.3	NA	0.0000	-SN	9999	980	0	0	0
2019/04/11 18:42:00	BASE	28.93	317	36.17	324	0.9	100	0.9	24	0	970.3	NA	0.0000	-SN	9999	460	0	0	0
2019/04/11 18:43:00	BASE	30.95	316	36.17	324	0.9	100	0.9	22	0	970.2	NA	0.0000		9999	950	0	0	0
2019/04/11 18:44:00	BASE	31.99	313	36.17	324	0.9	100	0.9	28	0	970.3	NA	0.0000		9999	390	0	0	0
2019/04/11 18:45:00	BASE	29.17	309	36.17	324	0.9	100	0.9	34	0	970.6	NA	0.0000		9999	390	0	0	0
2019/04/11 18:46:00	BASE	27.99	308	36.42	307	0.9	100	0.9	43	0	970.6	NA	0.0000		9999	660	0	0	0
2019/04/11 18:47:00	BASE	29.55	305	36.42	307	0.9	100	0.9	33	0	970.7	NA	0.0000		9999	1570	0	0	0
2019/04/11 18:48:01	BASE	29.40	304	36.42	307	0.9	100	0.9	33	0	970.7	NA	0.0000		9999	1310	0	0	0
2019/04/11 18:49:00	BASE	28.98	307	36.42	307	0.8	100	0.8	33	0	970.7	NA	0.0000		9999	1310	0	0	0
2019/04/11 18:50:00	BASE	28.51	305	36.42	307	0.8	100	0.8	27	0	970.9	NA	0.0000		9999	1540	0	0	0
2019/04/11 18:51:00	BASE	27.09	304	36.42	307	0.8	100	0.8	25	0	970.9	NA	0.0000		9999	1540	0	0	0
2019/04/11 18:52:00	BASE	26.52	306	36.42	307	0.8	100	0.8	30	0	971.0	NA	0.0000		9999	1670	0	0	0
2019/04/11 18:53:00	BASE	25.62	308	36.42	307	0.8	100	0.8	39	0	971.0	NA	0.0000		9999	1350	0	0	0
2019/04/11 18:54:00	BASE	23.66	309	36.42	307	0.8	100	0.8	39	0	971.1	NA	0.0000		9999	1350	2170	0	0
2019/04/11 18:55:00	BASE	24.72	308	36.42	307	0.9	100	0.9	43	0	971.1	NA	0.0000		9999	1380	2070	0	0
2019/04/11 18:56:00	BASE	26.41	309	32.56	299	0.9	100	0.9	42	0	971.0	NA	0.0000		9999	2070	0	0	0
2019/04/11 18:57:00	BASE	27.29	310	32.36	307	0.9	100	0.9	40	0	971.0	NA	0.0000		9999	2000	0	0	0
2019/04/11 18:58:00	BASE	26.75	310	32.36	307	0.9	100	0.9	48	0	971.1	NA	0.0000		9999	1640	0	0	0
2019/04/11 18:59:00	BASE	25.66	312	31.43	303	0.9	100	0.9	57	0	971.1	NA	0.0000		9999	1770	2300	0	0
2019/04/11 19:00:00	BASE	27.17	312	31.74	311	0.9	100	0.9	64	0	971.1	NA	0.0000		9999	1770	0	0	0
2019/04/11 19:01:00	BASE	28.50	309	31.74	311	0.9	100	0.9	55	0	971.1	NA	0.0000		9999	1900	0	0	0
2019/04/11 19:02:00	BASE	28.26	308	31.74	311	0.9	100	0.9	52	0	971.2	NA	0.0000		9999	1710	2400	0	0
2019/04/11 19:03:00	BASE	28.18	306	31.74	311	0.9	100	0.9	53	0	971.3	NA	0.0000		9999	1840	2530	0	0
2019/04/11 19:04:00	BASE	28.31	304	33.18	307	0.9	100	0.9	54	0	971.3	NA	0.0000		9999	1770	2590	0	0
2019/04/11 19:05:01	BASE	27.65	306	33.18	307	0.9	100	0.9	49	0	971.4	NA	0.0000		9999	1970	2620	0	0
2019/04/11 19:06:00	BASE	26.62	308	33.18	307	1.0	100	1.0	52	0	971.4	NA	0.0000		9999	1800	0	0	0
2019/04/11 19:07:00	BASE	26.08	308	33.18	307	1.0	100	1.0	61	0	971.5	NA	0.0000		9999	2330	0	0	0
2019/04/11 19:08:00	BASE	26.86	308	33.18	307	1.0	100	1.0	54	0	971.4	NA	0.0000		9999	2070	2720	0	0
2019/04/11 19:09:00	BASE	28.09	307	33.18	307	1.0	100	1.0	39	0	971.4	NA	0.0000		9999	1800	2260	0	0
2019/04/11 19:10:01	BASE	26.07	307	33.18	307	1.1	100	1.1	29	0	971.6	NA	0.0000		9999	1940	2590	0	0
2019/04/11 19:11:00	BASE	24.00	307	33.18	307	1.1	100	1.1	26	0	971.7	NA	0.0000		9999	1540	0	0	0
2019/04/11 19:12:01	BASE	23.30	310	33.18	307	1.1	100	1.1	23	0	971.7	NA	0.0000		9999	1800	2620	0	0
2019/04/11 19:13:01	BASE	22.10	313	33.18	307	1.1	100	1.1	23	0	971.7	NA	0.0000		9999	1640	0	0	0
2019/04/11 19:14:00	BASE	22.15	315	32.20	298	1.1	100	1.1	18	0	971.7	NA	0.0000		9000	1540	0	0	0
2019/04/11 19:15:00	BASE	22.85	315	31.38	300	1.1	100	1.1	20	0	971.7	NA	0.0000		9000	1440	0	0	0
2019/04/11 19:16:00	BASE	24.46	317	31.38	300	1.1	100	1.1	21	0	971.7	NA	0.0000		9999	1410	2430	0	0
2019/04/11 19:17:01	BASE	25.51	319	31.38	300	1.1	100	1.1	18	0	971.7	NA	0.0000		9999	1710	2760	0	0
2019/04/11 19:18:00	BASE	24.77	321	30.40	307	1.1	100	1.1	15	0	971.7	NA	0.0000		9999	1640	0	0	0
2019/04/11 19:19:00	BASE	23.69	321	28.24	318	1.1	100	1.1	12	0	971.8	NA	0.0000		9999	1410	3280	0	0
2019/04/11 19:20:00	BASE	24.73	321	29.17	316	1.1	100	1.1	11	0	971.7	NA	0.0000		9999	1510	0	0	0
2019/04/11 19:21:00	BASE	25.58	321	29.17	316	1.2	100	1.2	11	0	971.8	NA	0.0000	BR	9000	1440	2720	0	0
2019/04/11 19:22:00	BASE	23.87	323	29.17	316	1.2	100	1.2	10	0	971.9	NA	0.0000	BR	9000	1970	2720	0	0
2019/04/11 19:23:00	BASE	24.15	325	29.17	316	1.2	100	1.2	8	0	971.8	NA	0.0000	BR	9000	2030	2990	0	0
2019/04/11 19:24:00	BASE	24.05	323	29.17	316	1.2	100	1.2	9	0	971.9	NA	0.0000	BR	9000	1180	2230	0	0
2019/04/11 19:25:00	BASE	23.26	323	29.17	316	1.2	100	1.2	12	0	971.9	NA	0.0000	BR	8000	1020	0	0	0
2019/04/11 19:26:00	BASE	23.67	324	29.17	316	1.2	100	1.2	14	0	971.9	NA	0.0000	BR	8000	1050	0	0	0
2019/04/11 19:27:00	BASE	23.52	323	29.17	316	1.2	100	1.2	24	0	972.0	NA	0.0000	BR	9000	1020	0	0	0
2019/04/11 19:28:00	BASE	24.67	323	29.48	322	1.1	100	1.1	27	0	971.9	NA	0.0000	BR	9000	1120	0	0	0
2019/04/11 19:29:00	BASE	25.65	322	29.48	322	1.1	100	1.1	28	0	972.0	NA	0.0000	BR	9000	1020	0	0	0
2019/04/11 19:30:01	BASE	26.24	321	31.90	324	1.2	100	1.2	33	0	972.0	NA	0.0000	BR	9000	1280	0	0	0
2019/04/11 19:31:00	BASE	25.03	322	31.90	324	1.1	100	1.1	44	0	972.2	NA	0.0000	BR	8000	1280	0	0	0
2019/04/11 19:32:00	BASE	24.99	321	31.90	324	1.1	100	1.1	44	0	972.1	NA	0.0000	BR	8000	1410	0	0	0
2019/04/11 19:33:00	BASE	26.85	320	31.90	324	1.1	100	1.1	46	0	972.2	NA	0.0000	BR	8000	1510	0	0	0
2019/04/11 19:34:00	BASE	26.63	320	31.90	324	1.1	100	1.1	44	0	972.2	NA	0.0000	BR	8000	1900	2950	0	0
2019/04/11 19:35:01	BASE	26.76	321	31.90	324	1.1	100	1.1	37	0	972.1	NA	0.0000	BR	8000	1570	2820	0	0
2019/04/11 19:36:00	BASE	26.75	320	31.90	324	1.1	100	1.1	33	0	972.2	NA	0.0000	BR	9000	1800	2430	0	0
2019/04/11 19:37:00	BASE	26.05	320	31.90	324	1.1	100	1.1	32	0	972.3	NA	0.0000	BR	9000	1800	0	0	0
2019/04/11 19:38:00	BASE	25.35	318	31.90	324	1.1	100	1.1	27	0	972.4	NA	0.0000	BR	9000	1800	2660	0	0
2019/04/11 19:39:00	BASE	24.16	317	31.90	324	1.1	100	1.1	24	0	972.4	NA	0.0000	BR	9000	1640	0	0	0
2019/04/11 19:40:00	BASE	23.01	317	30.97	316	1.1	100	1.1	24	0	972.5	NA	0.0000	BR	9000	1480	0	0	0
2019/04/11 19:41:00	BASE	23.27	316	30.97	316	1.1	100	1.1	25	0	972.5	NA	0.0000	BR	9000	1480	2170	0	0
2019/04/11 19:42:00	BASE	22.21	315	30.97	316	1.1	100	1.1	26	0	972.6	NA	0.0000	BR	9000	1640	0	0	0
2019/04/11 19:43:01	BASE	21.26	317	30.97	316	1.1	100	1.1	27	0	972.6	NA	0.0000	BR	9000	1540	0	0	0
2019/04/11 19:44:00	BASE	21.72	319	30.97	316	1.1	100	1.1	25	0	972.6	NA	0.0000	BR	9999	1900	0	0	0
2019/04/11 19:45:00	BASE	22.22	320	29.17	321	1.1	100	1.1	24	0	972.6	NA	0.0000	BR	9999	1740	0	0	0
2019/04/11 19:46:00	BASE	21.66	320	27.27	312	1.1	100	1.1	20	0	972.7	NA	0.0000	BR	9999	1740	2820	0	0
2019/04/11 19:47:00	BASE	20.29	321	27.27	312	1.1	100	1.1	21	0	972.8	NA	0.0000		9999	1440	0	0	0
2019/04/11 19:48:00	BASE	20.79	321	27.27	312	1.1	100	1.1	20	0	972.7	NA	0.0000		9999	1350	0	0	0
2019/04/11 19:49:00	BASE	21.82	321	27.27	312	1.1	100	1.1	21	0	972.7	NA	0.0000		9999	1410	0	0	0
2019/04/11 19:50:00	BASE	21.32	323	25.10	317	1.1	100	1.1	19	0	972.8	NA	0.0000		9999	2660	0	0	0
2019/04/11 19:51:00	BASE	20.21	323	25.10	317	1.1	100	1.1	17	0	972.8	NA	0.0000		9999	1280	2760	0	0
2019/04/11 19:52:00	BASE	19.23	324	25.10	317	1.1	100	1.1	16	0	972.9	NA	0.0000		9999	1210	0	0	0
2019/04/11 19:53:00	BASE	18.11	325	25.10	317	1.1	100	1.1	15	0	972.9	NA	0.0000		9999	1440	2030	0	0
2019/04/11 19:54:00	BASE	17.90	323	25.10	317	1.1	100	1.1	13	0	972.9	NA	0.0000		9999	1640	0	0	0
2019/04/11 19:55:00	BASE	19.30	322	24.74	307	1.1	100	1.1	14	0	972.9	NA	0.0000		9999	1410	0	0	0
2019/04/11 19:56:00	BASE	20.89	324	24.74	307	1.1	100	1.1	14	0	972.9	NA	0.0000		9999	1540	0	0	0
2019/04/11 19:57:00	BASE	21.38	322	24.74	307	1.1	100	1.1	17	0	972.8	NA	0.0000		9999	1570	0	0	0
2019/04/11 19:58:01	BASE	21.07	321	24.28	317	1.1	100	1.1	20	0	972.9	NA	0.0000		9999	1570	2200	0	0
2019/04/11 19:59:00	BASE	20.89	321	23.30	328	1.1	100	1.1	22	0	972.9	NA	0.0000		9999	1870	2490	0	0
2019/04/11 20:00:00	BASE	21.08	320	24.44	309	1.1	100	1.1	24	0	972.9	NA	0.0000		9999	1800	2430	0	0
2019/04/11 20:01:00	BASE	20.78	320	24.44	309	1.1	100	1.1	24	0	972.9	NA	0.0000		9999	1940	0	0	0
2019/04/11 20:02:00	BASE	20.29	321	24.44	309	1.1	100	1.1	25	0	972.9	NA	0.0000		9999	1510	2170	0	0
2019/04/11 20:03:00	BASE	20.45	319	24.44	309	1.1	100	1.1	24	0	973.0	NA	0.0000		9999	2230	0	0	0
2019/04/11 20:04:00	BASE	19.78	319	24.44	309	1.1	100	1.1	22	0	973.0	NA	0.0000		9999	2690	0	0	0
2019/04/11 20:05:00	BASE	18.57	318	24.44	309	1.1	100	1.1	19	0	973.1	NA	0.0000		9999	2660	0	0	0
2019/04/11 20:06:00	BASE	17.70	315	24.44	309	1.1	100	1.1	18	0	973.2	NA	0.0000		9999	1540	2030	0	0
2019/04/11 20:07:00	BASE	17.75	315	24.44	309	1.1	100	1.1	17	0	973.2	NA	0.0000		9999	1640	0	0	0
2019/04/11 20:08:00	BASE	18.11	315	24.44	309	1.1	100	1.1	15	0	973.2	NA	0.0000		9999	1940	0	0	0
2019/04/11 20:09:00	BASE	17.71	316	24.44	309	1.1	100	1.1	15	0	973.2	NA	0.0000		9999	1740	0	0	0
2019/04/11 20:10:00	BASE	18.44	316	22.79	312	1.1	100	1.1	13	0	973.2	NA	0.0000		9999	1480	0	0	0
2019/04/11 20:11:00	BASE	19.42	312	22.79	312	1.1	100	1.1	13	0	973.2	NA	0.0000		9999	1250	0	0	0
2019/04/11 20:12:00	BASE	18.38	312	22.79	312	1.1	100	1.1	14	0	973.3	NA	0.0000		9999	1350	0	0	0
2019/04/11 20:13:00	BASE	18.15	314	21.76	311	1.1	100	1.1	14	0	973.3	NA	0.0000		9999	1210	0	0	0
2019/04/11 20:14:00	BASE	20.33	316	22.94	320	1.1	100	1.1	12	0	973.2	NA	0.0000		9999	1280	0	0	0
2019/04/11 20:15:00	BASE	20.13	316	22.94	320	1.1	100	1.1	12	0	973.3	NA	0.0000		9999	1050	1670	0	0
2019/04/11 20:16:00	BASE	19.87	314	24.02	314	1.1	100	1.1	13	0	973.3	NA	0.0000		9999	1150	0	0	0
2019/04/11 20:17:00	BASE	20.64	314	24.02	314	1.1	100	1.1	14	0	973.3	NA	0.0000		9999	1510	0	0	0
2019/04/11 20:18:00	BASE	19.80	315	24.02	314	1.1	100	1.1	15	0	973.4	NA	0.0000		9999	1120	0	0	0
2019/04/11 20:19:00	BASE	18.39	312	24.02	314	1.1	100	1.1	16	0	973.5	NA	0.0000		9999	1640	0	0	0
2019/04/11 20:20:00	BASE	17.57	308	24.02	314	1.1	100	1.1	17	0	973.5	NA	0.0000		9999	1540	0	0	0
2019/04/11 20:21:00	BASE	19.31	306	24.02	314	1.1	100	1.1	18	0	973.5	NA	0.0000		9999	1640	0	0	0
2019/04/11 20:22:00	BASE	20.50	306	24.02	314	1.0	100	1.0	18	0	973.5	NA	0.0000		9999	1510	0	0	0
2019/04/11 20:23:00	BASE	19.91	305	24.02	314	1.0	100	1.0	18	0	973.6	NA	0.0000		9999	1870	3050	0	0
2019/04/11 20:24:00	BASE	19.19	306	24.02	314	1.0	100	1.0	19	0	973.6	NA	0.0000		9999	2760	3220	0	0
2019/04/11 20:25:01	BASE	18.52	308	24.02	314	1.0	100	1.0	19	0	973.7	NA	0.0000		9999	2760	3940	0	0
2019/04/11 20:26:00	BASE	18.01	309	23.41	303	1.0	100	1.0	18	0	973.7	NA	0.0000		9999	820	2790	0	0
2019/04/11 20:27:00	BASE	18.32	309	23.41	303	1.0	100	1.0	18	0	973.7	NA	0.0000		9999	560	2790	0	0
2019/04/11 20:28:00	BASE	18.53	311	23.41	303	1.0	100	1.0	18	0	973.7	NA	0.0000		9999	520	3180	0	0
2019/04/11 20:29:00	BASE	18.23	312	23.41	303	1.0	100	1.0	19	0	973.7	NA	0.0000		9999	460	3250	0	0
2019/04/11 20:30:00	BASE	18.96	315	23.41	303	0.9	100	0.9	22	0	973.7	NA	0.0000		9999	1120	2720	0	0
2019/04/11 20:31:00	BASE	19.65	315	21.50	311	0.9	100	0.9	25	0	973.7	NA	0.0000		9999	2720	3510	0	0
2019/04/11 20:32:01	BASE	19.38	314	21.56	318	0.9	100	0.9	26	0	973.7	NA	0.0000		9999	2720	3710	0	0
2019/04/11 20:33:00	BASE	18.99	314	21.81	313	0.9	100	0.9	25	0	973.8	NA	0.0000		9999	2850	4230	0	0
2019/04/11 20:34:00	BASE	18.89	314	21.81	313	0.9	100	0.9	22	0	973.9	NA	0.0000		9999	2850	4300	0	0
2019/04/11 20:35:00	BASE	18.73	314	21.81	313	0.9	100	0.9	19	0	973.9	NA	0.0000		9999	590	2820	0	0
2019/04/11 20:36:00	BASE	19.00	313	21.81	313	0.9	100	0.9	17	0	973.9	NA	0.0000		9999	1900	2820	0	0
2019/04/11 20:37:00	BASE	18.75	314	21.81	313	0.8	100	0.8	15	0	974.0	NA	0.0000		9999	720	1840	0	0
2019/04/11 20:38:01	BASE	17.93	316	21.81	313	0.8	100	0.8	14	0	974.1	NA	0.0000		9999	1710	0	0	0
2019/04/11 20:39:00	BASE	17.88	317	21.81	313	0.8	100	0.8	14	0	974.1	NA	0.0000		9999	690	1640	0	0
2019/04/11 20:40:01	BASE	17.96	318	21.81	313	0.8	100	0.8	12	0	974.1	NA	0.0000		9999	560	1310	0	0
2019/04/11 20:41:00	BASE	17.35	318	21.81	313	0.8	100	0.8	11	0	974.2	NA	0.0000		9999	1120	0	0	0
2019/04/11 20:42:00	BASE	17.27	318	21.81	313	0.8	100	0.8	10	0	974.2	NA	0.0000		9999	950	1440	0	0
2019/04/11 20:43:01	BASE	18.25	317	20.89	311	0.8	100	0.8	8	0	974.2	NA	0.0000		9999	1250	0	0	0
2019/04/11 20:44:00	BASE	18.99	315	20.89	311	0.8	100	0.8	7	0	974.2	NA	0.0000		9999	1050	0	0	0
2019/04/11 20:45:00	BASE	19.65	313	21.35	311	0.8	100	0.8	9	0	974.2	NA	0.0000		9999	790	0	0	0
2019/04/11 20:46:00	BASE	19.39	312	21.35	311	0.8	100	0.8	9	0	974.3	NA	0.0000		9999	720	0	0	0
2019/04/11 20:47:00	BASE	18.74	313	21.35	311	0.8	100	0.8	9	0	974.3	NA	0.0000		9999	690	0	0	0
2019/04/11 20:48:00	BASE	18.56	313	21.35	311	0.9	100	0.9	8	0	974.3	NA	0.0000		9999	750	0	0	0
2019/04/11 20:49:00	BASE	18.41	314	21.35	311	0.9	100	0.9	9	0	974.4	NA	0.0000		9999	790	0	0	0
2019/04/11 20:50:00	BASE	18.52	315	21.35	311	0.9	100	0.9	11	0	974.4	NA	0.0000		9999	690	0	0	0
2019/04/11 20:51:00	BASE	18.52	314	21.35	311	0.9	100	0.9	10	0	974.4	NA	0.0000		9999	720	0	0	0
2019/04/11 20:52:00	BASE	19.53	314	21.71	312	0.9	100	0.9	10	0	974.4	NA	0.0000		9999	750	0	0	0
2019/04/11 20:53:00	BASE	20.14	314	21.71	312	0.9	100	0.9	10	0	974.4	NA	0.0000		9999	750	0	0	0
2019/04/11 20:54:00	BASE	19.15	315	21.71	312	0.9	100	0.9	8	0	974.4	NA	0.0000		9999	890	0	0	0
2019/04/11 20:55:00	BASE	19.01	315	21.71	312	0.8	100	0.8	7	0	974.5	NA	0.0000		9999	850	1410	0	0
2019/04/11 20:56:00	BASE	19.09	316	21.71	312	0.8	100	0.8	8	0	974.5	NA	0.0000		9999	790	0	0	0
2019/04/11 20:57:00	BASE	18.79	318	23.66	314	0.8	100	0.8	14	0	974.5	NA	0.0000		9999	850	0	0	0
2019/04/11 20:58:00	BASE	19.32	316	23.66	314	0.8	100	0.8	13	0	974.5	NA	0.0000		9999	720	0	0	0
2019/04/11 20:59:00	BASE	19.49	315	23.66	314	0.8	100	0.8	11	0	974.5	NA	0.0000		9999	1120	0	0	0
2019/04/11 21:00:00	BASE	19.38	315	23.66	314	0.8	100	0.8	9	0	974.5	NA	0.0000		9999	460	0	0	0
2019/04/11 21:01:00	BASE	20.28	313	23.92	307	0.8	100	0.8	8	0	974.5	NA	0.0000		9000	260	0	0	0
2019/04/11 21:02:00	BASE	21.70	308	23.92	307	0.8	100	0.8	6	0	974.5	NA	0.0000		4700	0	0	0	1440
2019/04/11 21:03:00	BASE	20.63	304	23.92	307	0.8	100	0.8	5	0	974.7	NA	0.0000	BR	4800	0	0	0	1150
2019/04/11 21:04:00	BASE	20.70	304	24.44	308	0.8	100	0.8	6	0	974.6	NA	0.0000	UP BR	7000	360	0	0	0
2019/04/11 21:05:01	BASE	21.49	304	24.54	297	0.8	100	0.8	5	0	974.7	NA	0.0000	UP BR	9999	750	0	0	0
2019/04/11 21:06:00	BASE	22.80	304	27.21	306	0.8	100	0.8	6	0	974.6	NA	0.0000	UP BR	9999	1120	0	0	0
2019/04/11 21:07:00	BASE	23.19	302	27.21	306	0.7	100	0.7	6	0	974.8	NA	0.0000	UP BR	9999	1020	0	0	0
2019/04/11 21:08:00	BASE	20.96	299	27.21	306	0.7	100	0.7	6	0	974.9	NA	0.0000	UP BR	9999	1180	0	0	0
2019/04/11 21:09:00	BASE	19.64	298	27.21	306	0.7	100	0.7	5	0	974.9	NA	0.0000	UP BR	9999	1410	2890	0	0
2019/04/11 21:10:00	BASE	19.92	297	27.21	306	0.7	100	0.7	4	0	974.9	NA	0.0000	UP BR	9999	1180	2130	0	0
2019/04/11 21:11:00	BASE	22.39	294	27.21	306	0.7	100	0.7	4	0	974.9	NA	0.0000	UP BR	9999	1250	0	0	0
2019/04/11 21:12:00	BASE	24.44	295	28.19	296	0.7	100	0.7	4	0	974.9	NA	0.0000	UP BR	5000	300	0	0	0
2019/04/11 21:13:00	BASE	24.46	297	28.19	296	0.7	100	0.7	4	0	975.0	NA	0.0000	UP	6000	920	0	0	0
2019/04/11 21:14:00	BASE	23.36	297	28.19	296	0.7	100	0.7	3	0	975.1	NA	0.0000	UP	9999	1250	0	0	0
2019/04/11 21:15:00	BASE	22.82	298	28.19	296	0.7	100	0.7	3	0	975.1	NA	0.0000	UP	9999	1350	0	0	0
2019/04/11 21:16:00	BASE	21.93	299	28.19	296	0.6	100	0.6	3	0	975.1	NA	0.0000	UP	9999	1280	0	0	0
2019/04/11 21:17:00	BASE	21.36	301	28.19	296	0.6	100	0.6	2	0	975.2	NA	0.0000	UP	9999	1120	0	0	0
2019/04/11 21:18:00	BASE	21.43	302	28.19	296	0.6	100	0.6	2	0	975.2	NA	0.0000	UP	9999	1120	0	0	0
2019/04/11 21:19:00	BASE	21.23	304	28.19	296	0.6	100	0.6	2	0	975.2	NA	0.0000	UP	9999	1080	0	0	0
2019/04/11 21:20:00	BASE	21.54	304	28.19	296	0.7	100	0.7	2	0	975.2	NA	0.0000	UP	9999	1150	0	0	0
2019/04/11 21:21:00	BASE	21.69	300	28.19	296	0.7	100	0.7	2	0	975.3	NA	0.0000	UP	9999	920	0	0	0
2019/04/11 21:22:00	BASE	21.23	299	26.91	295	0.7	100	0.7	2	0	975.3	NA	0.0000	UP	9999	850	0	0	0
2019/04/11 21:23:00	BASE	21.01	299	26.70	307	0.7	100	0.7	2	0	975.4	NA	0.0000		9999	750	0	0	0
2019/04/11 21:24:00	BASE	22.16	300	25.41	305	0.7	100	0.7	2	0	975.3	NA	0.0000		9999	920	0	0	0
2019/04/11 21:25:00	BASE	23.66	300	26.08	300	0.7	100	0.7	1	0	975.3	NA	0.0000		9999	1180	0	0	0
2019/04/11 21:26:00	BASE	23.97	300	27.47	300	0.7	100	0.7	1	0	975.4	NA	0.0000		9999	980	0	0	0
2019/04/11 21:27:00	BASE	23.83	299	27.47	300	0.7	100	0.7	1	0	975.4	NA	0.0000		9999	1120	0	0	0
2019/04/11 21:28:00	BASE	23.57	301	27.47	300	0.7	100	0.7	1	0	975.5	NA	0.0000		9999	1080	0	0	0
2019/04/11 21:29:00	BASE	23.62	301	27.47	300	0.7	100	0.7	1	0	975.5	NA	0.0000		9999	1180	0	0	0
2019/04/11 21:30:01	BASE	23.19	298	27.47	300	0.7	100	0.7	1	0	975.6	NA	0.0000		9999	1120	0	0	0
2019/04/11 21:31:00	BASE	22.81	295	27.47	300	0.7	100	0.7	1	0	975.6	NA	0.0000		9999	1310	0	0	0
2019/04/11 21:32:00	BASE	23.64	292	27.47	300	0.7	100	0.7	0	0	975.6	NA	0.0000		9999	1410	0	0	0
2019/04/11 21:33:00	BASE	24.10	295	27.73	305	0.7	100	0.7	0	0	975.7	NA	0.0000		9999	1210	0	0	0
2019/04/11 21:34:00	BASE	23.86	299	27.73	305	0.8	100	0.8	0	0	975.7	NA	0.0000		9999	1250	0	0	0
2019/04/11 21:35:00	BASE	24.58	297	28.91	288	0.8	100	0.8	0	0	975.7	NA	0.0000		9999	1280	0	0	0
2019/04/11 21:36:00	BASE	24.78	296	28.91	288	0.8	100	0.8	0	0	975.8	NA	0.0000		9999	1280	0	0	0
2019/04/11 21:37:00	BASE	22.21	297	28.91	288	0.8	100	0.8	0	0	976.0	NA	0.0000		9999	1310	0	0	0
2019/04/11 21:38:00	BASE	20.27	298	28.91	288	0.8	100	0.8	0	0	976.0	NA	0.0000		9999	1350	0	0	0
2019/04/11 21:39:00	BASE	21.30	296	28.91	288	0.8	100	0.8	0	0	976.0	NA	0.0000		9999	1510	0	0	0
2019/04/11 21:40:00	BASE	22.41	295	28.91	288	0.8	100	0.8	0	0	976.0	NA	0.0000		9999	1540	0	0	0
2019/04/11 21:41:00	BASE	23.60	294	28.91	288	0.8	100	0.8	0	0	976.0	NA	0.0000		9999	1510	0	0	0
2019/04/11 21:42:00	BASE	23.06	294	28.91	288	0.8	100	0.8	0	0	976.1	NA	0.0000		9999	1610	0	0	0
2019/04/11 21:43:00	BASE	21.47	296	28.91	288	0.8	100	0.8	0	0	976.2	NA	0.0000		9999	1510	0	0	0
2019/04/11 21:44:00	BASE	20.91	299	28.91	288	0.8	100	0.8	0	0	976.2	NA	0.0000		9999	1410	0	0	0
2019/04/11 21:45:00	BASE	18.98	303	27.73	290	0.8	100	0.8	0	0	976.3	NA	0.0000		9999	1410	0	0	0
2019/04/11 21:46:00	BASE	19.30	303	26.91	288	0.9	100	0.9	0	0	976.3	NA	0.0000		9999	1180	0	0	0
2019/04/11 21:47:00	BASE	20.59	300	26.91	288	0.9	100	0.9	0	0	976.3	NA	0.0000		9999	1380	0	0	0
2019/04/11 21:48:00	BASE	21.40	297	26.91	288	0.9	100	0.9	0	0	976.4	NA	0.0000		9999	1610	0	0	0
2019/04/11 21:49:00	BASE	21.46	300	26.65	292	0.9	100	0.9	0	0	976.5	NA	0.0000		9999	1510	2130	0	0
2019/04/11 21:50:00	BASE	21.04	300	26.65	292	0.9	100	0.9	0	0	976.4	NA	0.0000		9999	1480	0	0	0
2019/04/11 21:51:00	BASE	21.43	297	25.88	299	0.8	100	0.8	0	0	976.5	NA	0.0000		9999	1610	0	0	0
2019/04/11 21:52:00	BASE	21.21	296	25.88	299	0.8	100	0.8	0	0	976.6	NA	0.0000		9999	1640	0	0	0
2019/04/11 21:53:00	BASE	20.86	298	25.88	299	0.8	100	0.8	0	0	976.6	NA	0.0000		9999	1670	0	0	0
2019/04/11 21:54:00	BASE	20.45	300	25.88	299	0.8	100	0.8	0	0	976.6	NA	0.0000		9999	1540	0	0	0
2019/04/11 21:55:00	BASE	20.71	298	25.88	299	0.8	100	0.8	0	0	976.6	NA	0.0000		9999	1610	0	0	0
2019/04/11 21:56:00	BASE	21.10	297	25.88	299	0.8	100	0.8	0	0	976.6	NA	0.0000		9999	1610	0	0	0
2019/04/11 21:57:00	BASE	21.04	301	25.88	299	0.8	100	0.8	0	0	976.7	NA	0.0000		9999	1640	0	0	0
2019/04/11 21:58:00	BASE	21.70	300	25.88	299	0.8	100	0.8	0	0	976.7	NA	0.0000		9999	1610	0	0	0
2019/04/11 21:59:00	BASE	20.45	299	25.88	299	0.9	100	0.9	0	0	976.8	NA	0.0000		9999	1710	0	0	0
2019/04/11 22:00:00	BASE	19.73	300	25.67	287	0.9	100	0.9	0	0	976.8	NA	0.0000		9999	1710	0	0	0
2019/04/11 22:01:00	BASE	19.98	302	25.67	287	0.9	100	0.9	0	0	976.8	NA	0.0000		9999	1870	0	0	0
2019/04/11 22:02:00	BASE	19.39	302	25.67	287	0.9	100	0.9	0	0	976.9	NA	0.0000		9999	1770	0	0	0
2019/04/11 22:03:00	BASE	21.02	303	25.67	287	0.9	100	0.9	0	0	976.9	NA	0.0000		9999	1710	0	0	0
2019/04/11 22:04:00	BASE	21.96	301	25.67	287	0.9	100	0.9	0	0	976.9	NA	0.0000		9999	1280	0	0	0
2019/04/11 22:05:00	BASE	21.63	299	25.67	287	0.9	100	0.9	0	0	977.0	NA	0.0000		9999	1710	0	0	0
2019/04/11 22:06:00	BASE	21.52	298	25.67	287	0.9	100	0.9	0	0	977.0	NA	0.0000		9999	1710	0	0	0
2019/04/11 22:07:00	BASE	20.86	297	25.67	287	0.9	100	0.9	0	0	977.1	NA	0.0000		9999	1480	0	0	0
2019/04/11 22:08:00	BASE	21.34	293	25.62	299	0.9	100	0.9	0	0	977.2	NA	0.0000		9999	1540	0	0	0
2019/04/11 22:09:00	BASE	22.24	291	25.62	299	0.9	100	0.9	0	0	977.2	NA	0.0000		8000	330	2920	0	0
2019/04/11 22:10:00	BASE	20.35	286	25.62	299	0.9	100	0.9	0	0	977.4	NA	0.0000	UP	8000	1840	0	0	0
2019/04/11 22:11:00	BASE	18.32	280	25.62	299	0.9	100	0.9	0	0	977.4	NA	0.0000	UP	9999	1480	3410	0	0
2019/04/11 22:12:00	BASE	16.93	285	25.62	299	0.9	100	0.9	0	0	977.5	NA	0.0000	UP	9999	2030	0	0	0
2019/04/11 22:13:00	BASE	18.33	288	25.62	299	0.9	100	0.9	0	0	977.4	NA	0.0000	UP	9999	1770	2490	0	0
2019/04/11 22:14:00	BASE	20.04	286	25.57	289	0.9	100	0.9	0	0	977.4	NA	0.0000	UP	9999	1970	3350	0	0
2019/04/11 22:15:00	BASE	18.99	286	25.57	289	0.9	100	0.9	0	0	977.5	NA	0.0000	UP	9999	1640	0	0	0
2019/04/11 22:16:00	BASE	17.48	287	25.57	289	0.9	100	0.9	0	0	977.5	NA	0.0000	UP	9999	2100	3380	0	0
2019/04/11 22:17:00	BASE	16.45	291	25.57	289	0.9	100	0.9	0	0	977.6	NA	0.0000	UP	9999	2170	3350	0	0
2019/04/11 22:18:00	BASE	17.82	293	23.51	298	0.9	100	0.9	0	0	977.5	NA	0.0000	UP	9999	1970	0	0	0
2019/04/11 22:19:00	BASE	19.35	292	23.20	279	0.9	100	0.9	0	0	977.5	NA	0.0000	UP	9999	1870	0	0	0
2019/04/11 22:20:00	BASE	18.33	293	23.20	279	0.9	100	0.9	0	0	977.6	NA	0.0000		9999	1870	0	0	0
2019/04/11 22:21:00	BASE	16.23	295	23.20	279	0.9	100	0.9	0	0	977.6	NA	0.0000		9999	1800	0	0	0
2019/04/11 22:22:00	BASE	16.57	298	23.20	279	0.9	100	0.9	0	0	977.7	NA	0.0000		9999	1480	0	0	0
2019/04/11 22:23:00	BASE	19.58	302	24.02	305	0.9	100	0.9	0	0	977.5	NA	0.0000		9999	1150	0	0	0
2019/04/11 22:24:00	BASE	21.36	303	25.62	299	0.9	100	0.9	0	0	977.6	NA	0.0000		9999	660	0	0	0
2019/04/11 22:25:00	BASE	22.54	299	27.37	294	0.9	100	0.9	0	0	977.6	NA	0.0000		9999	360	0	0	0
2019/04/11 22:26:00	BASE	22.80	289	27.37	294	0.8	100	0.8	0	0	977.8	NA	0.0000		4500	0	0	0	2530
2019/04/11 22:27:00	BASE	20.12	284	27.37	294	0.7	100	0.7	0	0	977.8	NA	0.0000	-SN	4500	330	0	0	0
2019/04/11 22:28:00	BASE	18.14	292	27.37	294	0.6	100	0.6	0	0	977.9	NA	0.0000	-SN BR	8000	1710	0	0	0
2019/04/11 22:29:00	BASE	19.24	294	27.37	294	0.5	100	0.5	0	0	977.9	NA	0.0000	-SN BR	9999	2130	0	0	0
2019/04/11 22:30:00	BASE	18.75	292	27.37	294	0.4	100	0.4	0	0	977.9	NA	0.0000	-SN BR	9999	2890	0	0	0
2019/04/11 22:31:00	BASE	17.65	293	27.37	294	0.4	100	0.4	0	0	977.9	NA	0.0000	-SN BR	9999	2620	0	0	0
2019/04/11 22:32:00	BASE	17.18	296	27.37	294	0.4	100	0.4	0	0	978.0	NA	0.0000	-SN BR	9999	2890	0	0	0
2019/04/11 22:33:00	BASE	16.19	299	27.37	294	0.4	100	0.4	0	0	978.0	NA	0.0000	-SN BR	9999	1940	3020	0	0
2019/04/11 22:34:00	BASE	17.21	295	27.37	294	0.4	100	0.4	0	0	978.1	NA	0.0000	-SN BR	9999	1800	3150	0	0
2019/04/11 22:35:00	BASE	17.42	290	25.00	285	0.4	100	0.4	0	0	978.1	NA	0.0000	-SN BR	9999	3150	0	0	0
2019/04/11 22:36:00	BASE	16.15	288	23.46	283	0.4	100	0.4	0	0	978.2	NA	0.0000	-SN	9999	3150	0	0	0
2019/04/11 22:37:00	BASE	15.72	291	23.46	283	0.4	100	0.4	0	0	978.2	NA	0.0000	-SN	9999	3150	0	0	0
2019/04/11 22:38:00	BASE	15.87	294	23.46	283	0.4	100	0.4	0	0	978.2	NA	0.0000		9999	3540	0	0	0
2019/04/11 22:39:00	BASE	15.57	295	22.17	290	0.5	100	0.5	0	0	978.2	NA	0.0000		9999	1770	3900	0	0
2019/04/11 22:40:00	BASE	14.73	295	22.17	290	0.5	100	0.5	0	0	978.3	NA	0.0000		9999	1740	4170	0	0
2019/04/11 22:41:00	BASE	14.04	298	21.35	280	0.5	100	0.5	0	0	978.3	NA	0.0000		9999	4170	0	0	0
2019/04/11 22:42:00	BASE	15.48	294	21.35	280	0.5	100	0.5	0	0	978.3	NA	0.0000		9999	4040	0	0	0
2019/04/11 22:43:00	BASE	16.51	291	21.35	280	0.5	100	0.5	0	0	978.3	NA	0.0000		9999	4130	0	0	0
2019/04/11 22:44:00	BASE	16.47	294	20.37	276	0.5	100	0.5	0	0	978.3	NA	0.0000		9999	1870	4200	0	0
2019/04/11 22:45:00	BASE	17.27	295	20.22	297	0.5	100	0.5	0	0	978.3	NA	0.0000		9999	1670	4360	0	0
2019/04/11 22:46:00	BASE	17.33	295	20.22	297	0.5	100	0.5	0	0	978.4	NA	0.0000		9999	1540	0	0	0
2019/04/11 22:47:00	BASE	16.21	298	20.22	297	0.5	100	0.5	0	0	978.4	NA	0.0000		9999	1480	0	0	0
2019/04/11 22:48:00	BASE	15.28	302	20.22	297	0.6	100	0.6	0	0	978.4	NA	0.0000		9999	1410	0	0	0
2019/04/11 22:49:00	BASE	15.35	302	20.22	297	0.6	100	0.6	0	0	978.5	NA	0.0000		9999	1210	1800	0	0
2019/04/11 22:50:00	BASE	17.49	300	22.89	303	0.6	100	0.6	0	0	978.4	NA	0.0000		9999	1120	1970	0	0
2019/04/11 22:51:00	BASE	21.20	298	25.31	304	0.6	100	0.6	0	0	978.4	NA	0.0000		9999	1510	2100	0	0
2019/04/11 22:52:00	BASE	22.72	296	25.31	304	0.5	100	0.5	0	0	978.4	NA	0.0000		9999	1150	1670	0	0
2019/04/11 22:53:00	BASE	21.80	296	25.31	304	0.5	100	0.5	0	0	978.6	NA	0.0000		9999	1480	2100	0	0
2019/04/11 22:54:00	BASE	20.55	295	25.31	304	0.4	100	0.4	0	0	978.7	NA	0.0000		9999	3410	0	0	0
2019/04/11 22:55:00	BASE	21.05	291	25.31	304	0.3	100	0.3	0	0	978.7	NA	0.0000		9999	3410	0	0	0
2019/04/11 22:56:00	BASE	19.67	295	25.31	304	0.2	100	0.2	0	0	978.8	NA	0.0000		9999	2950	0	0	0
2019/04/11 22:57:00	BASE	17.08	297	25.31	304	0.1	100	0.1	0	0	978.9	NA	0.0000		9999	3050	0	0	0
2019/04/11 22:58:00	BASE	18.01	296	25.31	304	0.1	100	0.1	0	0	978.8	NA	0.0000		9999	2230	3180	0	0
2019/04/11 22:59:00	BASE	18.28	295	25.31	304	0.0	100	0.0	0	0	978.9	NA	0.0000		9999	1280	2360	0	0
2019/04/11 23:00:00	BASE	17.99	294	25.31	304	0.0	100	0.0	0	0	978.9	NA	0.0000		9999	1120	2330	0	0
2019/04/11 23:01:00	BASE	19.07	296	24.85	297	0.0	100	0.0	0	0	978.9	NA	0.0000		9999	1900	0	0	0
2019/04/11 23:02:00	BASE	19.21	299	24.38	288	-0.0	100	-0.0	0	0	979.0	NA	0.0000		9999	1150	2170	0	0
2019/04/11 23:03:00	BASE	20.07	295	24.38	288	-0.0	100	-0.0	0	0	978.9	NA	0.0000		9999	2230	0	0	0
2019/04/11 23:04:00	BASE	20.58	290	24.33	286	-0.1	100	-0.1	0	0	979.0	NA	0.0000		9999	2230	0	0	0
2019/04/11 23:05:00	BASE	19.18	289	23.41	294	-0.1	100	-0.1	0	0	979.1	NA	0.0000		9999	2300	0	0	0
2019/04/11 23:06:00	BASE	17.60	290	23.41	294	-0.1	100	-0.1	0	0	979.1	NA	0.0000		9999	560	0	0	0
2019/04/11 23:07:00	BASE	18.47	292	23.41	294	-0.1	100	-0.1	0	0	979.0	NA	0.0000		9999	360	0	0	0
2019/04/11 23:08:00	BASE	19.21	290	23.41	294	-0.1	100	-0.1	0	0	979.1	NA	0.0000		9999	430	0	0	0
2019/04/11 23:09:00	BASE	18.59	290	23.41	294	-0.1	100	-0.1	0	0	979.1	NA	0.0000	UP	9999	1840	0	0	0
2019/04/11 23:10:00	BASE	18.43	290	23.41	294	-0.1	100	-0.1	0	0	979.1	NA	0.0000	UP	9999	1050	0	0	0
2019/04/11 23:11:00	BASE	17.44	290	23.41	294	-0.1	100	-0.1	0	0	979.2	NA	0.0000	UP	9999	820	1640	0	0
2019/04/11 23:12:00	BASE	17.22	291	23.41	294	-0.1	100	-0.1	0	0	979.2	NA	0.0000	UP	9999	460	0	0	0
2019/04/11 23:13:00	BASE	16.80	289	23.00	295	-0.1	100	-0.1	0	0	979.2	NA	0.0000	UP	9999	430	1940	0	0
2019/04/11 23:14:00	BASE	17.90	287	25.10	286	-0.1	100	-0.1	0	0	979.2	NA	0.0000	UP	9999	1870	0	0	0
2019/04/11 23:15:00	BASE	20.57	289	25.10	286	-0.1	100	-0.1	0	0	979.2	NA	0.0000	UP	9999	2030	0	0	0
2019/04/11 23:16:00	BASE	20.50	290	25.10	286	-0.1	100	-0.1	0	0	979.2	NA	0.0000	UP	9999	2360	0	0	0
2019/04/11 23:17:00	BASE	19.50	289	25.10	286	-0.1	100	-0.1	0	0	979.2	NA	0.0000	UP	9999	2430	0	0	0
2019/04/11 23:18:00	BASE	18.48	291	25.10	286	-0.1	100	-0.1	0	0	979.3	NA	0.0000		9999	1310	2400	0	0
2019/04/11 23:19:00	BASE	17.29	293	25.10	286	-0.1	100	-0.1	0	0	979.3	NA	0.0000		9999	1280	2760	0	0
2019/04/11 23:20:01	BASE	17.41	296	25.10	286	-0.1	100	-0.1	0	0	979.3	NA	0.0000		9999	590	0	0	0
2019/04/11 23:21:00	BASE	18.01	302	25.10	286	-0.1	100	-0.1	0	0	979.3	NA	0.0000		9999	460	0	0	0
2019/04/11 23:22:00	BASE	18.29	301	25.10	286	-0.1	100	-0.1	0	0	979.4	NA	0.0000		9999	330	0	0	0
2019/04/11 23:23:00	BASE	18.31	302	25.10	286	-0.1	100	-0.1	0	0	979.4	NA	0.0000		9999	360	0	0	0
2019/04/11 23:24:00	BASE	18.46	304	24.59	288	-0.1	100	-0.1	0	0	979.4	NA	0.0000		9999	390	0	0	0
2019/04/11 23:25:00	BASE	18.23	301	22.74	294	-0.2	100	-0.2	0	0	979.5	NA	0.0000		9999	460	0	0	0
2019/04/11 23:26:00	BASE	18.00	303	21.61	297	-0.2	100	-0.2	0	0	979.5	NA	0.0000		9999	360	0	0	0
2019/04/11 23:27:00	BASE	17.95	302	21.61	297	-0.2	100	-0.2	0	0	979.5	NA	0.0000		9999	660	0	0	0
2019/04/11 23:28:00	BASE	17.73	299	21.61	297	-0.2	100	-0.2	0	0	979.6	NA	0.0000		9999	920	0	0	0
2019/04/11 23:29:00	BASE	17.09	298	21.61	297	-0.2	100	-0.2	0	0	979.6	NA	0.0000		9999	620	0	0	0
2019/04/11 23:30:00	BASE	17.18	301	21.61	297	-0.2	100	-0.2	0	0	979.6	NA	0.0000		9999	590	0	0	0
2019/04/11 23:31:00	BASE	19.11	304	21.86	302	-0.2	100	-0.2	0	0	979.6	NA	0.0000		9999	1540	0	0	0
2019/04/11 23:32:00	BASE	18.65	302	21.86	302	-0.2	100	-0.2	0	0	979.7	NA	0.0000		9999	1840	0	0	0
2019/04/11 23:33:00	BASE	17.41	301	21.86	302	-0.3	100	-0.3	0	0	979.7	NA	0.0000		9999	2720	0	0	0
2019/04/11 23:34:00	BASE	17.03	301	21.86	302	-0.3	100	-0.3	0	0	979.7	NA	0.0000		9999	2850	0	0	0
2019/04/11 23:35:00	BASE	16.17	301	21.86	302	-0.3	100	-0.3	0	0	979.7	NA	0.0000		9999	2690	0	0	0
2019/04/11 23:36:00	BASE	16.14	303	21.86	302	-0.3	100	-0.3	0	0	979.8	NA	0.0000		9999	2030	0	0	0
2019/04/11 23:37:00	BASE	16.68	306	21.86	302	-0.3	100	-0.3	0	0	979.7	NA	0.0000		9999	0	0	0	950
2019/04/11 23:38:00	BASE	18.95	307	22.07	298	-0.3	100	-0.3	0	0	979.7	NA	0.0000		9999	0	0	0	1570
2019/04/11 23:39:00	BASE	20.44	306	22.07	298	-0.3	100	-0.3	0	0	979.7	NA	0.0000		9999	4100	0	0	0
2019/04/11 23:40:00	BASE	19.37	306	22.07	298	-0.3	100	-0.3	0	0	979.8	NA	0.0000		9999	1250	0	0	0
2019/04/11 23:41:00	BASE	18.34	308	22.07	298	-0.3	100	-0.3	0	0	979.8	NA	0.0000		9999	2990	0	0	0
2019/04/11 23:42:00	BASE	18.04	312	22.07	298	-0.2	100	-0.2	0	0	979.8	NA	0.0000		9999	0	0	0	5120
2019/04/11 23:43:00	BASE	17.24	313	22.07	298	-0.2	100	-0.2	0	0	979.8	NA	0.0000		9999	1120	3940	0	0
2019/04/11 23:44:00	BASE	16.38	314	22.07	298	-0.2	100	-0.2	0	0	979.9	NA	0.0000		9999	1280	0	0	0
2019/04/11 23:45:00	BASE	15.92	315	22.07	298	-0.2	100	-0.2	0	0	979.9	NA	0.0000		9999	1610	0	0	0
2019/04/11 23:46:00	BASE	16.48	317	22.07	298	-0.2	100	-0.2	0	0	979.9	NA	0.0000		9999	2790	0	0	0
2019/04/11 23:47:00	BASE	16.73	318	22.07	298	-0.2	100	-0.2	0	0	980.0	NA	0.0000		9999	2720	0	0	0
2019/04/11 23:48:00	BASE	15.54	315	21.50	305	-0.1	100	-0.1	0	0	980.1	NA	0.0000		9999	3670	0	0	0
2019/04/11 23:49:00	BASE	14.72	314	20.68	303	-0.1	100	-0.1	0	0	980.1	NA	0.0000		9999	2850	0	0	0
2019/04/11 23:50:00	BASE	15.09	315	19.45	311	-0.1	100	-0.1	0	0	980.1	NA	0.0000		9999	3220	0	0	0
2019/04/11 23:51:00	BASE	15.41	315	18.67	313	-0.1	100	-0.1	0	0	980.1	NA	0.0000		9999	3020	0	0	0
2019/04/11 23:52:00	BASE	14.65	316	18.21	315	-0.1	100	-0.1	0	0	980.2	NA	0.0000		9999	2890	0	0	0
2019/04/11 23:53:00	BASE	14.29	314	18.21	315	-0.1	100	-0.1	0	0	980.2	NA	0.0000		9999	2890	0	0	0
2019/04/11 23:54:00	BASE	14.56	307	18.21	315	-0.1	100	-0.1	0	0	980.2	NA	0.0000		9999	2820	0	0	0
2019/04/11 23:55:00	BASE	14.78	304	18.21	315	-0.1	100	-0.1	0	0	980.1	NA	0.0000		9999	2890	0	0	0
2019/04/11 23:56:00	BASE	15.50	310	18.98	311	-0.1	100	-0.1	0	0	980.2	NA	0.0000		9999	2950	0	0	0
2019/04/11 23:57:00	BASE	16.73	311	19.24	303	-0.1	100	-0.1	0	0	980.2	NA	0.0000		9999	3050	0	0	0
2019/04/11 23:58:00	BASE	16.32	303	19.24	303	-0.1	100	-0.1	0	0	980.2	NA	0.0000		9999	3150	0	0	0
2019/04/11 23:59:00	BASE	15.20	303	19.24	303	-0.1	100	-0.1	0	0	980.2	NA	0.0000		9999	3020	0	0	0